<?xml version='1.0' encoding='UTF-8'?><gpx version="1.1" creator="JPX - https://github.com/jenetics/jpx" xmlns="http://www.topografix.com/GPX/1/1"><trk><trkseg><trkpt lat="45.99395049756352" lon="12.746433355817084"><ele>41.0</ele><time>2026-04-12T10:25:17Z</time></trkpt><trkpt lat="45.993926998717" lon="12.746587296257877"><ele>41.0</ele><time>2026-04-12T10:25:19Z</time></trkpt><trkpt lat="45.99390656358055" lon="12.746678798780941"><ele>41.0</ele><time>2026-04-12T10:25:20Z</time></trkpt><trkpt lat="45.99388244053128" lon="12.746791515402531"><ele>41.0</ele><time>2026-04-12T10:25:21Z</time></trkpt><trkpt lat="45.99383734074797" lon="12.746909641192547"><ele>41.0</ele><time>2026-04-12T10:25:22Z</time></trkpt><trkpt lat="45.99381241817166" lon="12.747057588963264"><ele>41.0</ele><time>2026-04-12T10:25:23Z</time></trkpt><trkpt lat="45.99379075202673" lon="12.74718620557585"><ele>41.0</ele><time>2026-04-12T10:25:24Z</time></trkpt><trkpt lat="45.99377073471434" lon="12.747305034264755"><ele>41.0</ele><time>2026-04-12T10:25:25Z</time></trkpt><trkpt lat="45.993751004922004" lon="12.747422156122777"><ele>41.0</ele><time>2026-04-12T10:25:26Z</time></trkpt><trkpt lat="45.993731513262475" lon="12.747534265295387"><ele>41.0</ele><time>2026-04-12T10:25:27Z</time></trkpt><trkpt lat="45.99371120527699" lon="12.74764884413945"><ele>41.0</ele><time>2026-04-12T10:25:28Z</time></trkpt><trkpt lat="45.993688070171935" lon="12.747776267387959"><ele>41.25</ele><time>2026-04-12T10:25:29Z</time></trkpt><trkpt lat="45.993659634748695" lon="12.747928689858263"><ele>41.5</ele><time>2026-04-12T10:25:30Z</time></trkpt><trkpt lat="45.99362939767723" lon="12.748090769701697"><ele>41.75</ele><time>2026-04-12T10:25:31Z</time></trkpt><trkpt lat="45.99359449373617" lon="12.748277865361876"><ele>42.0</ele><time>2026-04-12T10:25:32Z</time></trkpt><trkpt lat="45.99355121631819" lon="12.748509845390435"><ele>42.0</ele><time>2026-04-12T10:25:33Z</time></trkpt><trkpt lat="45.99350625857418" lon="12.748752801339764"><ele>42.0</ele><time>2026-04-12T10:25:34Z</time></trkpt><trkpt lat="45.993457677226814" lon="12.749026071406515"><ele>42.0</ele><time>2026-04-12T10:25:35Z</time></trkpt><trkpt lat="45.99341327213282" lon="12.749275850072891"><ele>42.0</ele><time>2026-04-12T10:25:36Z</time></trkpt><trkpt lat="45.99337693335306" lon="12.74948808129071"><ele>42.0</ele><time>2026-04-12T10:25:37Z</time></trkpt><trkpt lat="45.99334345414252" lon="12.74969532768778"><ele>42.0</ele><time>2026-04-12T10:25:37.999Z</time></trkpt><trkpt lat="45.993316355884296" lon="12.749879634034393"><ele>42.0</ele><time>2026-04-12T10:25:38.999Z</time></trkpt><trkpt lat="45.99328981274122" lon="12.750063256685785"><ele>42.0</ele><time>2026-04-12T10:25:39.999Z</time></trkpt><trkpt lat="45.99326944305129" lon="12.750219234175105"><ele>42.0</ele><time>2026-04-12T10:25:40.999Z</time></trkpt><trkpt lat="45.99324946229245" lon="12.750372951348965"><ele>42.0</ele><time>2026-04-12T10:25:41.999Z</time></trkpt><trkpt lat="45.99323153314955" lon="12.750510884913453"><ele>42.0</ele><time>2026-04-12T10:25:42.999Z</time></trkpt><trkpt lat="45.99321057949444" lon="12.750666975989303"><ele>42.0</ele><time>2026-04-12T10:25:43.999Z</time></trkpt><trkpt lat="45.99318808735099" lon="12.750819470284112"><ele>42.0</ele><time>2026-04-12T10:25:44.999Z</time></trkpt><trkpt lat="45.99316628754061" lon="12.750967270625688"><ele>42.0</ele><time>2026-04-12T10:25:45.999Z</time></trkpt><trkpt lat="45.99314318221335" lon="12.751123922228656"><ele>42.0</ele><time>2026-04-12T10:25:46.999Z</time></trkpt><trkpt lat="45.9931201530982" lon="12.75129482637615"><ele>42.0</ele><time>2026-04-12T10:25:47.999Z</time></trkpt><trkpt lat="45.99310168926453" lon="12.751453014536523"><ele>42.0</ele><time>2026-04-12T10:25:48.999Z</time></trkpt><trkpt lat="45.993087264131006" lon="12.751592715890274"><ele>41.6</ele><time>2026-04-12T10:25:49.999Z</time></trkpt><trkpt lat="45.99307385732746" lon="12.751726548255402"><ele>41.2</ele><time>2026-04-12T10:25:50.999Z</time></trkpt><trkpt lat="45.993060844119405" lon="12.75185645159119"><ele>40.8</ele><time>2026-04-12T10:25:51.999Z</time></trkpt><trkpt lat="45.99304715042816" lon="12.751993147772433"><ele>40.4</ele><time>2026-04-12T10:25:52.999Z</time></trkpt><trkpt lat="45.99303042798804" lon="12.752142724071089"><ele>40.0</ele><time>2026-04-12T10:25:53.999Z</time></trkpt><trkpt lat="45.99300967088677" lon="12.752314382316825"><ele>40.0</ele><time>2026-04-12T10:25:54.999Z</time></trkpt><trkpt lat="45.99298626917215" lon="12.752485920348661"><ele>40.0</ele><time>2026-04-12T10:25:55.999Z</time></trkpt><trkpt lat="45.99296352521198" lon="12.752650524518481"><ele>40.0</ele><time>2026-04-12T10:25:56.999Z</time></trkpt><trkpt lat="45.992941849159976" lon="12.752807399966226"><ele>40.0</ele><time>2026-04-12T10:25:57.999Z</time></trkpt><trkpt lat="45.99291797059829" lon="12.752980215535466"><ele>40.2</ele><time>2026-04-12T10:25:58.999Z</time></trkpt><trkpt lat="45.992915525913205" lon="12.753126228631567"><ele>40.4</ele><time>2026-04-12T10:25:59.999Z</time></trkpt><trkpt lat="45.99289766334684" lon="12.753262792883149"><ele>40.599999999999994</ele><time>2026-04-12T10:26:00.999Z</time></trkpt><trkpt lat="45.99288214994531" lon="12.75340269416082"><ele>40.8</ele><time>2026-04-12T10:26:02Z</time></trkpt><trkpt lat="45.99288369924041" lon="12.753563501568966"><ele>41.0</ele><time>2026-04-12T10:26:03Z</time></trkpt><trkpt lat="45.992876455146316" lon="12.753736766631254"><ele>41.0</ele><time>2026-04-12T10:26:04Z</time></trkpt><trkpt lat="45.9929043831561" lon="12.753911430309671"><ele>41.0</ele><time>2026-04-12T10:26:05Z</time></trkpt><trkpt lat="45.99292209786035" lon="12.754088049140966"><ele>41.0</ele><time>2026-04-12T10:26:06Z</time></trkpt><trkpt lat="45.99292211578079" lon="12.754292142483504"><ele>41.0</ele><time>2026-04-12T10:26:07Z</time></trkpt><trkpt lat="45.99294690514366" lon="12.754497323763188"><ele>41.0</ele><time>2026-04-12T10:26:08Z</time></trkpt><trkpt lat="45.99297559213662" lon="12.754738825296574"><ele>41.0</ele><time>2026-04-12T10:26:09Z</time></trkpt><trkpt lat="45.992989030685195" lon="12.754943982126255"><ele>41.0</ele><time>2026-04-12T10:26:10Z</time></trkpt><trkpt lat="45.993002252093895" lon="12.755142821601043"><ele>40.75</ele><time>2026-04-12T10:26:11Z</time></trkpt><trkpt lat="45.99301282201827" lon="12.755344925714548"><ele>40.5</ele><time>2026-04-12T10:26:12Z</time></trkpt><trkpt lat="45.99301712551704" lon="12.755545024825294"><ele>40.25</ele><time>2026-04-12T10:26:13Z</time></trkpt><trkpt lat="45.99301508744849" lon="12.755739036129823"><ele>40.0</ele><time>2026-04-12T10:26:14Z</time></trkpt><trkpt lat="45.99300769976041" lon="12.75592246110683"><ele>40.25</ele><time>2026-04-12T10:26:15Z</time></trkpt><trkpt lat="45.992994320176514" lon="12.756115926562217"><ele>40.5</ele><time>2026-04-12T10:26:16Z</time></trkpt><trkpt lat="45.992977185755166" lon="12.756302940803993"><ele>40.75</ele><time>2026-04-12T10:26:17Z</time></trkpt><trkpt lat="45.99295748431336" lon="12.756487114479242"><ele>41.0</ele><time>2026-04-12T10:26:18Z</time></trkpt><trkpt lat="45.992935179199186" lon="12.75667783946253"><ele>41.0</ele><time>2026-04-12T10:26:19Z</time></trkpt><trkpt lat="45.99291512892985" lon="12.756860685666533"><ele>41.0</ele><time>2026-04-12T10:26:20Z</time></trkpt><trkpt lat="45.99287396138918" lon="12.757024924358792"><ele>41.0</ele><time>2026-04-12T10:26:21Z</time></trkpt><trkpt lat="45.9928399697769" lon="12.75720409466095"><ele>41.0</ele><time>2026-04-12T10:26:22Z</time></trkpt><trkpt lat="45.992813886785484" lon="12.757408811353601"><ele>41.25</ele><time>2026-04-12T10:26:23Z</time></trkpt><trkpt lat="45.992763874404226" lon="12.757584081625959"><ele>41.5</ele><time>2026-04-12T10:26:24Z</time></trkpt><trkpt lat="45.99272883823068" lon="12.757743217781737"><ele>41.75</ele><time>2026-04-12T10:26:25Z</time></trkpt><trkpt lat="45.992682305572195" lon="12.757901379781952"><ele>42.0</ele><time>2026-04-12T10:26:26Z</time></trkpt><trkpt lat="45.992620620472536" lon="12.758072416234722"><ele>42.0</ele><time>2026-04-12T10:26:27Z</time></trkpt><trkpt lat="45.99255513291719" lon="12.75824242527467"><ele>42.0</ele><time>2026-04-12T10:26:28Z</time></trkpt><trkpt lat="45.99249660281415" lon="12.758425918371012"><ele>42.0</ele><time>2026-04-12T10:26:29Z</time></trkpt><trkpt lat="45.99242327019256" lon="12.758614958371158"><ele>42.0</ele><time>2026-04-12T10:26:30Z</time></trkpt><trkpt lat="45.99236116782833" lon="12.758788777303998"><ele>42.0</ele><time>2026-04-12T10:26:31Z</time></trkpt><trkpt lat="45.99230438216129" lon="12.758942109479271"><ele>42.0</ele><time>2026-04-12T10:26:32Z</time></trkpt><trkpt lat="45.99225224831108" lon="12.759079963628533"><ele>42.0</ele><time>2026-04-12T10:26:33Z</time></trkpt><trkpt lat="45.992187993593234" lon="12.759189671819152"><ele>42.0</ele><time>2026-04-12T10:26:34Z</time></trkpt><trkpt lat="45.99213491804325" lon="12.759283388240597"><ele>42.0</ele><time>2026-04-12T10:26:35Z</time></trkpt><trkpt lat="45.99206355846429" lon="12.759361817172506"><ele>42.2</ele><time>2026-04-12T10:26:36Z</time></trkpt><trkpt lat="45.99196993627081" lon="12.759434744827226"><ele>42.400000000000006</ele><time>2026-04-12T10:26:37Z</time></trkpt><trkpt lat="45.99186966617334" lon="12.759521304460057"><ele>42.599999999999994</ele><time>2026-04-12T10:26:38Z</time></trkpt><trkpt lat="45.99177300262759" lon="12.759579774746708"><ele>42.8</ele><time>2026-04-12T10:26:39Z</time></trkpt><trkpt lat="45.9916963184029" lon="12.759641136666243"><ele>43.0</ele><time>2026-04-12T10:26:40Z</time></trkpt><trkpt lat="45.99164511097925" lon="12.759702700369795"><ele>43.0</ele><time>2026-04-12T10:26:41Z</time></trkpt><trkpt lat="45.99156141298533" lon="12.759844882171016"><ele>43.0</ele><time>2026-04-12T10:26:43Z</time></trkpt><trkpt lat="45.99150734894568" lon="12.759947804414386"><ele>43.0</ele><time>2026-04-12T10:26:45Z</time></trkpt><trkpt lat="45.99146494295181" lon="12.760034436215642"><ele>43.0</ele><time>2026-04-12T10:26:48Z</time></trkpt><trkpt lat="45.99142041629386" lon="12.760125400358254"><ele>43.0</ele><time>2026-04-12T10:26:53Z</time></trkpt><trkpt lat="45.991392721457096" lon="12.760208924455666"><ele>43.0</ele><time>2026-04-12T10:26:56Z</time></trkpt><trkpt lat="45.99134756581988" lon="12.760274741701974"><ele>42.599999999999994</ele><time>2026-04-12T10:26:58Z</time></trkpt><trkpt lat="45.99127892580448" lon="12.760344353136327"><ele>42.199999999999996</ele><time>2026-04-12T10:27:00Z</time></trkpt><trkpt lat="45.99118239462109" lon="12.760384625160594"><ele>41.8</ele><time>2026-04-12T10:27:02Z</time></trkpt><trkpt lat="45.99110258086288" lon="12.760397405378901"><ele>41.4</ele><time>2026-04-12T10:27:04Z</time></trkpt><trkpt lat="45.991034807691555" lon="12.760466160488964"><ele>41.0</ele><time>2026-04-12T10:27:06Z</time></trkpt><trkpt lat="45.990936996918094" lon="12.76054789619541"><ele>40.99999999999999</ele><time>2026-04-12T10:27:08Z</time></trkpt><trkpt lat="45.99087637182001" lon="12.760593092969648"><ele>41.0</ele><time>2026-04-12T10:27:10Z</time></trkpt><trkpt lat="45.99081004528288" lon="12.760643053333643"><ele>41.0</ele><time>2026-04-12T10:27:13Z</time></trkpt><trkpt lat="45.99074177477151" lon="12.760719909241987"><ele>41.0</ele><time>2026-04-12T10:27:16Z</time></trkpt><trkpt lat="45.99068102747762" lon="12.76069426175762"><ele>41.0</ele><time>2026-04-12T10:27:19Z</time></trkpt><trkpt lat="45.990621793059304" lon="12.760753148453524"><ele>40.99999999999999</ele><time>2026-04-12T10:27:23Z</time></trkpt><trkpt lat="45.99054160473283" lon="12.760772941622024"><ele>41.0</ele><time>2026-04-12T10:27:27Z</time></trkpt><trkpt lat="45.99045933862332" lon="12.760802774295051"><ele>40.5</ele><time>2026-04-12T10:27:30Z</time></trkpt><trkpt lat="45.99039381515502" lon="12.760828513609564"><ele>40.0</ele><time>2026-04-12T10:27:32Z</time></trkpt><trkpt lat="45.99029558575264" lon="12.760890337682179"><ele>39.5</ele><time>2026-04-12T10:27:35Z</time></trkpt><trkpt lat="45.99024514712431" lon="12.76094818302875"><ele>39.0</ele><time>2026-04-12T10:27:37Z</time></trkpt><trkpt lat="45.99020411928178" lon="12.761020723103204"><ele>38.5</ele><time>2026-04-12T10:27:39Z</time></trkpt><trkpt lat="45.990169222743816" lon="12.761125335646478"><ele>38.0</ele><time>2026-04-12T10:27:43Z</time></trkpt><trkpt lat="45.99014629145615" lon="12.761225374631918"><ele>38.0</ele><time>2026-04-12T10:27:46Z</time></trkpt><trkpt lat="45.99010934282778" lon="12.761329658344513"><ele>38.0</ele><time>2026-04-12T10:27:49Z</time></trkpt><trkpt lat="45.990086930330556" lon="12.761431745109936"><ele>38.0</ele><time>2026-04-12T10:27:52Z</time></trkpt><trkpt lat="45.990036106928315" lon="12.761554804104051"><ele>38.0</ele><time>2026-04-12T10:27:54Z</time></trkpt><trkpt lat="45.990004066589876" lon="12.761679723529182"><ele>38.0</ele><time>2026-04-12T10:27:56Z</time></trkpt><trkpt lat="45.98986502137587" lon="12.761894674175725"><ele>38.33333333333333</ele><time>2026-04-12T10:27:57Z</time></trkpt><trkpt lat="45.98984085854398" lon="12.762019769588601"><ele>38.666666666666664</ele><time>2026-04-12T10:27:59Z</time></trkpt><trkpt lat="45.98982041301433" lon="12.76213746963485"><ele>39.0</ele><time>2026-04-12T10:28:01Z</time></trkpt><trkpt lat="45.9897986699481" lon="12.762237000475086"><ele>39.333333333333336</ele><time>2026-04-12T10:28:03Z</time></trkpt><trkpt lat="45.98977377136202" lon="12.762349695146789"><ele>39.66666666666667</ele><time>2026-04-12T10:28:05Z</time></trkpt><trkpt lat="45.98974741170371" lon="12.762478851208703"><ele>40.0</ele><time>2026-04-12T10:28:07Z</time></trkpt><trkpt lat="45.98971216833821" lon="12.762611279899108"><ele>40.2</ele><time>2026-04-12T10:28:09Z</time></trkpt><trkpt lat="45.98967751214849" lon="12.76275242751628"><ele>40.4</ele><time>2026-04-12T10:28:11Z</time></trkpt><trkpt lat="45.98964062848523" lon="12.762880423271527"><ele>40.599999999999994</ele><time>2026-04-12T10:28:13Z</time></trkpt><trkpt lat="45.98962320634238" lon="12.763018912957492"><ele>40.8</ele><time>2026-04-12T10:28:15Z</time></trkpt><trkpt lat="45.98958397691621" lon="12.763129753189082"><ele>41.0</ele><time>2026-04-12T10:28:17Z</time></trkpt><trkpt lat="45.98955186834876" lon="12.763230320071262"><ele>41.0</ele><time>2026-04-12T10:28:21Z</time></trkpt><trkpt lat="45.98950792546978" lon="12.763298450853082"><ele>41.0</ele><time>2026-04-12T10:28:24Z</time></trkpt><trkpt lat="45.98946720196347" lon="12.763425343822322"><ele>41.0</ele><time>2026-04-12T10:28:27Z</time></trkpt><trkpt lat="45.98946131934448" lon="12.763531208876348"><ele>41.0</ele><time>2026-04-12T10:28:29Z</time></trkpt><trkpt lat="45.98946340276558" lon="12.763646960104513"><ele>41.0</ele><time>2026-04-12T10:28:31Z</time></trkpt><trkpt lat="45.98948913216795" lon="12.763826822418237"><ele>41.0</ele><time>2026-04-12T10:28:35Z</time></trkpt><trkpt lat="45.9894905508312" lon="12.763965519483836"><ele>41.4</ele><time>2026-04-12T10:28:37Z</time></trkpt><trkpt lat="45.9894863749989" lon="12.764079195666104"><ele>41.8</ele><time>2026-04-12T10:28:39Z</time></trkpt><trkpt lat="45.98950261390947" lon="12.764211155605995"><ele>42.199999999999996</ele><time>2026-04-12T10:28:41Z</time></trkpt><trkpt lat="45.98952143823864" lon="12.764340618684683"><ele>42.599999999999994</ele><time>2026-04-12T10:28:44Z</time></trkpt><trkpt lat="45.989493195440886" lon="12.764473811413461"><ele>43.0</ele><time>2026-04-12T10:28:46Z</time></trkpt><trkpt lat="45.98947597878059" lon="12.764629530385632"><ele>43.0</ele><time>2026-04-12T10:28:49Z</time></trkpt><trkpt lat="45.98945469528389" lon="12.764723891201335"><ele>43.0</ele><time>2026-04-12T10:28:50Z</time></trkpt><trkpt lat="45.9894350769996" lon="12.76482676014908"><ele>43.0</ele><time>2026-04-12T10:28:51Z</time></trkpt><trkpt lat="45.98940907110651" lon="12.764923839383702"><ele>43.0</ele><time>2026-04-12T10:28:52Z</time></trkpt><trkpt lat="45.989368295478535" lon="12.765031996973038"><ele>43.0</ele><time>2026-04-12T10:28:53Z</time></trkpt><trkpt lat="45.989311856061434" lon="12.765147369740287"><ele>43.0</ele><time>2026-04-12T10:28:54Z</time></trkpt><trkpt lat="45.98925471793146" lon="12.765238593404318"><ele>43.0</ele><time>2026-04-12T10:28:55Z</time></trkpt><trkpt lat="45.989195942399675" lon="12.765314730288118"><ele>43.0</ele><time>2026-04-12T10:28:56Z</time></trkpt><trkpt lat="45.98913503072996" lon="12.765388748708057"><ele>43.0</ele><time>2026-04-12T10:28:57Z</time></trkpt><trkpt lat="45.98906790591509" lon="12.765463135033448"><ele>43.0</ele><time>2026-04-12T10:28:58Z</time></trkpt><trkpt lat="45.988990402607634" lon="12.765537731223585"><ele>43.0</ele><time>2026-04-12T10:28:59Z</time></trkpt><trkpt lat="45.9889326355568" lon="12.765608221074888"><ele>43.0</ele><time>2026-04-12T10:29:00Z</time></trkpt><trkpt lat="45.988882110029735" lon="12.765688245660247"><ele>43.0</ele><time>2026-04-12T10:29:01Z</time></trkpt><trkpt lat="45.98883464463326" lon="12.765768431190413"><ele>43.0</ele><time>2026-04-12T10:29:02Z</time></trkpt><trkpt lat="45.98879623422291" lon="12.7658543058634"><ele>43.0</ele><time>2026-04-12T10:29:03Z</time></trkpt><trkpt lat="45.9887591424176" lon="12.765949499540216"><ele>43.0</ele><time>2026-04-12T10:29:04Z</time></trkpt><trkpt lat="45.98873424608994" lon="12.76604500103274"><ele>43.0</ele><time>2026-04-12T10:29:05Z</time></trkpt><trkpt lat="45.98873053527803" lon="12.766155929205198"><ele>43.0</ele><time>2026-04-12T10:29:06Z</time></trkpt><trkpt lat="45.98874091875145" lon="12.766276800435234"><ele>42.66666666666667</ele><time>2026-04-12T10:29:07Z</time></trkpt><trkpt lat="45.988735399378875" lon="12.766389101824247"><ele>42.333333333333336</ele><time>2026-04-12T10:29:08Z</time></trkpt><trkpt lat="45.98870327632836" lon="12.766492128572942"><ele>42.0</ele><time>2026-04-12T10:29:09Z</time></trkpt><trkpt lat="45.988674742197844" lon="12.766600609313626"><ele>41.666666666666664</ele><time>2026-04-12T10:29:10Z</time></trkpt><trkpt lat="45.988668291112006" lon="12.766711126010996"><ele>41.33333333333333</ele><time>2026-04-12T10:29:11Z</time></trkpt><trkpt lat="45.98868002126582" lon="12.766845535524002"><ele>41.0</ele><time>2026-04-12T10:29:12Z</time></trkpt><trkpt lat="45.98869714825694" lon="12.766988980691089"><ele>40.83333333333333</ele><time>2026-04-12T10:29:13Z</time></trkpt><trkpt lat="45.988725609327005" lon="12.767128937837915"><ele>40.666666666666664</ele><time>2026-04-12T10:29:14Z</time></trkpt><trkpt lat="45.98875895574659" lon="12.767259181840394"><ele>40.5</ele><time>2026-04-12T10:29:15Z</time></trkpt><trkpt lat="45.988783436331175" lon="12.767378671477717"><ele>40.333333333333336</ele><time>2026-04-12T10:29:16Z</time></trkpt><trkpt lat="45.988807550669506" lon="12.767494248154605"><ele>40.16666666666667</ele><time>2026-04-12T10:29:17Z</time></trkpt><trkpt lat="45.98884659071369" lon="12.767592956278497"><ele>40.0</ele><time>2026-04-12T10:29:18Z</time></trkpt><trkpt lat="45.988870065816464" lon="12.767697715843704"><ele>39.8</ele><time>2026-04-12T10:29:19Z</time></trkpt><trkpt lat="45.98887684582327" lon="12.767822983157465"><ele>39.6</ele><time>2026-04-12T10:29:20Z</time></trkpt><trkpt lat="45.988878784065484" lon="12.767943157967101"><ele>39.4</ele><time>2026-04-12T10:29:21Z</time></trkpt><trkpt lat="45.988881181400814" lon="12.768044990577044"><ele>39.2</ele><time>2026-04-12T10:29:22Z</time></trkpt><trkpt lat="45.98891034502276" lon="12.768186367507646"><ele>39.0</ele><time>2026-04-12T10:29:24Z</time></trkpt><trkpt lat="45.98901436917084" lon="12.768307441723683"><ele>39.0</ele><time>2026-04-12T10:29:26Z</time></trkpt><trkpt lat="45.98908164063137" lon="12.768375280980132"><ele>39.0</ele><time>2026-04-12T10:29:27Z</time></trkpt><trkpt lat="45.9891470519959" lon="12.768483703096752"><ele>39.0</ele><time>2026-04-12T10:29:29Z</time></trkpt><trkpt lat="45.98916664224001" lon="12.768606439474041"><ele>39.0</ele><time>2026-04-12T10:29:31Z</time></trkpt><trkpt lat="45.98914965313809" lon="12.768715497552629"><ele>39.0</ele><time>2026-04-12T10:29:33Z</time></trkpt><trkpt lat="45.98915840087783" lon="12.768824625175853"><ele>39.0</ele><time>2026-04-12T10:29:35Z</time></trkpt><trkpt lat="45.989162006665325" lon="12.76891618769482"><ele>39.75</ele><time>2026-04-12T10:29:37Z</time></trkpt><trkpt lat="45.98931766900168" lon="12.768974281380858"><ele>40.5</ele><time>2026-04-12T10:29:40Z</time></trkpt><trkpt lat="45.98944793259077" lon="12.769008880907885"><ele>41.25</ele><time>2026-04-12T10:29:42Z</time></trkpt><trkpt lat="45.98951194687106" lon="12.769065647557392"><ele>42.0</ele><time>2026-04-12T10:29:43Z</time></trkpt><trkpt lat="45.98958691003957" lon="12.769114328414698"><ele>42.0</ele><time>2026-04-12T10:29:44Z</time></trkpt><trkpt lat="45.98973443961889" lon="12.768945864644847"><ele>42.0</ele><time>2026-04-12T10:29:45Z</time></trkpt><trkpt lat="45.98981194515226" lon="12.768993921548597"><ele>42.0</ele><time>2026-04-12T10:29:46Z</time></trkpt><trkpt lat="45.989884106384494" lon="12.769038664721476"><ele>42.0</ele><time>2026-04-12T10:29:47Z</time></trkpt><trkpt lat="45.989965746387774" lon="12.769089285160492"><ele>42.0</ele><time>2026-04-12T10:29:48Z</time></trkpt><trkpt lat="45.99005923100678" lon="12.76914724976089"><ele>42.0</ele><time>2026-04-12T10:29:49Z</time></trkpt><trkpt lat="45.99016064489864" lon="12.769210130862268"><ele>42.0</ele><time>2026-04-12T10:29:50Z</time></trkpt><trkpt lat="45.990244506203545" lon="12.769262128596568"><ele>42.0</ele><time>2026-04-12T10:29:51Z</time></trkpt><trkpt lat="45.990332834968875" lon="12.769316896393944"><ele>42.0</ele><time>2026-04-12T10:29:52Z</time></trkpt><trkpt lat="45.99041286723755" lon="12.769366519987651"><ele>42.0</ele><time>2026-04-12T10:29:53Z</time></trkpt><trkpt lat="45.99049763440522" lon="12.7694190794154"><ele>42.0</ele><time>2026-04-12T10:29:54Z</time></trkpt><trkpt lat="45.990585327167956" lon="12.769473452774008"><ele>42.0</ele><time>2026-04-12T10:29:55Z</time></trkpt><trkpt lat="45.990675253714016" lon="12.769529211255579"><ele>42.0</ele><time>2026-04-12T10:29:56Z</time></trkpt><trkpt lat="45.99074799596351" lon="12.769574314611067"><ele>42.0</ele><time>2026-04-12T10:29:57Z</time></trkpt><trkpt lat="45.99082102471842" lon="12.769619595692305"><ele>42.0</ele><time>2026-04-12T10:29:58Z</time></trkpt><trkpt lat="45.99091484450897" lon="12.769677768179083"><ele>42.0</ele><time>2026-04-12T10:29:59Z</time></trkpt><trkpt lat="45.991017377693645" lon="12.769741343317152"><ele>42.0</ele><time>2026-04-12T10:30:00Z</time></trkpt><trkpt lat="45.99111375613262" lon="12.769801102210648"><ele>42.0</ele><time>2026-04-12T10:30:01Z</time></trkpt><trkpt lat="45.99120152143272" lon="12.769855520764184"><ele>42.0</ele><time>2026-04-12T10:30:02Z</time></trkpt><trkpt lat="45.991307223203584" lon="12.769921060396392"><ele>42.0</ele><time>2026-04-12T10:30:03Z</time></trkpt><trkpt lat="45.99140284646414" lon="12.76998035109734"><ele>42.0</ele><time>2026-04-12T10:30:04Z</time></trkpt><trkpt lat="45.99148726181755" lon="12.770032692387586"><ele>42.0</ele><time>2026-04-12T10:30:05Z</time></trkpt><trkpt lat="45.991558505546124" lon="12.770076518749367"><ele>42.0</ele><time>2026-04-12T10:30:06Z</time></trkpt><trkpt lat="45.99163667594645" lon="12.770124189330922"><ele>42.0</ele><time>2026-04-12T10:30:07Z</time></trkpt><trkpt lat="45.99171670775184" lon="12.77017299524173"><ele>42.0</ele><time>2026-04-12T10:30:08Z</time></trkpt><trkpt lat="45.99180571152379" lon="12.77022727218696"><ele>42.0</ele><time>2026-04-12T10:30:09Z</time></trkpt><trkpt lat="45.991893637843965" lon="12.770280892272057"><ele>42.2</ele><time>2026-04-12T10:30:10Z</time></trkpt><trkpt lat="45.99197159247284" lon="12.770328431218676"><ele>42.400000000000006</ele><time>2026-04-12T10:30:11Z</time></trkpt><trkpt lat="45.992043526456804" lon="12.77037229875124"><ele>42.599999999999994</ele><time>2026-04-12T10:30:12Z</time></trkpt><trkpt lat="45.992130236736166" lon="12.770425154955218"><ele>42.8</ele><time>2026-04-12T10:30:13Z</time></trkpt><trkpt lat="45.99221065875925" lon="12.770473960965667"><ele>43.0</ele><time>2026-04-12T10:30:14Z</time></trkpt><trkpt lat="45.99231221776655" lon="12.77053559448781"><ele>43.0</ele><time>2026-04-12T10:30:15Z</time></trkpt><trkpt lat="45.99239286511121" lon="12.770584537265572"><ele>43.0</ele><time>2026-04-12T10:30:16Z</time></trkpt><trkpt lat="45.992461681476264" lon="12.770626300039137"><ele>43.0</ele><time>2026-04-12T10:30:17Z</time></trkpt><trkpt lat="45.99255451263647" lon="12.770682636752896"><ele>43.0</ele><time>2026-04-12T10:30:18Z</time></trkpt><trkpt lat="45.992652075485225" lon="12.770741845168688"><ele>43.0</ele><time>2026-04-12T10:30:19Z</time></trkpt><trkpt lat="45.99273756933511" lon="12.770793729136109"><ele>43.2</ele><time>2026-04-12T10:30:20Z</time></trkpt><trkpt lat="45.992802546278284" lon="12.770833162043745"><ele>43.4</ele><time>2026-04-12T10:30:21Z</time></trkpt><trkpt lat="45.99288137896862" lon="12.770881003405632"><ele>43.6</ele><time>2026-04-12T10:30:22Z</time></trkpt><trkpt lat="45.99298353080958" lon="12.77094356874326"><ele>43.800000000000004</ele><time>2026-04-12T10:30:23Z</time></trkpt><trkpt lat="45.99308735786799" lon="12.771007722093627"><ele>44.0</ele><time>2026-04-12T10:30:24Z</time></trkpt><trkpt lat="45.993190763324826" lon="12.77107286994883"><ele>44.0</ele><time>2026-04-12T10:30:25Z</time></trkpt><trkpt lat="45.993279120900624" lon="12.77112894465792"><ele>44.0</ele><time>2026-04-12T10:30:26Z</time></trkpt><trkpt lat="45.99336543378311" lon="12.771185250037963"><ele>44.0</ele><time>2026-04-12T10:30:27Z</time></trkpt><trkpt lat="45.99343952827875" lon="12.771234805172194"><ele>44.0</ele><time>2026-04-12T10:30:28Z</time></trkpt><trkpt lat="45.99353151596705" lon="12.771296327513248"><ele>44.0</ele><time>2026-04-12T10:30:29Z</time></trkpt><trkpt lat="45.99363051216204" lon="12.771361133475564"><ele>44.25</ele><time>2026-04-12T10:30:30Z</time></trkpt><trkpt lat="45.99376439916595" lon="12.771450984020762"><ele>44.5</ele><time>2026-04-12T10:30:31Z</time></trkpt><trkpt lat="45.99389054990178" lon="12.771549019469157"><ele>44.75</ele><time>2026-04-12T10:30:32Z</time></trkpt><trkpt lat="45.99398509219972" lon="12.771632346549294"><ele>45.0</ele><time>2026-04-12T10:30:33Z</time></trkpt><trkpt lat="45.99406547735514" lon="12.771707233089426"><ele>45.0</ele><time>2026-04-12T10:30:34Z</time></trkpt><trkpt lat="45.99415130419311" lon="12.771789211069962"><ele>45.0</ele><time>2026-04-12T10:30:35Z</time></trkpt><trkpt lat="45.99422868529188" lon="12.771866417800474"><ele>45.0</ele><time>2026-04-12T10:30:36Z</time></trkpt><trkpt lat="45.994301066096625" lon="12.771938635397374"><ele>45.0</ele><time>2026-04-12T10:30:37Z</time></trkpt><trkpt lat="45.994362401287" lon="12.771999832299212"><ele>45.0</ele><time>2026-04-12T10:30:38Z</time></trkpt><trkpt lat="45.99441890226823" lon="12.772057598505734"><ele>45.0</ele><time>2026-04-12T10:30:39Z</time></trkpt><trkpt lat="45.99449611057284" lon="12.772137473871538"><ele>44.75</ele><time>2026-04-12T10:30:41Z</time></trkpt><trkpt lat="45.99458144443366" lon="12.772228631692474"><ele>44.5</ele><time>2026-04-12T10:30:43Z</time></trkpt><trkpt lat="45.994717202407166" lon="12.7723755940538"><ele>44.25</ele><time>2026-04-12T10:30:45Z</time></trkpt><trkpt lat="45.994801045558766" lon="12.772470733277554"><ele>44.0</ele><time>2026-04-12T10:30:46Z</time></trkpt><trkpt lat="45.99488385287549" lon="12.772567662142958"><ele>44.0</ele><time>2026-04-12T10:30:47Z</time></trkpt><trkpt lat="45.99496079746063" lon="12.772661864645654"><ele>44.0</ele><time>2026-04-12T10:30:48Z</time></trkpt><trkpt lat="45.99503634808463" lon="12.77275654560419"><ele>44.0</ele><time>2026-04-12T10:30:49Z</time></trkpt><trkpt lat="45.995093248354564" lon="12.772828931900106"><ele>44.0</ele><time>2026-04-12T10:30:50Z</time></trkpt><trkpt lat="45.99515635127429" lon="12.772909370859544"><ele>44.0</ele><time>2026-04-12T10:30:51Z</time></trkpt><trkpt lat="45.99522505999182" lon="12.772998180372255"><ele>44.0</ele><time>2026-04-12T10:30:52Z</time></trkpt><trkpt lat="45.99529085663906" lon="12.77308322573642"><ele>44.0</ele><time>2026-04-12T10:30:53Z</time></trkpt><trkpt lat="45.99534869716621" lon="12.773160097036959"><ele>44.0</ele><time>2026-04-12T10:30:54Z</time></trkpt><trkpt lat="45.995402324098286" lon="12.773232806474693"><ele>44.0</ele><time>2026-04-12T10:30:55Z</time></trkpt><trkpt lat="45.995473584112986" lon="12.773330397456514"><ele>44.0</ele><time>2026-04-12T10:30:57Z</time></trkpt><trkpt lat="45.995535320003825" lon="12.773414945045987"><ele>44.0</ele><time>2026-04-12T10:30:59Z</time></trkpt><trkpt lat="45.99562402790039" lon="12.773536430973405"><ele>44.0</ele><time>2026-04-12T10:31:01Z</time></trkpt><trkpt lat="45.99569388074504" lon="12.773632094705375"><ele>44.0</ele><time>2026-04-12T10:31:02Z</time></trkpt><trkpt lat="45.9957684742402" lon="12.773734250886596"><ele>44.0</ele><time>2026-04-12T10:31:03Z</time></trkpt><trkpt lat="45.99583498210313" lon="12.773825333783934"><ele>44.0</ele><time>2026-04-12T10:31:04Z</time></trkpt><trkpt lat="45.99588363134331" lon="12.773891959180851"><ele>44.0</ele><time>2026-04-12T10:31:05Z</time></trkpt><trkpt lat="45.99597163414979" lon="12.77401392864276"><ele>44.0</ele><time>2026-04-12T10:31:07Z</time></trkpt><trkpt lat="45.996025868942375" lon="12.774091220899717"><ele>44.0</ele><time>2026-04-12T10:31:09Z</time></trkpt><trkpt lat="45.99607449057467" lon="12.774163077302555"><ele>44.0</ele><time>2026-04-12T10:31:11Z</time></trkpt><trkpt lat="45.99603804614697" lon="12.774261347768094"><ele>44.0</ele><time>2026-04-12T10:31:14Z</time></trkpt><trkpt lat="45.99586009381743" lon="12.774511352938305"><ele>44.0</ele><time>2026-04-12T10:31:15Z</time></trkpt><trkpt lat="45.99594957561689" lon="12.774524237362797"><ele>44.0</ele><time>2026-04-12T10:31:17Z</time></trkpt><trkpt lat="45.995997433716525" lon="12.774600263490097"><ele>44.0</ele><time>2026-04-12T10:31:18Z</time></trkpt><trkpt lat="45.996046942713306" lon="12.774678745940347"><ele>44.0</ele><time>2026-04-12T10:31:19Z</time></trkpt><trkpt lat="45.99612656761074" lon="12.7747163109497"><ele>44.0</ele><time>2026-04-12T10:31:21Z</time></trkpt><trkpt lat="45.99619977786754" lon="12.774668948788726"><ele>44.0</ele><time>2026-04-12T10:31:23Z</time></trkpt><trkpt lat="45.996370564751594" lon="12.77460223708463"><ele>44.0</ele><time>2026-04-12T10:31:27Z</time></trkpt><trkpt lat="45.99648092880862" lon="12.774747593940459"><ele>44.0</ele><time>2026-04-12T10:31:30Z</time></trkpt><trkpt lat="45.99652817180988" lon="12.774808495848132"><ele>44.0</ele><time>2026-04-12T10:31:31Z</time></trkpt><trkpt lat="45.99658715063786" lon="12.774884833268896"><ele>44.0</ele><time>2026-04-12T10:31:32Z</time></trkpt><trkpt lat="45.996651326247914" lon="12.774968798999726"><ele>44.0</ele><time>2026-04-12T10:31:33Z</time></trkpt><trkpt lat="45.99670879340548" lon="12.775046280570967"><ele>44.166666666666664</ele><time>2026-04-12T10:31:34Z</time></trkpt><trkpt lat="45.996761674861034" lon="12.775118814042418"><ele>44.33333333333333</ele><time>2026-04-12T10:31:35Z</time></trkpt><trkpt lat="45.99681725535907" lon="12.775195049590204"><ele>44.5</ele><time>2026-04-12T10:31:36Z</time></trkpt><trkpt lat="45.99688480500509" lon="12.77528770224292"><ele>44.666666666666664</ele><time>2026-04-12T10:31:37Z</time></trkpt><trkpt lat="45.996952777367035" lon="12.775380940123187"><ele>44.833333333333336</ele><time>2026-04-12T10:31:38Z</time></trkpt><trkpt lat="45.99702867916119" lon="12.775485198787537"><ele>45.0</ele><time>2026-04-12T10:31:39Z</time></trkpt><trkpt lat="45.99711157699891" lon="12.775599067203208"><ele>45.2</ele><time>2026-04-12T10:31:40Z</time></trkpt><trkpt lat="45.99718321258709" lon="12.775697465818139"><ele>45.4</ele><time>2026-04-12T10:31:41Z</time></trkpt><trkpt lat="45.997253962057805" lon="12.77579464725718"><ele>45.599999999999994</ele><time>2026-04-12T10:31:42Z</time></trkpt><trkpt lat="45.997326357498004" lon="12.775894089599724"><ele>45.8</ele><time>2026-04-12T10:31:43Z</time></trkpt><trkpt lat="45.99740446118485" lon="12.776001372757962"><ele>46.0</ele><time>2026-04-12T10:31:44Z</time></trkpt><trkpt lat="45.99747156966962" lon="12.776093552972467"><ele>46.199999999999996</ele><time>2026-04-12T10:31:45Z</time></trkpt><trkpt lat="45.99753427992724" lon="12.776179637501958"><ele>46.4</ele><time>2026-04-12T10:31:46Z</time></trkpt><trkpt lat="45.997607635596935" lon="12.776280092267488"><ele>46.6</ele><time>2026-04-12T10:31:47Z</time></trkpt><trkpt lat="45.99769667337428" lon="12.776402022473437"><ele>46.8</ele><time>2026-04-12T10:31:48Z</time></trkpt><trkpt lat="45.997783467188455" lon="12.77651899273332"><ele>47.0</ele><time>2026-04-12T10:31:49Z</time></trkpt><trkpt lat="45.99785162690219" lon="12.776609833765876"><ele>47.0</ele><time>2026-04-12T10:31:50Z</time></trkpt><trkpt lat="45.997914304057744" lon="12.776693160454307"><ele>47.0</ele><time>2026-04-12T10:31:51Z</time></trkpt><trkpt lat="45.9979696620021" lon="12.776765046008391"><ele>47.0</ele><time>2026-04-12T10:31:52Z</time></trkpt><trkpt lat="45.998023250661674" lon="12.776834633976597"><ele>47.0</ele><time>2026-04-12T10:31:53Z</time></trkpt><trkpt lat="45.998089627329215" lon="12.776920829303297"><ele>47.0</ele><time>2026-04-12T10:31:54Z</time></trkpt><trkpt lat="45.99816538182191" lon="12.77701920084328"><ele>47.0</ele><time>2026-04-12T10:31:55Z</time></trkpt><trkpt lat="45.99823552414506" lon="12.777110284607105"><ele>46.83333333333333</ele><time>2026-04-12T10:31:56Z</time></trkpt><trkpt lat="45.998301460824536" lon="12.777196346258798"><ele>46.666666666666664</ele><time>2026-04-12T10:31:57Z</time></trkpt><trkpt lat="45.99836427769598" lon="12.777278373131582"><ele>46.5</ele><time>2026-04-12T10:31:58Z</time></trkpt><trkpt lat="45.99842021656121" lon="12.777351418653472"><ele>46.333333333333336</ele><time>2026-04-12T10:31:59Z</time></trkpt><trkpt lat="45.99846885306835" lon="12.777414928639866"><ele>46.16666666666667</ele><time>2026-04-12T10:32:00Z</time></trkpt><trkpt lat="45.998535491404276" lon="12.777501945625067"><ele>46.0</ele><time>2026-04-12T10:32:02Z</time></trkpt><trkpt lat="45.998605437314126" lon="12.777593007850381"><ele>46.75</ele><time>2026-04-12T10:32:04Z</time></trkpt><trkpt lat="45.99867729634762" lon="12.777689362881508"><ele>47.5</ele><time>2026-04-12T10:32:05Z</time></trkpt><trkpt lat="45.99876201840496" lon="12.77780874937637"><ele>48.25</ele><time>2026-04-12T10:32:06Z</time></trkpt><trkpt lat="45.998864609669205" lon="12.77796216777384"><ele>49.0</ele><time>2026-04-12T10:32:07Z</time></trkpt><trkpt lat="45.99896602886827" lon="12.778121224706869"><ele>49.0</ele><time>2026-04-12T10:32:08Z</time></trkpt><trkpt lat="45.99904488674265" lon="12.778250797117582"><ele>49.0</ele><time>2026-04-12T10:32:09Z</time></trkpt><trkpt lat="45.99911296864406" lon="12.778371355023417"><ele>49.0</ele><time>2026-04-12T10:32:10Z</time></trkpt><trkpt lat="45.99917576525202" lon="12.778483869896359"><ele>49.0</ele><time>2026-04-12T10:32:11Z</time></trkpt><trkpt lat="45.99924011376772" lon="12.778601402002776"><ele>49.0</ele><time>2026-04-12T10:32:12Z</time></trkpt><trkpt lat="45.999316430039805" lon="12.778750158276582"><ele>49.0</ele><time>2026-04-12T10:32:13Z</time></trkpt><trkpt lat="45.999410564422476" lon="12.778941893798528"><ele>49.0</ele><time>2026-04-12T10:32:14Z</time></trkpt><trkpt lat="45.99951994002315" lon="12.779169293458263"><ele>49.0</ele><time>2026-04-12T10:32:15Z</time></trkpt><trkpt lat="45.999634066675675" lon="12.779406570886534"><ele>49.0</ele><time>2026-04-12T10:32:16Z</time></trkpt><trkpt lat="45.9997350949028" lon="12.779617361888402"><ele>49.0</ele><time>2026-04-12T10:32:17Z</time></trkpt><trkpt lat="45.9998224146565" lon="12.779800010055844"><ele>49.0</ele><time>2026-04-12T10:32:18Z</time></trkpt><trkpt lat="45.999905108682476" lon="12.77997298239192"><ele>49.0</ele><time>2026-04-12T10:32:19Z</time></trkpt><trkpt lat="45.999978780735454" lon="12.7801262137935"><ele>49.0</ele><time>2026-04-12T10:32:20Z</time></trkpt><trkpt lat="46.00004156656314" lon="12.780256717764319"><ele>49.0</ele><time>2026-04-12T10:32:21Z</time></trkpt><trkpt lat="46.000092144010694" lon="12.780361845954017"><ele>49.0</ele><time>2026-04-12T10:32:22Z</time></trkpt><trkpt lat="46.000140945187376" lon="12.780463281977807"><ele>49.0</ele><time>2026-04-12T10:32:24Z</time></trkpt><trkpt lat="45.999937548025585" lon="12.78060291783272"><ele>48.857142857142854</ele><time>2026-04-12T10:32:30Z</time></trkpt><trkpt lat="45.99993671385493" lon="12.780509895077232"><ele>48.714285714285715</ele><time>2026-04-12T10:32:41Z</time></trkpt><trkpt lat="45.9998880515124" lon="12.780436938252134"><ele>48.57142857142857</ele><time>2026-04-12T10:32:43Z</time></trkpt><trkpt lat="45.99985497314713" lon="12.780351435059412"><ele>48.42857142857143</ele><time>2026-04-12T10:32:47Z</time></trkpt><trkpt lat="45.99989535505729" lon="12.780439674204542"><ele>48.285714285714285</ele><time>2026-04-12T10:32:52Z</time></trkpt><trkpt lat="45.99997849878664" lon="12.780464038729143"><ele>48.14285714285714</ele><time>2026-04-12T10:32:54Z</time></trkpt><trkpt lat="46.000049052551375" lon="12.780504056316381"><ele>48.0</ele><time>2026-04-12T10:33:12Z</time></trkpt><trkpt lat="46.00011239907967" lon="12.780486598600552"><ele>48.0</ele><time>2026-04-12T10:33:16Z</time></trkpt><trkpt lat="46.0002021699099" lon="12.780498911826607"><ele>48.0</ele><time>2026-04-12T10:33:21Z</time></trkpt><trkpt lat="46.000242723592244" lon="12.780641294921585"><ele>48.0</ele><time>2026-04-12T10:33:23Z</time></trkpt><trkpt lat="46.000285892657395" lon="12.780753334805048"><ele>48.0</ele><time>2026-04-12T10:33:25Z</time></trkpt><trkpt lat="46.00033698235829" lon="12.780860200095546"><ele>48.0</ele><time>2026-04-12T10:33:27Z</time></trkpt><trkpt lat="46.00040407343737" lon="12.780980879322252"><ele>47.8</ele><time>2026-04-12T10:33:29Z</time></trkpt><trkpt lat="46.000457345228796" lon="12.781082090632953"><ele>47.599999999999994</ele><time>2026-04-12T10:33:30Z</time></trkpt><trkpt lat="46.000509688507364" lon="12.78122113531632"><ele>47.400000000000006</ele><time>2026-04-12T10:33:31Z</time></trkpt><trkpt lat="46.00056897890568" lon="12.781337783755152"><ele>47.2</ele><time>2026-04-12T10:33:32Z</time></trkpt><trkpt lat="46.000646135653135" lon="12.781450997181818"><ele>47.0</ele><time>2026-04-12T10:33:33Z</time></trkpt><trkpt lat="46.000703385761824" lon="12.7815826589206"><ele>47.0</ele><time>2026-04-12T10:33:34Z</time></trkpt><trkpt lat="46.00075846884223" lon="12.78169755467507"><ele>47.0</ele><time>2026-04-12T10:33:35Z</time></trkpt><trkpt lat="46.00082008463837" lon="12.781818287340581"><ele>47.0</ele><time>2026-04-12T10:33:36Z</time></trkpt><trkpt lat="46.000895273007856" lon="12.781960611915283"><ele>47.0</ele><time>2026-04-12T10:33:37Z</time></trkpt><trkpt lat="46.00095417042149" lon="12.782109323682075"><ele>47.0</ele><time>2026-04-12T10:33:38Z</time></trkpt><trkpt lat="46.00101509841812" lon="12.782230998334382"><ele>47.33333333333333</ele><time>2026-04-12T10:33:39Z</time></trkpt><trkpt lat="46.001065984058094" lon="12.782336859514254"><ele>47.666666666666664</ele><time>2026-04-12T10:33:40Z</time></trkpt><trkpt lat="46.001092804499855" lon="12.782435602571741"><ele>48.0</ele><time>2026-04-12T10:33:41Z</time></trkpt><trkpt lat="46.001140471096356" lon="12.78256199580163"><ele>48.33333333333333</ele><time>2026-04-12T10:33:43Z</time></trkpt><trkpt lat="46.00117057010658" lon="12.782647916039846"><ele>48.666666666666664</ele><time>2026-04-12T10:33:46Z</time></trkpt><trkpt lat="46.00119996994166" lon="12.782734906545393"><ele>49.0</ele><time>2026-04-12T10:33:49Z</time></trkpt><trkpt lat="46.001232407453486" lon="12.78283088514157"><ele>49.0</ele><time>2026-04-12T10:33:51Z</time></trkpt><trkpt lat="46.00126037567876" lon="12.78298027640155"><ele>49.0</ele><time>2026-04-12T10:33:54Z</time></trkpt><trkpt lat="46.00137774114542" lon="12.782849767644523"><ele>49.0</ele><time>2026-04-12T10:34:03Z</time></trkpt><trkpt lat="46.00141204312731" lon="12.782716078173783"><ele>49.0</ele><time>2026-04-12T10:34:18Z</time></trkpt><trkpt lat="46.001378485502826" lon="12.782607443362153"><ele>49.0</ele><time>2026-04-12T10:34:19Z</time></trkpt><trkpt lat="46.00134769160953" lon="12.78248667566727"><ele>48.99999999999999</ele><time>2026-04-12T10:34:20Z</time></trkpt><trkpt lat="46.00136174799135" lon="12.782334722892543"><ele>49.0</ele><time>2026-04-12T10:34:21Z</time></trkpt><trkpt lat="46.00137030842216" lon="12.782203002120994"><ele>49.0</ele><time>2026-04-12T10:34:22Z</time></trkpt><trkpt lat="46.001399876366165" lon="12.782096752152317"><ele>49.0</ele><time>2026-04-12T10:34:23Z</time></trkpt><trkpt lat="46.00144402582151" lon="12.782001240360923"><ele>48.99999999999999</ele><time>2026-04-12T10:34:24Z</time></trkpt><trkpt lat="46.001529826110215" lon="12.781959390692165"><ele>49.0</ele><time>2026-04-12T10:34:25Z</time></trkpt><trkpt lat="46.00163982729561" lon="12.781928983220313"><ele>49.25</ele><time>2026-04-12T10:34:26Z</time></trkpt><trkpt lat="46.001757517744096" lon="12.78189606527481"><ele>49.5</ele><time>2026-04-12T10:34:27Z</time></trkpt><trkpt lat="46.001871095772536" lon="12.781848623994186"><ele>49.75</ele><time>2026-04-12T10:34:28Z</time></trkpt><trkpt lat="46.00198126598351" lon="12.781775463349739"><ele>50.0</ele><time>2026-04-12T10:34:29Z</time></trkpt><trkpt lat="46.00208224951975" lon="12.781698751576997"><ele>50.0</ele><time>2026-04-12T10:34:30Z</time></trkpt><trkpt lat="46.002151821154385" lon="12.781610903729332"><ele>50.0</ele><time>2026-04-12T10:34:31Z</time></trkpt><trkpt lat="46.00221008032203" lon="12.781547102458834"><ele>50.0</ele><time>2026-04-12T10:34:32Z</time></trkpt><trkpt lat="46.00226076209796" lon="12.781476001839001"><ele>50.0</ele><time>2026-04-12T10:34:33Z</time></trkpt><trkpt lat="46.00231042413508" lon="12.78135751033514"><ele>50.0</ele><time>2026-04-12T10:34:34Z</time></trkpt><trkpt lat="46.002359090618626" lon="12.781186656834306"><ele>50.0</ele><time>2026-04-12T10:34:35Z</time></trkpt><trkpt lat="46.002404979901684" lon="12.7810018933127"><ele>50.0</ele><time>2026-04-12T10:34:36Z</time></trkpt><trkpt lat="46.002457527911794" lon="12.780785468898838"><ele>50.0</ele><time>2026-04-12T10:34:37Z</time></trkpt><trkpt lat="46.002519464765136" lon="12.78052375011151"><ele>50.0</ele><time>2026-04-12T10:34:38Z</time></trkpt><trkpt lat="46.002577879439315" lon="12.780276595002332"><ele>50.0</ele><time>2026-04-12T10:34:39Z</time></trkpt><trkpt lat="46.002630768634006" lon="12.780047749741003"><ele>50.0</ele><time>2026-04-12T10:34:40Z</time></trkpt><trkpt lat="46.00267609360658" lon="12.779848414410178"><ele>49.75</ele><time>2026-04-12T10:34:41Z</time></trkpt><trkpt lat="46.002718123053185" lon="12.77966357278295"><ele>49.5</ele><time>2026-04-12T10:34:42Z</time></trkpt><trkpt lat="46.00275929309163" lon="12.779475705069776"><ele>49.25</ele><time>2026-04-12T10:34:43Z</time></trkpt><trkpt lat="46.00279848118604" lon="12.779291941114165"><ele>49.0</ele><time>2026-04-12T10:34:44Z</time></trkpt><trkpt lat="46.0028187367178" lon="12.779124868323224"><ele>49.400000000000006</ele><time>2026-04-12T10:34:45Z</time></trkpt><trkpt lat="46.002839671894286" lon="12.778991730303316"><ele>49.8</ele><time>2026-04-12T10:34:46Z</time></trkpt><trkpt lat="46.00283947765296" lon="12.77886962174999"><ele>50.2</ele><time>2026-04-12T10:34:47Z</time></trkpt><trkpt lat="46.00284478844363" lon="12.77875084457506"><ele>50.599999999999994</ele><time>2026-04-12T10:34:48Z</time></trkpt><trkpt lat="46.002796515734005" lon="12.778600395163362"><ele>51.0</ele><time>2026-04-12T10:34:49Z</time></trkpt><trkpt lat="46.00275748982855" lon="12.7784524071717"><ele>51.0</ele><time>2026-04-12T10:34:50Z</time></trkpt><trkpt lat="46.00271534173837" lon="12.77829827297482"><ele>51.0</ele><time>2026-04-12T10:34:51Z</time></trkpt><trkpt lat="46.002666639418166" lon="12.77811285164251"><ele>51.0</ele><time>2026-04-12T10:34:52Z</time></trkpt><trkpt lat="46.00261553790537" lon="12.777900761134186"><ele>51.0</ele><time>2026-04-12T10:34:53Z</time></trkpt><trkpt lat="46.00256323757499" lon="12.777678305030957"><ele>50.66666666666667</ele><time>2026-04-12T10:34:54Z</time></trkpt><trkpt lat="46.00251276136523" lon="12.777446720528678"><ele>50.333333333333336</ele><time>2026-04-12T10:34:55Z</time></trkpt><trkpt lat="46.00246264476374" lon="12.777211652744674"><ele>50.0</ele><time>2026-04-12T10:34:56Z</time></trkpt><trkpt lat="46.00240892872907" lon="12.777001062247571"><ele>49.6</ele><time>2026-04-12T10:34:57Z</time></trkpt><trkpt lat="46.00235486338447" lon="12.776824095394854"><ele>49.2</ele><time>2026-04-12T10:34:58Z</time></trkpt><trkpt lat="46.00232737982371" lon="12.776670372092061"><ele>48.8</ele><time>2026-04-12T10:34:59Z</time></trkpt><trkpt lat="46.00230456241953" lon="12.776538823116041"><ele>48.4</ele><time>2026-04-12T10:35:00Z</time></trkpt><trkpt lat="46.00228882095732" lon="12.776428862971617"><ele>48.0</ele><time>2026-04-12T10:35:01Z</time></trkpt><trkpt lat="46.00226623414178" lon="12.776245553457933"><ele>48.0</ele><time>2026-04-12T10:35:03Z</time></trkpt><trkpt lat="46.00225539841998" lon="12.77612891651468"><ele>48.0</ele><time>2026-04-12T10:35:04Z</time></trkpt><trkpt lat="46.00223824128993" lon="12.776014520523502"><ele>48.0</ele><time>2026-04-12T10:35:05Z</time></trkpt><trkpt lat="46.00221762966816" lon="12.775900663347857"><ele>48.0</ele><time>2026-04-12T10:35:06Z</time></trkpt><trkpt lat="46.00219963428051" lon="12.775795473886456"><ele>48.0</ele><time>2026-04-12T10:35:07Z</time></trkpt><trkpt lat="46.00219118779587" lon="12.775693425911975"><ele>48.0</ele><time>2026-04-12T10:35:08Z</time></trkpt><trkpt lat="46.00218072664557" lon="12.775591453595698"><ele>48.0</ele><time>2026-04-12T10:35:09Z</time></trkpt><trkpt lat="46.00216716105712" lon="12.775484171197506"><ele>48.0</ele><time>2026-04-12T10:35:10Z</time></trkpt><trkpt lat="46.00215653789927" lon="12.775374099004356"><ele>48.0</ele><time>2026-04-12T10:35:11Z</time></trkpt><trkpt lat="46.002148540632334" lon="12.775242477299164"><ele>48.0</ele><time>2026-04-12T10:35:12Z</time></trkpt><trkpt lat="46.00214133908684" lon="12.775130631022979"><ele>48.0</ele><time>2026-04-12T10:35:13Z</time></trkpt><trkpt lat="46.00213723611084" lon="12.775028217465715"><ele>48.0</ele><time>2026-04-12T10:35:14Z</time></trkpt><trkpt lat="46.002127000181396" lon="12.77493320185327"><ele>47.599999999999994</ele><time>2026-04-12T10:35:15Z</time></trkpt><trkpt lat="46.00211773804968" lon="12.774822382095426"><ele>47.199999999999996</ele><time>2026-04-12T10:35:16Z</time></trkpt><trkpt lat="46.00211395048938" lon="12.774706762135448"><ele>46.8</ele><time>2026-04-12T10:35:17Z</time></trkpt><trkpt lat="46.00210551397926" lon="12.774577285898733"><ele>46.4</ele><time>2026-04-12T10:35:18Z</time></trkpt><trkpt lat="46.0020887437952" lon="12.77443612268033"><ele>46.0</ele><time>2026-04-12T10:35:19Z</time></trkpt><trkpt lat="46.002072453124754" lon="12.774267896321644"><ele>46.0</ele><time>2026-04-12T10:35:20Z</time></trkpt><trkpt lat="46.00205556348817" lon="12.774093571004597"><ele>46.0</ele><time>2026-04-12T10:35:21Z</time></trkpt><trkpt lat="46.002048354087755" lon="12.773900553164827"><ele>46.0</ele><time>2026-04-12T10:35:22Z</time></trkpt><trkpt lat="46.00207121162803" lon="12.773721900316623"><ele>46.0</ele><time>2026-04-12T10:35:23Z</time></trkpt><trkpt lat="46.00209177994884" lon="12.773564056534337"><ele>46.75</ele><time>2026-04-12T10:35:24Z</time></trkpt><trkpt lat="46.00212387549043" lon="12.773382810898594"><ele>47.5</ele><time>2026-04-12T10:35:25Z</time></trkpt><trkpt lat="46.002163225424546" lon="12.77318989358668"><ele>48.25</ele><time>2026-04-12T10:35:26Z</time></trkpt><trkpt lat="46.00218473047271" lon="12.773021155577961"><ele>49.0</ele><time>2026-04-12T10:35:27Z</time></trkpt><trkpt lat="46.00221717655541" lon="12.772853107659602"><ele>48.666666666666664</ele><time>2026-04-12T10:35:28Z</time></trkpt><trkpt lat="46.00226776269942" lon="12.7726694839501"><ele>48.33333333333333</ele><time>2026-04-12T10:35:29Z</time></trkpt><trkpt lat="46.00230811372383" lon="12.772453855040904"><ele>48.0</ele><time>2026-04-12T10:35:30Z</time></trkpt><trkpt lat="46.00235391073696" lon="12.772203150316043"><ele>48.0</ele><time>2026-04-12T10:35:31Z</time></trkpt><trkpt lat="46.002395536626814" lon="12.77195155468946"><ele>48.0</ele><time>2026-04-12T10:35:32Z</time></trkpt><trkpt lat="46.002430378341785" lon="12.77171048717211"><ele>48.0</ele><time>2026-04-12T10:35:33Z</time></trkpt><trkpt lat="46.00244287484637" lon="12.771479103844387"><ele>48.0</ele><time>2026-04-12T10:35:34Z</time></trkpt><trkpt lat="46.002479730686574" lon="12.771251709783309"><ele>48.0</ele><time>2026-04-12T10:35:35Z</time></trkpt><trkpt lat="46.00249516416919" lon="12.771026311291862"><ele>48.0</ele><time>2026-04-12T10:35:36Z</time></trkpt><trkpt lat="46.002504638696905" lon="12.770827571839925"><ele>48.5</ele><time>2026-04-12T10:35:37Z</time></trkpt><trkpt lat="46.00251048126992" lon="12.770640383264812"><ele>49.0</ele><time>2026-04-12T10:35:38Z</time></trkpt><trkpt lat="46.00251309984385" lon="12.7704535721909"><ele>49.5</ele><time>2026-04-12T10:35:39Z</time></trkpt><trkpt lat="46.0025116301436" lon="12.770264431797521"><ele>50.0</ele><time>2026-04-12T10:35:40Z</time></trkpt><trkpt lat="46.00250330754587" lon="12.770050173315706"><ele>49.0</ele><time>2026-04-12T10:35:41Z</time></trkpt><trkpt lat="46.00249049569523" lon="12.769824916819248"><ele>48.0</ele><time>2026-04-12T10:35:42Z</time></trkpt><trkpt lat="46.00247374824268" lon="12.769578003143282"><ele>47.0</ele><time>2026-04-12T10:35:43Z</time></trkpt><trkpt lat="46.00245632869222" lon="12.769321180561509"><ele>47.0</ele><time>2026-04-12T10:35:44Z</time></trkpt><trkpt lat="46.00243963710129" lon="12.76907509054304"><ele>47.0</ele><time>2026-04-12T10:35:45Z</time></trkpt><trkpt lat="46.002422247994886" lon="12.768818716768005"><ele>47.0</ele><time>2026-04-12T10:35:46Z</time></trkpt><trkpt lat="46.00240481457161" lon="12.768561689661059"><ele>47.666666666666664</ele><time>2026-04-12T10:35:47Z</time></trkpt><trkpt lat="46.00238781250124" lon="12.768298983790034"><ele>48.33333333333333</ele><time>2026-04-12T10:35:48Z</time></trkpt><trkpt lat="46.00237099423829" lon="12.768031290456078"><ele>49.0</ele><time>2026-04-12T10:35:49Z</time></trkpt><trkpt lat="46.00234075788824" lon="12.767777517573382"><ele>48.666666666666664</ele><time>2026-04-12T10:35:50Z</time></trkpt><trkpt lat="46.00232435823093" lon="12.767525261793045"><ele>48.33333333333333</ele><time>2026-04-12T10:35:51Z</time></trkpt><trkpt lat="46.00230473173435" lon="12.767268499194133"><ele>48.0</ele><time>2026-04-12T10:35:52Z</time></trkpt><trkpt lat="46.00228415074286" lon="12.767032524213082"><ele>48.0</ele><time>2026-04-12T10:35:53Z</time></trkpt><trkpt lat="46.00227337133332" lon="12.766763662721011"><ele>48.0</ele><time>2026-04-12T10:35:54Z</time></trkpt><trkpt lat="46.002242618409355" lon="12.766499472343925"><ele>48.0</ele><time>2026-04-12T10:35:55Z</time></trkpt><trkpt lat="46.0022075948457" lon="12.766242760194492"><ele>48.66666666666667</ele><time>2026-04-12T10:35:56Z</time></trkpt><trkpt lat="46.002150647998675" lon="12.765985922027355"><ele>49.333333333333336</ele><time>2026-04-12T10:35:57Z</time></trkpt><trkpt lat="46.002105683811536" lon="12.765727694339363"><ele>50.0</ele><time>2026-04-12T10:35:58Z</time></trkpt><trkpt lat="46.0020582284884" lon="12.765490465601692"><ele>50.0</ele><time>2026-04-12T10:35:59Z</time></trkpt><trkpt lat="46.002023505301395" lon="12.765247228374472"><ele>50.0</ele><time>2026-04-12T10:36:00Z</time></trkpt><trkpt lat="46.00197444811371" lon="12.76500437535908"><ele>50.0</ele><time>2026-04-12T10:36:01Z</time></trkpt><trkpt lat="46.00192561387499" lon="12.764762626036964"><ele>50.0</ele><time>2026-04-12T10:36:02Z</time></trkpt><trkpt lat="46.00187614704073" lon="12.764515921864156"><ele>50.0</ele><time>2026-04-12T10:36:03Z</time></trkpt><trkpt lat="46.00182695216321" lon="12.764269752664495"><ele>50.0</ele><time>2026-04-12T10:36:04Z</time></trkpt><trkpt lat="46.001780311229524" lon="12.76403636333406"><ele>49.66666666666667</ele><time>2026-04-12T10:36:05Z</time></trkpt><trkpt lat="46.00173198993807" lon="12.763794565537056"><ele>49.33333333333333</ele><time>2026-04-12T10:36:06Z</time></trkpt><trkpt lat="46.00168432954013" lon="12.763556074846537"><ele>49.0</ele><time>2026-04-12T10:36:07Z</time></trkpt><trkpt lat="46.001631492830505" lon="12.763307922953821"><ele>48.33333333333333</ele><time>2026-04-12T10:36:08Z</time></trkpt><trkpt lat="46.001580823691754" lon="12.763070675349509"><ele>47.666666666666664</ele><time>2026-04-12T10:36:09Z</time></trkpt><trkpt lat="46.00153708071916" lon="12.762827388702597"><ele>47.0</ele><time>2026-04-12T10:36:10Z</time></trkpt><trkpt lat="46.001509426287164" lon="12.762593701216229"><ele>47.0</ele><time>2026-04-12T10:36:11Z</time></trkpt><trkpt lat="46.00148802619166" lon="12.762345227917534"><ele>47.0</ele><time>2026-04-12T10:36:12Z</time></trkpt><trkpt lat="46.001476112689744" lon="12.762093196513694"><ele>47.0</ele><time>2026-04-12T10:36:13Z</time></trkpt><trkpt lat="46.00148643532736" lon="12.761842191803977"><ele>46.666666666666664</ele><time>2026-04-12T10:36:14Z</time></trkpt><trkpt lat="46.00150266505256" lon="12.761588911796244"><ele>46.333333333333336</ele><time>2026-04-12T10:36:15Z</time></trkpt><trkpt lat="46.00152069695095" lon="12.761329993644575"><ele>46.0</ele><time>2026-04-12T10:36:16Z</time></trkpt><trkpt lat="46.00152674312304" lon="12.7610803244144"><ele>46.333333333333336</ele><time>2026-04-12T10:36:17Z</time></trkpt><trkpt lat="46.00154667941196" lon="12.760831066667308"><ele>46.666666666666664</ele><time>2026-04-12T10:36:18Z</time></trkpt><trkpt lat="46.00157077457467" lon="12.760575796732203"><ele>47.0</ele><time>2026-04-12T10:36:19Z</time></trkpt><trkpt lat="46.0015886542229" lon="12.760326865984224"><ele>47.0</ele><time>2026-04-12T10:36:20Z</time></trkpt><trkpt lat="46.001619636172784" lon="12.760079819301094"><ele>47.0</ele><time>2026-04-12T10:36:21Z</time></trkpt><trkpt lat="46.00162484383023" lon="12.759828452590808"><ele>47.0</ele><time>2026-04-12T10:36:22Z</time></trkpt><trkpt lat="46.00159131036908" lon="12.759584686245319"><ele>46.666666666666664</ele><time>2026-04-12T10:36:23Z</time></trkpt><trkpt lat="46.00157718610203" lon="12.759334474993874"><ele>46.333333333333336</ele><time>2026-04-12T10:36:24Z</time></trkpt><trkpt lat="46.00152457006249" lon="12.759080589621215"><ele>46.0</ele><time>2026-04-12T10:36:25Z</time></trkpt><trkpt lat="46.001460125970056" lon="12.758855256393034"><ele>46.0</ele><time>2026-04-12T10:36:26Z</time></trkpt><trkpt lat="46.00137225358349" lon="12.758650976433929"><ele>46.0</ele><time>2026-04-12T10:36:27Z</time></trkpt><trkpt lat="46.00127281543293" lon="12.758432672544364"><ele>46.0</ele><time>2026-04-12T10:36:28Z</time></trkpt><trkpt lat="46.00114602907822" lon="12.758215928525116"><ele>46.0</ele><time>2026-04-12T10:36:29Z</time></trkpt><trkpt lat="46.00101121381495" lon="12.757976808009156"><ele>46.0</ele><time>2026-04-12T10:36:30Z</time></trkpt><trkpt lat="46.00083983565308" lon="12.757724596055093"><ele>46.5</ele><time>2026-04-12T10:36:31Z</time></trkpt><trkpt lat="46.000651576001395" lon="12.757450034505698"><ele>47.0</ele><time>2026-04-12T10:36:32Z</time></trkpt><trkpt lat="46.0004665165222" lon="12.757180415732432"><ele>47.0</ele><time>2026-04-12T10:36:33Z</time></trkpt><trkpt lat="46.000324268886665" lon="12.756949691769082"><ele>47.0</ele><time>2026-04-12T10:36:34Z</time></trkpt><trkpt lat="46.00020226782656" lon="12.75672113501887"><ele>47.0</ele><time>2026-04-12T10:36:35Z</time></trkpt><trkpt lat="46.000091293266124" lon="12.756478632345901"><ele>46.666666666666664</ele><time>2026-04-12T10:36:36Z</time></trkpt><trkpt lat="45.99999400064706" lon="12.756216159085348"><ele>46.333333333333336</ele><time>2026-04-12T10:36:37Z</time></trkpt><trkpt lat="45.9999141571526" lon="12.755951930361242"><ele>46.0</ele><time>2026-04-12T10:36:38Z</time></trkpt><trkpt lat="45.9998408162104" lon="12.755695045086053"><ele>46.66666666666667</ele><time>2026-04-12T10:36:39Z</time></trkpt><trkpt lat="45.99976792206779" lon="12.755435680920472"><ele>47.333333333333336</ele><time>2026-04-12T10:36:40Z</time></trkpt><trkpt lat="45.99970121860178" lon="12.755174858091726"><ele>48.0</ele><time>2026-04-12T10:36:41Z</time></trkpt><trkpt lat="45.99964716450552" lon="12.754919988953509"><ele>48.0</ele><time>2026-04-12T10:36:42Z</time></trkpt><trkpt lat="45.999606351447554" lon="12.754681133568138"><ele>48.0</ele><time>2026-04-12T10:36:43Z</time></trkpt><trkpt lat="45.999577713549776" lon="12.754435407835992"><ele>48.0</ele><time>2026-04-12T10:36:44Z</time></trkpt><trkpt lat="45.99956100410424" lon="12.75418598092974"><ele>48.0</ele><time>2026-04-12T10:36:45Z</time></trkpt><trkpt lat="45.99954211307941" lon="12.75392461873801"><ele>48.0</ele><time>2026-04-12T10:36:46Z</time></trkpt><trkpt lat="45.99956450344223" lon="12.75365979072901"><ele>48.0</ele><time>2026-04-12T10:36:47Z</time></trkpt><trkpt lat="45.999581540722126" lon="12.75339646772628"><ele>48.0</ele><time>2026-04-12T10:36:48Z</time></trkpt><trkpt lat="45.99959068518776" lon="12.753125412171235"><ele>48.0</ele><time>2026-04-12T10:36:49Z</time></trkpt><trkpt lat="45.99961752180632" lon="12.752885000243012"><ele>48.0</ele><time>2026-04-12T10:36:50Z</time></trkpt><trkpt lat="45.99963619482184" lon="12.752634825959204"><ele>47.333333333333336</ele><time>2026-04-12T10:36:51Z</time></trkpt><trkpt lat="45.999652412620584" lon="12.752373293829814"><ele>46.66666666666667</ele><time>2026-04-12T10:36:52Z</time></trkpt><trkpt lat="45.99967559293341" lon="12.752103876587658"><ele>46.0</ele><time>2026-04-12T10:36:53Z</time></trkpt><trkpt lat="45.99969853387211" lon="12.751837758903184"><ele>46.0</ele><time>2026-04-12T10:36:54Z</time></trkpt><trkpt lat="45.999726236560704" lon="12.751582287800456"><ele>46.0</ele><time>2026-04-12T10:36:55Z</time></trkpt><trkpt lat="45.999760507197436" lon="12.75133259518572"><ele>46.0</ele><time>2026-04-12T10:36:56Z</time></trkpt><trkpt lat="45.99979805262512" lon="12.751083289736675"><ele>46.333333333333336</ele><time>2026-04-12T10:36:57Z</time></trkpt><trkpt lat="45.99984291722411" lon="12.750826925446512"><ele>46.666666666666664</ele><time>2026-04-12T10:36:58Z</time></trkpt><trkpt lat="45.99988469714638" lon="12.750574591199884"><ele>47.0</ele><time>2026-04-12T10:36:59Z</time></trkpt><trkpt lat="45.99993210391535" lon="12.750317209500773"><ele>47.33333333333333</ele><time>2026-04-12T10:37:00Z</time></trkpt><trkpt lat="45.99997666656987" lon="12.750063374189677"><ele>47.666666666666664</ele><time>2026-04-12T10:37:01Z</time></trkpt><trkpt lat="46.0000163261519" lon="12.74982246483203"><ele>48.0</ele><time>2026-04-12T10:37:02Z</time></trkpt><trkpt lat="46.00006209471823" lon="12.749585914935324"><ele>48.33333333333333</ele><time>2026-04-12T10:37:03Z</time></trkpt><trkpt lat="46.00010577915206" lon="12.749336818099444"><ele>48.666666666666664</ele><time>2026-04-12T10:37:04Z</time></trkpt><trkpt lat="46.000148610196405" lon="12.749084901923402"><ele>49.0</ele><time>2026-04-12T10:37:05Z</time></trkpt><trkpt lat="46.00019003929132" lon="12.748843984719507"><ele>49.0</ele><time>2026-04-12T10:37:06Z</time></trkpt><trkpt lat="46.00023058607626" lon="12.748602708122803"><ele>49.0</ele><time>2026-04-12T10:37:07Z</time></trkpt><trkpt lat="46.0002706830497" lon="12.748359327855516"><ele>49.0</ele><time>2026-04-12T10:37:08Z</time></trkpt><trkpt lat="46.00031550871982" lon="12.74809491907823"><ele>49.33333333333333</ele><time>2026-04-12T10:37:09Z</time></trkpt><trkpt lat="46.000355137102055" lon="12.747858325049934"><ele>49.66666666666667</ele><time>2026-04-12T10:37:10Z</time></trkpt><trkpt lat="46.00039393329567" lon="12.747616019942669"><ele>50.0</ele><time>2026-04-12T10:37:11Z</time></trkpt><trkpt lat="46.000433449587945" lon="12.74737581667675"><ele>50.0</ele><time>2026-04-12T10:37:12Z</time></trkpt><trkpt lat="46.00047679868077" lon="12.747128841819725"><ele>50.0</ele><time>2026-04-12T10:37:13Z</time></trkpt><trkpt lat="46.000518946738296" lon="12.746884070035637"><ele>50.0</ele><time>2026-04-12T10:37:14Z</time></trkpt><trkpt lat="46.000559042800624" lon="12.746643400305029"><ele>50.0</ele><time>2026-04-12T10:37:15Z</time></trkpt><trkpt lat="46.00062060785139" lon="12.746418476511618"><ele>50.0</ele><time>2026-04-12T10:37:16Z</time></trkpt><trkpt lat="46.0006760742415" lon="12.746202366531827"><ele>50.0</ele><time>2026-04-12T10:37:17Z</time></trkpt><trkpt lat="46.000725263545675" lon="12.745966512929844"><ele>50.0</ele><time>2026-04-12T10:37:18Z</time></trkpt><trkpt lat="46.00079751226067" lon="12.745736626114434"><ele>50.0</ele><time>2026-04-12T10:37:19Z</time></trkpt><trkpt lat="46.00087242151142" lon="12.745503252072838"><ele>50.0</ele><time>2026-04-12T10:37:20Z</time></trkpt><trkpt lat="46.00094204702764" lon="12.74528349402871"><ele>49.66666666666667</ele><time>2026-04-12T10:37:21Z</time></trkpt><trkpt lat="46.00101630508227" lon="12.745050529126615"><ele>49.33333333333333</ele><time>2026-04-12T10:37:22Z</time></trkpt><trkpt lat="46.00109582769028" lon="12.744792586238042"><ele>49.0</ele><time>2026-04-12T10:37:23Z</time></trkpt><trkpt lat="46.001173307048234" lon="12.744516616994375"><ele>48.666666666666664</ele><time>2026-04-12T10:37:24Z</time></trkpt><trkpt lat="46.001246800423345" lon="12.74425126705134"><ele>48.33333333333333</ele><time>2026-04-12T10:37:25Z</time></trkpt><trkpt lat="46.00130834019444" lon="12.744004606528467"><ele>48.0</ele><time>2026-04-12T10:37:26Z</time></trkpt><trkpt lat="46.001363239085876" lon="12.743783709577855"><ele>48.0</ele><time>2026-04-12T10:37:27Z</time></trkpt><trkpt lat="46.001421069782836" lon="12.743554313200217"><ele>48.0</ele><time>2026-04-12T10:37:28Z</time></trkpt><trkpt lat="46.00147800290572" lon="12.743316404579149"><ele>48.0</ele><time>2026-04-12T10:37:29Z</time></trkpt><trkpt lat="46.00153810616395" lon="12.743083327100734"><ele>48.33333333333333</ele><time>2026-04-12T10:37:30Z</time></trkpt><trkpt lat="46.00159816800387" lon="12.742848850234967"><ele>48.666666666666664</ele><time>2026-04-12T10:37:31Z</time></trkpt><trkpt lat="46.001653395509514" lon="12.74262293645109"><ele>49.0</ele><time>2026-04-12T10:37:32Z</time></trkpt><trkpt lat="46.00171504854292" lon="12.742390206651478"><ele>49.33333333333333</ele><time>2026-04-12T10:37:33Z</time></trkpt><trkpt lat="46.00177603317669" lon="12.742148044427092"><ele>49.66666666666667</ele><time>2026-04-12T10:37:34Z</time></trkpt><trkpt lat="46.00182925744237" lon="12.741914012155599"><ele>50.0</ele><time>2026-04-12T10:37:35Z</time></trkpt><trkpt lat="46.00188627859517" lon="12.741691301760708"><ele>50.0</ele><time>2026-04-12T10:37:36Z</time></trkpt><trkpt lat="46.00194690939644" lon="12.741470541930466"><ele>50.0</ele><time>2026-04-12T10:37:37Z</time></trkpt><trkpt lat="46.001998224876104" lon="12.741273867410642"><ele>50.0</ele><time>2026-04-12T10:37:38Z</time></trkpt><trkpt lat="46.002040969702655" lon="12.741097321742297"><ele>50.0</ele><time>2026-04-12T10:37:39Z</time></trkpt><trkpt lat="46.002085369357395" lon="12.74094987752129"><ele>50.00000000000001</ele><time>2026-04-12T10:37:40Z</time></trkpt><trkpt lat="46.002130890036035" lon="12.740866395087428"><ele>50.0</ele><time>2026-04-12T10:37:41Z</time></trkpt><trkpt lat="46.002191080105106" lon="12.74082426176232"><ele>50.0</ele><time>2026-04-12T10:37:42Z</time></trkpt><trkpt lat="46.002259254122556" lon="12.740843362229214"><ele>50.0</ele><time>2026-04-12T10:37:43Z</time></trkpt><trkpt lat="46.00231598304045" lon="12.740898162581063"><ele>50.0</ele><time>2026-04-12T10:37:44Z</time></trkpt><trkpt lat="46.0023606350519" lon="12.740978935224723"><ele>50.00000000000001</ele><time>2026-04-12T10:37:45Z</time></trkpt><trkpt lat="46.00240295957851" lon="12.741088201235057"><ele>50.0</ele><time>2026-04-12T10:37:46Z</time></trkpt><trkpt lat="46.00242007256146" lon="12.741221258152923"><ele>50.0</ele><time>2026-04-12T10:37:47Z</time></trkpt><trkpt lat="46.00243325341193" lon="12.741378446913476"><ele>50.0</ele><time>2026-04-12T10:37:48Z</time></trkpt><trkpt lat="46.00245711965383" lon="12.74154161068789"><ele>50.0</ele><time>2026-04-12T10:37:49Z</time></trkpt><trkpt lat="46.00249145193251" lon="12.741726041141504"><ele>50.0</ele><time>2026-04-12T10:37:50Z</time></trkpt><trkpt lat="46.00253034628925" lon="12.741920278465212"><ele>50.5</ele><time>2026-04-12T10:37:51Z</time></trkpt><trkpt lat="46.00256704399938" lon="12.742136937617685"><ele>51.0</ele><time>2026-04-12T10:37:52Z</time></trkpt><trkpt lat="46.00260982821741" lon="12.742343647094522"><ele>51.5</ele><time>2026-04-12T10:37:53Z</time></trkpt><trkpt lat="46.002644535466594" lon="12.742527569198485"><ele>52.0</ele><time>2026-04-12T10:37:54Z</time></trkpt><trkpt lat="46.002669512957205" lon="12.742701455671078"><ele>51.75</ele><time>2026-04-12T10:37:55Z</time></trkpt><trkpt lat="46.00270406476026" lon="12.742878613779094"><ele>51.5</ele><time>2026-04-12T10:37:56Z</time></trkpt><trkpt lat="46.00273724674605" lon="12.743066967406675"><ele>51.25</ele><time>2026-04-12T10:37:57Z</time></trkpt><trkpt lat="46.00276896064736" lon="12.7432597555743"><ele>51.0</ele><time>2026-04-12T10:37:58Z</time></trkpt><trkpt lat="46.00279597670824" lon="12.743458886746291"><ele>50.5</ele><time>2026-04-12T10:37:59Z</time></trkpt><trkpt lat="46.00282907261723" lon="12.743652783109512"><ele>50.0</ele><time>2026-04-12T10:38:00Z</time></trkpt><trkpt lat="46.002861932060874" lon="12.743859159577898"><ele>49.5</ele><time>2026-04-12T10:38:01Z</time></trkpt><trkpt lat="46.00290016161393" lon="12.744046088725776"><ele>49.0</ele><time>2026-04-12T10:38:02Z</time></trkpt><trkpt lat="46.00293317241627" lon="12.744212801464764"><ele>49.0</ele><time>2026-04-12T10:38:03Z</time></trkpt><trkpt lat="46.002949369915946" lon="12.744410738900607"><ele>49.0</ele><time>2026-04-12T10:38:04Z</time></trkpt><trkpt lat="46.00298194724948" lon="12.744602116035491"><ele>49.0</ele><time>2026-04-12T10:38:05Z</time></trkpt><trkpt lat="46.003015871316364" lon="12.74477944754367"><ele>49.0</ele><time>2026-04-12T10:38:06Z</time></trkpt><trkpt lat="46.003053760686356" lon="12.744960279598049"><ele>49.0</ele><time>2026-04-12T10:38:07Z</time></trkpt><trkpt lat="46.00309562423926" lon="12.745151876188617"><ele>49.0</ele><time>2026-04-12T10:38:08Z</time></trkpt><trkpt lat="46.00313645987119" lon="12.745338121979469"><ele>49.0</ele><time>2026-04-12T10:38:09Z</time></trkpt><trkpt lat="46.00317413077274" lon="12.745514686626692"><ele>49.0</ele><time>2026-04-12T10:38:10Z</time></trkpt><trkpt lat="46.00320625770989" lon="12.74566952727388"><ele>49.5</ele><time>2026-04-12T10:38:11Z</time></trkpt><trkpt lat="46.00324060147766" lon="12.74584854369712"><ele>50.0</ele><time>2026-04-12T10:38:12Z</time></trkpt><trkpt lat="46.00327231392079" lon="12.74601740567581"><ele>50.5</ele><time>2026-04-12T10:38:13Z</time></trkpt><trkpt lat="46.00331134504443" lon="12.746170658362097"><ele>51.0</ele><time>2026-04-12T10:38:14Z</time></trkpt><trkpt lat="46.00333184312382" lon="12.746332773450021"><ele>51.166666666666664</ele><time>2026-04-12T10:38:15Z</time></trkpt><trkpt lat="46.0033586349323" lon="12.746463622750083"><ele>51.33333333333333</ele><time>2026-04-12T10:38:16Z</time></trkpt><trkpt lat="46.00338336765077" lon="12.746578566796682"><ele>51.5</ele><time>2026-04-12T10:38:17Z</time></trkpt><trkpt lat="46.00340872715065" lon="12.746687771697632"><ele>51.666666666666664</ele><time>2026-04-12T10:38:18Z</time></trkpt><trkpt lat="46.00343508774482" lon="12.746791449948295"><ele>51.83333333333333</ele><time>2026-04-12T10:38:19Z</time></trkpt><trkpt lat="46.00347331066938" lon="12.746936658450394"><ele>52.0</ele><time>2026-04-12T10:38:21Z</time></trkpt><trkpt lat="46.003497396515165" lon="12.747026340524833"><ele>51.99999999999999</ele><time>2026-04-12T10:38:23Z</time></trkpt><trkpt lat="46.00352729998787" lon="12.747137683915488"><ele>52.0</ele><time>2026-04-12T10:38:26Z</time></trkpt><trkpt lat="46.003554346971306" lon="12.747241767232852"><ele>52.0</ele><time>2026-04-12T10:38:32Z</time></trkpt><trkpt lat="46.0035756487588" lon="12.74732998317691"><ele>52.0</ele><time>2026-04-12T10:38:35Z</time></trkpt><trkpt lat="46.00360821094261" lon="12.747466908025082"><ele>51.99999999999999</ele><time>2026-04-12T10:38:38Z</time></trkpt><trkpt lat="46.00363124886818" lon="12.74756764051097"><ele>52.0</ele><time>2026-04-12T10:38:40Z</time></trkpt><trkpt lat="46.003653598204124" lon="12.747666664360613"><ele>51.99999999999999</ele><time>2026-04-12T10:38:43Z</time></trkpt><trkpt lat="46.00367444130718" lon="12.747763168557379"><ele>52.0</ele><time>2026-04-12T10:38:45Z</time></trkpt><trkpt lat="46.00369474579359" lon="12.747857178439249"><ele>52.0</ele><time>2026-04-12T10:38:47Z</time></trkpt><trkpt lat="46.00371668261932" lon="12.747958746485324"><ele>52.0</ele><time>2026-04-12T10:38:50Z</time></trkpt><trkpt lat="46.00374887455465" lon="12.748051477329657"><ele>51.99999999999999</ele><time>2026-04-12T10:38:52Z</time></trkpt><trkpt lat="46.00376106846763" lon="12.748164253908255"><ele>52.0</ele><time>2026-04-12T10:38:54Z</time></trkpt><trkpt lat="46.00378953157351" lon="12.748296038486648"><ele>51.99999999999999</ele><time>2026-04-12T10:38:56Z</time></trkpt><trkpt lat="46.00381474404644" lon="12.748412772739847"><ele>52.0</ele><time>2026-04-12T10:38:58Z</time></trkpt><trkpt lat="46.003843825366715" lon="12.748547419758287"><ele>52.0</ele><time>2026-04-12T10:39:01Z</time></trkpt><trkpt lat="46.003866745735436" lon="12.748653541551578"><ele>52.0</ele><time>2026-04-12T10:39:05Z</time></trkpt><trkpt lat="46.00389100973758" lon="12.748765884338512"><ele>51.99999999999999</ele><time>2026-04-12T10:39:09Z</time></trkpt><trkpt lat="46.00391797438742" lon="12.748891209509965"><ele>52.0</ele><time>2026-04-12T10:39:11Z</time></trkpt><trkpt lat="46.00397073106788" lon="12.748992601120351"><ele>51.857142857142854</ele><time>2026-04-12T10:39:13Z</time></trkpt><trkpt lat="46.003996404107696" lon="12.74909921105254"><ele>51.714285714285715</ele><time>2026-04-12T10:39:16Z</time></trkpt><trkpt lat="46.004037158243015" lon="12.749183756549005"><ele>51.57142857142857</ele><time>2026-04-12T10:39:18Z</time></trkpt><trkpt lat="46.00398780725041" lon="12.749099064556235"><ele>51.42857142857143</ele><time>2026-04-12T10:39:57Z</time></trkpt><trkpt lat="46.003974044360135" lon="12.749001912560056"><ele>51.28571428571429</ele><time>2026-04-12T10:39:58Z</time></trkpt><trkpt lat="46.00395212550728" lon="12.748901277842226"><ele>51.142857142857146</ele><time>2026-04-12T10:39:59Z</time></trkpt><trkpt lat="46.00392413810853" lon="12.748812468765529"><ele>51.0</ele><time>2026-04-12T10:40:00Z</time></trkpt><trkpt lat="46.003890886484236" lon="12.748643003190093"><ele>51.0</ele><time>2026-04-12T10:40:02Z</time></trkpt><trkpt lat="46.00386867938759" lon="12.748556700011934"><ele>51.0</ele><time>2026-04-12T10:40:03Z</time></trkpt><trkpt lat="46.0038407122987" lon="12.748391913851073"><ele>51.0</ele><time>2026-04-12T10:40:05Z</time></trkpt><trkpt lat="46.00380061318795" lon="12.748228547812621"><ele>51.0</ele><time>2026-04-12T10:40:07Z</time></trkpt><trkpt lat="46.00377214808172" lon="12.748072086758151"><ele>51.0</ele><time>2026-04-12T10:40:09Z</time></trkpt><trkpt lat="46.00374085647739" lon="12.747922688464387"><ele>51.199999999999996</ele><time>2026-04-12T10:40:11Z</time></trkpt><trkpt lat="46.00369561564871" lon="12.747741828044115"><ele>51.4</ele><time>2026-04-12T10:40:13Z</time></trkpt><trkpt lat="46.003674313314555" lon="12.747649424978865"><ele>51.6</ele><time>2026-04-12T10:40:14Z</time></trkpt><trkpt lat="46.00365138408199" lon="12.747555951800909"><ele>51.8</ele><time>2026-04-12T10:40:15Z</time></trkpt><trkpt lat="46.00362287404023" lon="12.747434166139087"><ele>52.0</ele><time>2026-04-12T10:40:16Z</time></trkpt><trkpt lat="46.00359224199299" lon="12.747289728079283"><ele>51.99999999999999</ele><time>2026-04-12T10:40:17Z</time></trkpt><trkpt lat="46.00356357259303" lon="12.747170778184158"><ele>52.0</ele><time>2026-04-12T10:40:18Z</time></trkpt><trkpt lat="46.00353877960996" lon="12.747072899614315"><ele>52.0</ele><time>2026-04-12T10:40:19Z</time></trkpt><trkpt lat="46.00350272986392" lon="12.74693578689217"><ele>52.0</ele><time>2026-04-12T10:40:21Z</time></trkpt><trkpt lat="46.00356515221597" lon="12.746821500852578"><ele>51.99999999999999</ele><time>2026-04-12T10:40:33Z</time></trkpt><trkpt lat="46.003649535122015" lon="12.746844197611852"><ele>52.0</ele><time>2026-04-12T10:40:37Z</time></trkpt><trkpt lat="46.003733149055584" lon="12.746817287125712"><ele>52.166666666666664</ele><time>2026-04-12T10:40:40Z</time></trkpt><trkpt lat="46.0038121102072" lon="12.746799719467791"><ele>52.33333333333333</ele><time>2026-04-12T10:40:42Z</time></trkpt><trkpt lat="46.00389180727942" lon="12.74678020062392"><ele>52.5</ele><time>2026-04-12T10:40:44Z</time></trkpt><trkpt lat="46.00397231397411" lon="12.746760481690112"><ele>52.66666666666667</ele><time>2026-04-12T10:40:46Z</time></trkpt><trkpt lat="46.00406912451298" lon="12.746742504961274"><ele>52.833333333333336</ele><time>2026-04-12T10:40:48Z</time></trkpt><trkpt lat="46.004169356952985" lon="12.746727784546135"><ele>53.0</ele><time>2026-04-12T10:40:50Z</time></trkpt><trkpt lat="46.00427220051856" lon="12.746717723021641"><ele>53.2</ele><time>2026-04-12T10:40:52Z</time></trkpt><trkpt lat="46.00439387619413" lon="12.746706451764172"><ele>53.4</ele><time>2026-04-12T10:40:54Z</time></trkpt><trkpt lat="46.00452742884655" lon="12.746682838027603"><ele>53.60000000000001</ele><time>2026-04-12T10:40:56Z</time></trkpt><trkpt lat="46.00461354381671" lon="12.746671814577349"><ele>53.800000000000004</ele><time>2026-04-12T10:40:57Z</time></trkpt><trkpt lat="46.00468181197482" lon="12.74666191901921"><ele>54.0</ele><time>2026-04-12T10:40:58Z</time></trkpt><trkpt lat="46.004755785451295" lon="12.746654608315422"><ele>54.0</ele><time>2026-04-12T10:40:59Z</time></trkpt><trkpt lat="46.00485392334563" lon="12.746652257136917"><ele>54.0</ele><time>2026-04-12T10:41:00Z</time></trkpt><trkpt lat="46.0049736660859" lon="12.746636390948964"><ele>54.0</ele><time>2026-04-12T10:41:01Z</time></trkpt><trkpt lat="46.00509500972324" lon="12.746604561795683"><ele>54.0</ele><time>2026-04-12T10:41:02Z</time></trkpt><trkpt lat="46.005214006223305" lon="12.746567863355391"><ele>54.2</ele><time>2026-04-12T10:41:03Z</time></trkpt><trkpt lat="46.005317201267324" lon="12.74655303701148"><ele>54.400000000000006</ele><time>2026-04-12T10:41:04Z</time></trkpt><trkpt lat="46.00541497663061" lon="12.746539442070214"><ele>54.6</ele><time>2026-04-12T10:41:05Z</time></trkpt><trkpt lat="46.00551886252614" lon="12.746521030948475"><ele>54.8</ele><time>2026-04-12T10:41:06Z</time></trkpt><trkpt lat="46.005627395141616" lon="12.746500208320054"><ele>55.0</ele><time>2026-04-12T10:41:07Z</time></trkpt><trkpt lat="46.005738568788246" lon="12.746481944019873"><ele>54.8</ele><time>2026-04-12T10:41:08Z</time></trkpt><trkpt lat="46.00585380817847" lon="12.746466897506266"><ele>54.6</ele><time>2026-04-12T10:41:09Z</time></trkpt><trkpt lat="46.00596371370079" lon="12.746444504992755"><ele>54.400000000000006</ele><time>2026-04-12T10:41:10Z</time></trkpt><trkpt lat="46.00606249590901" lon="12.74642885643006"><ele>54.2</ele><time>2026-04-12T10:41:11Z</time></trkpt><trkpt lat="46.00615379672793" lon="12.746414099169089"><ele>54.0</ele><time>2026-04-12T10:41:12Z</time></trkpt><trkpt lat="46.00626056538304" lon="12.746392622601832"><ele>54.0</ele><time>2026-04-12T10:41:13Z</time></trkpt><trkpt lat="46.00636636546045" lon="12.746361759489425"><ele>54.00000000000001</ele><time>2026-04-12T10:41:14Z</time></trkpt><trkpt lat="46.00646535482815" lon="12.746335993339219"><ele>54.00000000000001</ele><time>2026-04-12T10:41:15Z</time></trkpt><trkpt lat="46.00656322677956" lon="12.746330882361018"><ele>54.0</ele><time>2026-04-12T10:41:16Z</time></trkpt><trkpt lat="46.00667040278291" lon="12.746331507328613"><ele>54.0</ele><time>2026-04-12T10:41:17Z</time></trkpt><trkpt lat="46.00678975613069" lon="12.74631830951232"><ele>54.400000000000006</ele><time>2026-04-12T10:41:18Z</time></trkpt><trkpt lat="46.00689450530261" lon="12.746297733807486"><ele>54.800000000000004</ele><time>2026-04-12T10:41:19Z</time></trkpt><trkpt lat="46.00700179745109" lon="12.746274981657557"><ele>55.199999999999996</ele><time>2026-04-12T10:41:20Z</time></trkpt><trkpt lat="46.0071118053515" lon="12.746253849966363"><ele>55.599999999999994</ele><time>2026-04-12T10:41:21Z</time></trkpt><trkpt lat="46.00721694126126" lon="12.746239134873674"><ele>56.0</ele><time>2026-04-12T10:41:22Z</time></trkpt><trkpt lat="46.00731500248637" lon="12.74622182870673"><ele>56.0</ele><time>2026-04-12T10:41:23Z</time></trkpt><trkpt lat="46.00741749651609" lon="12.74620489810599"><ele>55.99999999999999</ele><time>2026-04-12T10:41:24Z</time></trkpt><trkpt lat="46.007525302942696" lon="12.746188077260483"><ele>55.99999999999999</ele><time>2026-04-12T10:41:25Z</time></trkpt><trkpt lat="46.00763723783764" lon="12.746167835796122"><ele>56.0</ele><time>2026-04-12T10:41:26Z</time></trkpt><trkpt lat="46.00774407699349" lon="12.746147426912682"><ele>56.0</ele><time>2026-04-12T10:41:27Z</time></trkpt><trkpt lat="46.007839558353616" lon="12.746137166929998"><ele>56.50000000000001</ele><time>2026-04-12T10:41:28Z</time></trkpt><trkpt lat="46.007920740157005" lon="12.746128720783055"><ele>57.0</ele><time>2026-04-12T10:41:29Z</time></trkpt><trkpt lat="46.00799359909408" lon="12.746121040928184"><ele>57.5</ele><time>2026-04-12T10:41:30Z</time></trkpt><trkpt lat="46.00805612339519" lon="12.746105911816608"><ele>58.0</ele><time>2026-04-12T10:41:31Z</time></trkpt><trkpt lat="46.008122444323135" lon="12.746090212188317"><ele>58.50000000000001</ele><time>2026-04-12T10:41:32Z</time></trkpt><trkpt lat="46.00820311744939" lon="12.746082774465203"><ele>59.0</ele><time>2026-04-12T10:41:33Z</time></trkpt><trkpt lat="46.00830074763605" lon="12.74606268159335"><ele>59.00000000000001</ele><time>2026-04-12T10:41:34Z</time></trkpt><trkpt lat="46.00841091858541" lon="12.746047583735887"><ele>59.0</ele><time>2026-04-12T10:41:35Z</time></trkpt><trkpt lat="46.00850399025461" lon="12.746033050575058"><ele>59.0</ele><time>2026-04-12T10:41:36Z</time></trkpt><trkpt lat="46.008584985002116" lon="12.746016627067112"><ele>59.0</ele><time>2026-04-12T10:41:37Z</time></trkpt><trkpt lat="46.00865748407777" lon="12.746000628136356"><ele>59.00000000000001</ele><time>2026-04-12T10:41:38Z</time></trkpt><trkpt lat="46.008721256595386" lon="12.745993188871623"><ele>59.0</ele><time>2026-04-12T10:41:39Z</time></trkpt><trkpt lat="46.008857857146424" lon="12.745991967219588"><ele>59.0</ele><time>2026-04-12T10:41:41Z</time></trkpt><trkpt lat="46.008949786990186" lon="12.745975116792183"><ele>59.00000000000001</ele><time>2026-04-12T10:41:42Z</time></trkpt><trkpt lat="46.00905301348533" lon="12.745960848430402"><ele>59.00000000000001</ele><time>2026-04-12T10:41:43Z</time></trkpt><trkpt lat="46.00916204393245" lon="12.745943041757858"><ele>59.0</ele><time>2026-04-12T10:41:44Z</time></trkpt><trkpt lat="46.009281546770524" lon="12.745919973328288"><ele>59.0</ele><time>2026-04-12T10:41:45Z</time></trkpt><trkpt lat="46.00939822062136" lon="12.745902596365324"><ele>59.5</ele><time>2026-04-12T10:41:46Z</time></trkpt><trkpt lat="46.00950457487534" lon="12.745885345883734"><ele>60.0</ele><time>2026-04-12T10:41:47Z</time></trkpt><trkpt lat="46.00961013262112" lon="12.745866335619658"><ele>60.5</ele><time>2026-04-12T10:41:48Z</time></trkpt><trkpt lat="46.00972218443437" lon="12.74584972493653"><ele>61.0</ele><time>2026-04-12T10:41:49Z</time></trkpt><trkpt lat="46.009852152904486" lon="12.745825007581058"><ele>61.0</ele><time>2026-04-12T10:41:50Z</time></trkpt><trkpt lat="46.009969317012484" lon="12.745805811572636"><ele>61.0</ele><time>2026-04-12T10:41:51Z</time></trkpt><trkpt lat="46.01009207987067" lon="12.745791159499472"><ele>61.0</ele><time>2026-04-12T10:41:52Z</time></trkpt><trkpt lat="46.010205690208835" lon="12.74577495155834"><ele>61.0</ele><time>2026-04-12T10:41:53Z</time></trkpt><trkpt lat="46.01031772442475" lon="12.745755430991986"><ele>61.0</ele><time>2026-04-12T10:41:54Z</time></trkpt><trkpt lat="46.010420767266304" lon="12.745741016131209"><ele>60.99999999999999</ele><time>2026-04-12T10:41:55Z</time></trkpt><trkpt lat="46.01052516413678" lon="12.745722874561826"><ele>60.99999999999999</ele><time>2026-04-12T10:41:56Z</time></trkpt><trkpt lat="46.01062975313121" lon="12.745709112764606"><ele>61.0</ele><time>2026-04-12T10:41:57Z</time></trkpt><trkpt lat="46.01072783653013" lon="12.745690859226379"><ele>61.0</ele><time>2026-04-12T10:41:58Z</time></trkpt><trkpt lat="46.01083453104504" lon="12.745668650668394"><ele>61.5</ele><time>2026-04-12T10:41:59Z</time></trkpt><trkpt lat="46.010979686362155" lon="12.745642815775945"><ele>62.0</ele><time>2026-04-12T10:42:00Z</time></trkpt><trkpt lat="46.01112380781662" lon="12.745617022544801"><ele>62.5</ele><time>2026-04-12T10:42:01Z</time></trkpt><trkpt lat="46.01124303170264" lon="12.74559291586401"><ele>63.0</ele><time>2026-04-12T10:42:02Z</time></trkpt><trkpt lat="46.011363204099325" lon="12.745563349679545"><ele>63.0</ele><time>2026-04-12T10:42:03Z</time></trkpt><trkpt lat="46.0114772200918" lon="12.745533462147547"><ele>63.0</ele><time>2026-04-12T10:42:04Z</time></trkpt><trkpt lat="46.01158048891259" lon="12.745514499235801"><ele>63.0</ele><time>2026-04-12T10:42:05Z</time></trkpt><trkpt lat="46.01168506813891" lon="12.745497060221659"><ele>63.0</ele><time>2026-04-12T10:42:06Z</time></trkpt><trkpt lat="46.0118032599776" lon="12.745476465401174"><ele>63.0</ele><time>2026-04-12T10:42:07Z</time></trkpt><trkpt lat="46.01192577510798" lon="12.745448845450408"><ele>63.0</ele><time>2026-04-12T10:42:08Z</time></trkpt><trkpt lat="46.012063532454754" lon="12.74542361500574"><ele>63.0</ele><time>2026-04-12T10:42:09Z</time></trkpt><trkpt lat="46.012200109955664" lon="12.745395137805634"><ele>63.0</ele><time>2026-04-12T10:42:10Z</time></trkpt><trkpt lat="46.01231823326838" lon="12.745373515113119"><ele>63.0</ele><time>2026-04-12T10:42:11Z</time></trkpt><trkpt lat="46.012433598321614" lon="12.745351911917927"><ele>63.75</ele><time>2026-04-12T10:42:12Z</time></trkpt><trkpt lat="46.012561763361745" lon="12.745327488154059"><ele>64.5</ele><time>2026-04-12T10:42:13Z</time></trkpt><trkpt lat="46.01269742812493" lon="12.7453012067039"><ele>65.25</ele><time>2026-04-12T10:42:14Z</time></trkpt><trkpt lat="46.01285036231395" lon="12.745279241534584"><ele>66.0</ele><time>2026-04-12T10:42:15Z</time></trkpt><trkpt lat="46.01299451509402" lon="12.745260683085363"><ele>66.0</ele><time>2026-04-12T10:42:16Z</time></trkpt><trkpt lat="46.01311855106363" lon="12.745241750269853"><ele>66.0</ele><time>2026-04-12T10:42:17Z</time></trkpt><trkpt lat="46.013231099064626" lon="12.745221648480914"><ele>66.0</ele><time>2026-04-12T10:42:18Z</time></trkpt><trkpt lat="46.013332332060656" lon="12.745201784784177"><ele>66.0</ele><time>2026-04-12T10:42:19Z</time></trkpt><trkpt lat="46.013425819355405" lon="12.74518784057187"><ele>66.0</ele><time>2026-04-12T10:42:20Z</time></trkpt><trkpt lat="46.01351934223337" lon="12.74517691142554"><ele>66.2</ele><time>2026-04-12T10:42:21Z</time></trkpt><trkpt lat="46.01362750853042" lon="12.745162230135684"><ele>66.39999999999999</ele><time>2026-04-12T10:42:22Z</time></trkpt><trkpt lat="46.01374322413381" lon="12.745145363659399"><ele>66.6</ele><time>2026-04-12T10:42:23Z</time></trkpt><trkpt lat="46.013858398077325" lon="12.745131204360268"><ele>66.8</ele><time>2026-04-12T10:42:24Z</time></trkpt><trkpt lat="46.013957606099744" lon="12.745125626022949"><ele>67.0</ele><time>2026-04-12T10:42:25Z</time></trkpt><trkpt lat="46.01404567760612" lon="12.745112561475919"><ele>67.0</ele><time>2026-04-12T10:42:26Z</time></trkpt><trkpt lat="46.01413994468951" lon="12.745105136860738"><ele>67.0</ele><time>2026-04-12T10:42:27Z</time></trkpt><trkpt lat="46.014241833279755" lon="12.745091610059557"><ele>67.0</ele><time>2026-04-12T10:42:28Z</time></trkpt><trkpt lat="46.01435271511867" lon="12.745084424929349"><ele>67.0</ele><time>2026-04-12T10:42:29Z</time></trkpt><trkpt lat="46.01446818974891" lon="12.745071244504107"><ele>67.0</ele><time>2026-04-12T10:42:30Z</time></trkpt><trkpt lat="46.01458857900187" lon="12.745057831697293"><ele>67.4</ele><time>2026-04-12T10:42:31Z</time></trkpt><trkpt lat="46.01470341602033" lon="12.745046085495838"><ele>67.80000000000001</ele><time>2026-04-12T10:42:32Z</time></trkpt><trkpt lat="46.01480778454801" lon="12.745035902404238"><ele>68.2</ele><time>2026-04-12T10:42:33Z</time></trkpt><trkpt lat="46.01491325802635" lon="12.745024513981365"><ele>68.60000000000001</ele><time>2026-04-12T10:42:34Z</time></trkpt><trkpt lat="46.01502209859688" lon="12.74501261165931"><ele>69.0</ele><time>2026-04-12T10:42:35Z</time></trkpt><trkpt lat="46.015119108276544" lon="12.745002956518242"><ele>69.4</ele><time>2026-04-12T10:42:36Z</time></trkpt><trkpt lat="46.015212660706666" lon="12.744998619515599"><ele>69.80000000000001</ele><time>2026-04-12T10:42:37Z</time></trkpt><trkpt lat="46.01529929783243" lon="12.744988730505325"><ele>70.19999999999999</ele><time>2026-04-12T10:42:38Z</time></trkpt><trkpt lat="46.015372738020325" lon="12.744980550991082"><ele>70.6</ele><time>2026-04-12T10:42:39Z</time></trkpt><trkpt lat="46.01549166588976" lon="12.744969581022794"><ele>71.0</ele><time>2026-04-12T10:42:41Z</time></trkpt><trkpt lat="46.01558508939682" lon="12.744949650138095"><ele>71.0</ele><time>2026-04-12T10:42:43Z</time></trkpt><trkpt lat="46.015648094446824" lon="12.744891607830814"><ele>71.0</ele><time>2026-04-12T10:42:45Z</time></trkpt><trkpt lat="46.015690366450265" lon="12.744765718086503"><ele>71.0</ele><time>2026-04-12T10:42:47Z</time></trkpt><trkpt lat="46.01567790739829" lon="12.744600872487032"><ele>71.0</ele><time>2026-04-12T10:42:49Z</time></trkpt><trkpt lat="46.015664097970884" lon="12.744470807128696"><ele>71.0</ele><time>2026-04-12T10:42:50Z</time></trkpt><trkpt lat="46.01565618292861" lon="12.74432170096072"><ele>70.66666666666667</ele><time>2026-04-12T10:42:51Z</time></trkpt><trkpt lat="46.01564679716655" lon="12.744186867803913"><ele>70.33333333333334</ele><time>2026-04-12T10:42:52Z</time></trkpt><trkpt lat="46.015647856649466" lon="12.744048995160476"><ele>70.0</ele><time>2026-04-12T10:42:53Z</time></trkpt><trkpt lat="46.01564760515402" lon="12.743927586118067"><ele>69.66666666666667</ele><time>2026-04-12T10:42:54Z</time></trkpt><trkpt lat="46.01564125621774" lon="12.74380771739273"><ele>69.33333333333333</ele><time>2026-04-12T10:42:55Z</time></trkpt><trkpt lat="46.015623114505246" lon="12.743693805023481"><ele>69.0</ele><time>2026-04-12T10:42:56Z</time></trkpt><trkpt lat="46.015600579321536" lon="12.74354950540068"><ele>69.16666666666667</ele><time>2026-04-12T10:42:57Z</time></trkpt><trkpt lat="46.015592439734654" lon="12.743412635688802"><ele>69.33333333333333</ele><time>2026-04-12T10:42:58Z</time></trkpt><trkpt lat="46.01559067916613" lon="12.743285393552155"><ele>69.5</ele><time>2026-04-12T10:42:59Z</time></trkpt><trkpt lat="46.015591949118445" lon="12.743179526057956"><ele>69.66666666666666</ele><time>2026-04-12T10:43:00Z</time></trkpt><trkpt lat="46.01559616606797" lon="12.743077731765787"><ele>69.83333333333333</ele><time>2026-04-12T10:43:01Z</time></trkpt><trkpt lat="46.01562354264245" lon="12.742926429173167"><ele>70.0</ele><time>2026-04-12T10:43:03Z</time></trkpt><trkpt lat="46.01565900486144" lon="12.74283096791816"><ele>70.0</ele><time>2026-04-12T10:43:05Z</time></trkpt><trkpt lat="46.015697947875616" lon="12.74275103870609"><ele>70.0</ele><time>2026-04-12T10:43:09Z</time></trkpt><trkpt lat="46.01571912111584" lon="12.742657684894926"><ele>70.0</ele><time>2026-04-12T10:43:12Z</time></trkpt><trkpt lat="46.01573676938464" lon="12.742517304520206"><ele>70.0</ele><time>2026-04-12T10:43:14Z</time></trkpt><trkpt lat="46.01575763289493" lon="12.742410192380444"><ele>70.0</ele><time>2026-04-12T10:43:16Z</time></trkpt><trkpt lat="46.01578747812311" lon="12.742306154829603"><ele>70.0</ele><time>2026-04-12T10:43:20Z</time></trkpt><trkpt lat="46.01573021868505" lon="12.742455511164339"><ele>70.0</ele><time>2026-04-12T10:43:27Z</time></trkpt><trkpt lat="46.01571870144846" lon="12.74261984421696"><ele>70.0</ele><time>2026-04-12T10:43:29Z</time></trkpt><trkpt lat="46.015690841373" lon="12.742762023746076"><ele>70.0</ele><time>2026-04-12T10:43:31Z</time></trkpt><trkpt lat="46.01563346925381" lon="12.742837518122368"><ele>70.0</ele><time>2026-04-12T10:43:33Z</time></trkpt><trkpt lat="46.015570567967565" lon="12.74280443556836"><ele>70.0</ele><time>2026-04-12T10:43:35Z</time></trkpt><trkpt lat="46.015536698379364" lon="12.742699652968584"><ele>70.0</ele><time>2026-04-12T10:43:37Z</time></trkpt><trkpt lat="46.01555132545087" lon="12.742486003041822"><ele>70.33333333333333</ele><time>2026-04-12T10:43:39Z</time></trkpt><trkpt lat="46.015565958534346" lon="12.742334522439767"><ele>70.66666666666666</ele><time>2026-04-12T10:43:40Z</time></trkpt><trkpt lat="46.015569160050205" lon="12.742204444076638"><ele>71.0</ele><time>2026-04-12T10:43:41Z</time></trkpt><trkpt lat="46.01556461300023" lon="12.742104552390312"><ele>71.33333333333333</ele><time>2026-04-12T10:43:42Z</time></trkpt><trkpt lat="46.01554406176668" lon="12.741993108772947"><ele>71.66666666666667</ele><time>2026-04-12T10:43:44Z</time></trkpt><trkpt lat="46.015489085385816" lon="12.74192519046673"><ele>72.0</ele><time>2026-04-12T10:43:46Z</time></trkpt><trkpt lat="46.01542912454022" lon="12.741862636057323"><ele>72.0</ele><time>2026-04-12T10:43:48Z</time></trkpt><trkpt lat="46.01533207336904" lon="12.741826173069656"><ele>72.0</ele><time>2026-04-12T10:43:50Z</time></trkpt><trkpt lat="46.01526143494194" lon="12.741839561410169"><ele>72.0</ele><time>2026-04-12T10:43:51Z</time></trkpt><trkpt lat="46.0151772703313" lon="12.741865508472143"><ele>72.0</ele><time>2026-04-12T10:43:52Z</time></trkpt><trkpt lat="46.01506389239472" lon="12.74189825115458"><ele>72.0</ele><time>2026-04-12T10:43:53Z</time></trkpt><trkpt lat="46.01492919721415" lon="12.741910414366135"><ele>71.5</ele><time>2026-04-12T10:43:54Z</time></trkpt><trkpt lat="46.01478987030309" lon="12.741929379268399"><ele>71.0</ele><time>2026-04-12T10:43:55Z</time></trkpt><trkpt lat="46.014657431187125" lon="12.741952865189399"><ele>70.5</ele><time>2026-04-12T10:43:56Z</time></trkpt><trkpt lat="46.014517979365124" lon="12.741978649119728"><ele>70.0</ele><time>2026-04-12T10:43:57Z</time></trkpt><trkpt lat="46.014362652475896" lon="12.74200229749797"><ele>70.0</ele><time>2026-04-12T10:43:58Z</time></trkpt><trkpt lat="46.014224057230585" lon="12.742031270190349"><ele>70.0</ele><time>2026-04-12T10:43:59Z</time></trkpt><trkpt lat="46.01410042097878" lon="12.742050369286781"><ele>70.0</ele><time>2026-04-12T10:44:00Z</time></trkpt><trkpt lat="46.01398112257821" lon="12.742071122076675"><ele>70.0</ele><time>2026-04-12T10:44:01Z</time></trkpt><trkpt lat="46.01385349648746" lon="12.74209838730888"><ele>69.0</ele><time>2026-04-12T10:44:02Z</time></trkpt><trkpt lat="46.01372900811126" lon="12.742123433686778"><ele>68.0</ele><time>2026-04-12T10:44:03Z</time></trkpt><trkpt lat="46.013585183884906" lon="12.742148480578406"><ele>67.0</ele><time>2026-04-12T10:44:04Z</time></trkpt><trkpt lat="46.01342192410909" lon="12.742173945042168"><ele>66.0</ele><time>2026-04-12T10:44:05Z</time></trkpt><trkpt lat="46.01326739226717" lon="12.742199385014175"><ele>65.5</ele><time>2026-04-12T10:44:06Z</time></trkpt><trkpt lat="46.01313368945038" lon="12.742213703657143"><ele>65.0</ele><time>2026-04-12T10:44:07Z</time></trkpt><trkpt lat="46.01299110254384" lon="12.742235133350102"><ele>64.5</ele><time>2026-04-12T10:44:08Z</time></trkpt><trkpt lat="46.01286265618759" lon="12.742256546141707"><ele>64.0</ele><time>2026-04-12T10:44:09Z</time></trkpt><trkpt lat="46.01274658424377" lon="12.74228065714532"><ele>64.0</ele><time>2026-04-12T10:44:10Z</time></trkpt><trkpt lat="46.01264017661062" lon="12.742298038974441"><ele>64.0</ele><time>2026-04-12T10:44:11Z</time></trkpt><trkpt lat="46.01253333049849" lon="12.742314346891149"><ele>64.0</ele><time>2026-04-12T10:44:12Z</time></trkpt><trkpt lat="46.01242723276548" lon="12.742328816722518"><ele>64.0</ele><time>2026-04-12T10:44:13Z</time></trkpt><trkpt lat="46.01231698070065" lon="12.74234601733922"><ele>64.0</ele><time>2026-04-12T10:44:14Z</time></trkpt><trkpt lat="46.01221739875959" lon="12.742359938821405"><ele>64.33333333333333</ele><time>2026-04-12T10:44:15Z</time></trkpt><trkpt lat="46.012129085153774" lon="12.74237498391702"><ele>64.66666666666666</ele><time>2026-04-12T10:44:16Z</time></trkpt><trkpt lat="46.01204479062671" lon="12.742384536125732"><ele>65.0</ele><time>2026-04-12T10:44:17Z</time></trkpt><trkpt lat="46.01196693995564" lon="12.742402358043774"><ele>65.33333333333333</ele><time>2026-04-12T10:44:18Z</time></trkpt><trkpt lat="46.01188244396063" lon="12.742414499673103"><ele>65.66666666666667</ele><time>2026-04-12T10:44:19Z</time></trkpt><trkpt lat="46.01179387233554" lon="12.74241862871869"><ele>66.0</ele><time>2026-04-12T10:44:20Z</time></trkpt><trkpt lat="46.011707364731876" lon="12.742436160583585"><ele>65.39999999999999</ele><time>2026-04-12T10:44:21Z</time></trkpt><trkpt lat="46.01163567840937" lon="12.742452117499699"><ele>64.8</ele><time>2026-04-12T10:44:22Z</time></trkpt><trkpt lat="46.01155134281338" lon="12.742473485048226"><ele>64.19999999999999</ele><time>2026-04-12T10:44:23Z</time></trkpt><trkpt lat="46.011462521736995" lon="12.74249758072229"><ele>63.599999999999994</ele><time>2026-04-12T10:44:24Z</time></trkpt><trkpt lat="46.01136005951414" lon="12.742511965613899"><ele>63.0</ele><time>2026-04-12T10:44:25Z</time></trkpt><trkpt lat="46.01125633995762" lon="12.742530421878822"><ele>63.0</ele><time>2026-04-12T10:44:26Z</time></trkpt><trkpt lat="46.01116038868541" lon="12.742543323562888"><ele>63.0</ele><time>2026-04-12T10:44:27Z</time></trkpt><trkpt lat="46.01107442409096" lon="12.742556144896641"><ele>63.0</ele><time>2026-04-12T10:44:28Z</time></trkpt><trkpt lat="46.01098702654811" lon="12.742575582176944"><ele>63.0</ele><time>2026-04-12T10:44:29Z</time></trkpt><trkpt lat="46.01088798119467" lon="12.742592361893937"><ele>63.0</ele><time>2026-04-12T10:44:30Z</time></trkpt><trkpt lat="46.01079252785219" lon="12.742599400927839"><ele>62.8</ele><time>2026-04-12T10:44:31Z</time></trkpt><trkpt lat="46.010701978425004" lon="12.742611754088736"><ele>62.599999999999994</ele><time>2026-04-12T10:44:32Z</time></trkpt><trkpt lat="46.010604484259545" lon="12.74263285121065"><ele>62.400000000000006</ele><time>2026-04-12T10:44:33Z</time></trkpt><trkpt lat="46.01051314278789" lon="12.74264841367051"><ele>62.2</ele><time>2026-04-12T10:44:34Z</time></trkpt><trkpt lat="46.01042074635563" lon="12.742666273214889"><ele>62.0</ele><time>2026-04-12T10:44:35Z</time></trkpt><trkpt lat="46.01030878298911" lon="12.742687406387715"><ele>62.0</ele><time>2026-04-12T10:44:36Z</time></trkpt><trkpt lat="46.010210458888245" lon="12.742711113110632"><ele>62.0</ele><time>2026-04-12T10:44:37Z</time></trkpt><trkpt lat="46.01011589166162" lon="12.742732458177294"><ele>62.0</ele><time>2026-04-12T10:44:38Z</time></trkpt><trkpt lat="46.00999706207795" lon="12.742748324804348"><ele>62.0</ele><time>2026-04-12T10:44:39Z</time></trkpt><trkpt lat="46.00986486106492" lon="12.742760695314843"><ele>62.0</ele><time>2026-04-12T10:44:40Z</time></trkpt><trkpt lat="46.00975249521209" lon="12.742774870554761"><ele>61.75</ele><time>2026-04-12T10:44:41Z</time></trkpt><trkpt lat="46.00964854333338" lon="12.742788215435606"><ele>61.5</ele><time>2026-04-12T10:44:42Z</time></trkpt><trkpt lat="46.009534046398414" lon="12.74280732744885"><ele>61.25</ele><time>2026-04-12T10:44:43Z</time></trkpt><trkpt lat="46.009420705500574" lon="12.742832286869188"><ele>61.0</ele><time>2026-04-12T10:44:44Z</time></trkpt><trkpt lat="46.00930208986806" lon="12.742859756526018"><ele>61.0</ele><time>2026-04-12T10:44:45Z</time></trkpt><trkpt lat="46.00918851629026" lon="12.742886465750626"><ele>61.0</ele><time>2026-04-12T10:44:46Z</time></trkpt><trkpt lat="46.0090822691531" lon="12.742902307775887"><ele>61.0</ele><time>2026-04-12T10:44:47Z</time></trkpt><trkpt lat="46.008960288268796" lon="12.742907739189397"><ele>61.0</ele><time>2026-04-12T10:44:48Z</time></trkpt><trkpt lat="46.00883950315426" lon="12.742926541317424"><ele>61.0</ele><time>2026-04-12T10:44:49Z</time></trkpt><trkpt lat="46.008731616908065" lon="12.742956160891456"><ele>61.0</ele><time>2026-04-12T10:44:50Z</time></trkpt><trkpt lat="46.00861874659246" lon="12.742978729394942"><ele>61.0</ele><time>2026-04-12T10:44:51Z</time></trkpt><trkpt lat="46.00848685591354" lon="12.743000405528415"><ele>61.0</ele><time>2026-04-12T10:44:52Z</time></trkpt><trkpt lat="46.008339827767216" lon="12.743021197050412"><ele>60.33333333333333</ele><time>2026-04-12T10:44:53Z</time></trkpt><trkpt lat="46.00819542493026" lon="12.743037605995193"><ele>59.66666666666667</ele><time>2026-04-12T10:44:54Z</time></trkpt><trkpt lat="46.00804414714109" lon="12.743063074685907"><ele>59.0</ele><time>2026-04-12T10:44:55Z</time></trkpt><trkpt lat="46.00787137922954" lon="12.743087122362983"><ele>59.0</ele><time>2026-04-12T10:44:56Z</time></trkpt><trkpt lat="46.00768167335902" lon="12.743118355118122"><ele>59.0</ele><time>2026-04-12T10:44:57Z</time></trkpt><trkpt lat="46.00747749613595" lon="12.74314556887594"><ele>59.0</ele><time>2026-04-12T10:44:58Z</time></trkpt><trkpt lat="46.0072942993925" lon="12.74317163078538"><ele>59.0</ele><time>2026-04-12T10:44:59Z</time></trkpt><trkpt lat="46.00713354951279" lon="12.743204368766554"><ele>59.0</ele><time>2026-04-12T10:45:00Z</time></trkpt><trkpt lat="46.00698369101999" lon="12.743234308990544"><ele>59.0</ele><time>2026-04-12T10:45:01Z</time></trkpt><trkpt lat="46.00684071909991" lon="12.743257035544493"><ele>59.0</ele><time>2026-04-12T10:45:02Z</time></trkpt><trkpt lat="46.006715369891644" lon="12.743273782609144"><ele>59.00000000000001</ele><time>2026-04-12T10:45:03Z</time></trkpt><trkpt lat="46.00660760425129" lon="12.74328660683791"><ele>59.00000000000001</ele><time>2026-04-12T10:45:04Z</time></trkpt><trkpt lat="46.00650450192229" lon="12.74330251223308"><ele>59.0</ele><time>2026-04-12T10:45:05Z</time></trkpt><trkpt lat="46.00640811884032" lon="12.74331860874899"><ele>59.0</ele><time>2026-04-12T10:45:06Z</time></trkpt><trkpt lat="46.00632101064972" lon="12.743336912081414"><ele>58.333333333333336</ele><time>2026-04-12T10:45:07Z</time></trkpt><trkpt lat="46.00624397274004" lon="12.743349202872125"><ele>57.66666666666667</ele><time>2026-04-12T10:45:08Z</time></trkpt><trkpt lat="46.00616222179809" lon="12.743360480789619"><ele>57.0</ele><time>2026-04-12T10:45:09Z</time></trkpt><trkpt lat="46.0060802373196" lon="12.743370692916887"><ele>56.33333333333333</ele><time>2026-04-12T10:45:10Z</time></trkpt><trkpt lat="46.005979731271786" lon="12.743383019827544"><ele>55.666666666666664</ele><time>2026-04-12T10:45:11Z</time></trkpt><trkpt lat="46.005876588687" lon="12.743397621959968"><ele>55.0</ele><time>2026-04-12T10:45:12Z</time></trkpt><trkpt lat="46.00578729107058" lon="12.743414858792217"><ele>55.0</ele><time>2026-04-12T10:45:13Z</time></trkpt><trkpt lat="46.0056953975029" lon="12.74343691290567"><ele>55.0</ele><time>2026-04-12T10:45:14Z</time></trkpt><trkpt lat="46.0055976071463" lon="12.743457391551713"><ele>55.0</ele><time>2026-04-12T10:45:15Z</time></trkpt><trkpt lat="46.00549110210032" lon="12.743476452907393"><ele>55.0</ele><time>2026-04-12T10:45:16Z</time></trkpt><trkpt lat="46.0053953835146" lon="12.743490949145242"><ele>55.0</ele><time>2026-04-12T10:45:17Z</time></trkpt><trkpt lat="46.005295213063796" lon="12.743506508492738"><ele>55.0</ele><time>2026-04-12T10:45:18Z</time></trkpt><trkpt lat="46.005215507718276" lon="12.743525741466085"><ele>55.0</ele><time>2026-04-12T10:45:19Z</time></trkpt><trkpt lat="46.00513324730362" lon="12.743536289064044"><ele>55.0</ele><time>2026-04-12T10:45:20Z</time></trkpt><trkpt lat="46.00503597698745" lon="12.743551034781467"><ele>55.0</ele><time>2026-04-12T10:45:21Z</time></trkpt><trkpt lat="46.00493195968153" lon="12.743568233047709"><ele>55.0</ele><time>2026-04-12T10:45:22Z</time></trkpt><trkpt lat="46.00484069741889" lon="12.743575009040295"><ele>54.6</ele><time>2026-04-12T10:45:23Z</time></trkpt><trkpt lat="46.0047470253336" lon="12.743597146408403"><ele>54.2</ele><time>2026-04-12T10:45:24Z</time></trkpt><trkpt lat="46.00464316458274" lon="12.743620580435952"><ele>53.8</ele><time>2026-04-12T10:45:25Z</time></trkpt><trkpt lat="46.004529371146965" lon="12.74363403058686"><ele>53.4</ele><time>2026-04-12T10:45:26Z</time></trkpt><trkpt lat="46.004406932234275" lon="12.743651147691601"><ele>53.0</ele><time>2026-04-12T10:45:27Z</time></trkpt><trkpt lat="46.00428516663618" lon="12.743668921832748"><ele>53.0</ele><time>2026-04-12T10:45:28Z</time></trkpt><trkpt lat="46.00418025790089" lon="12.743690273554714"><ele>53.0</ele><time>2026-04-12T10:45:29Z</time></trkpt><trkpt lat="46.00406487252329" lon="12.743716253297245"><ele>53.0</ele><time>2026-04-12T10:45:30Z</time></trkpt><trkpt lat="46.003955698891716" lon="12.743733965039125"><ele>53.0</ele><time>2026-04-12T10:45:31Z</time></trkpt><trkpt lat="46.00385528539897" lon="12.743744197099858"><ele>53.0</ele><time>2026-04-12T10:45:32Z</time></trkpt><trkpt lat="46.00374835770898" lon="12.74376208162448"><ele>52.8</ele><time>2026-04-12T10:45:33Z</time></trkpt><trkpt lat="46.00363332032837" lon="12.743782854268682"><ele>52.599999999999994</ele><time>2026-04-12T10:45:34Z</time></trkpt><trkpt lat="46.00352289655936" lon="12.743799764757561"><ele>52.400000000000006</ele><time>2026-04-12T10:45:35Z</time></trkpt><trkpt lat="46.00342262367449" lon="12.743811442055492"><ele>52.2</ele><time>2026-04-12T10:45:36Z</time></trkpt><trkpt lat="46.003330549243984" lon="12.743827920805236"><ele>52.0</ele><time>2026-04-12T10:45:37Z</time></trkpt><trkpt lat="46.00323988451689" lon="12.743841730452028"><ele>51.49999999999999</ele><time>2026-04-12T10:45:38Z</time></trkpt><trkpt lat="46.00316223177895" lon="12.743851843330763"><ele>51.0</ele><time>2026-04-12T10:45:39Z</time></trkpt><trkpt lat="46.00308940245957" lon="12.743860844295833"><ele>50.5</ele><time>2026-04-12T10:45:40Z</time></trkpt><trkpt lat="46.00298566178136" lon="12.743877759687663"><ele>50.0</ele><time>2026-04-12T10:45:42Z</time></trkpt><trkpt lat="46.00292145747291" lon="12.743876569594558"><ele>49.49999999999999</ele><time>2026-04-12T10:45:45Z</time></trkpt><trkpt lat="46.00286792967498" lon="12.74380820505644"><ele>49.0</ele><time>2026-04-12T10:45:48Z</time></trkpt><trkpt lat="46.00284600744398" lon="12.743719935416625"><ele>49.0</ele><time>2026-04-12T10:45:49Z</time></trkpt><trkpt lat="46.00283902312013" lon="12.743619753816008"><ele>49.0</ele><time>2026-04-12T10:45:50Z</time></trkpt><trkpt lat="46.00282188264591" lon="12.743488217908459"><ele>49.0</ele><time>2026-04-12T10:45:51Z</time></trkpt><trkpt lat="46.00279058807242" lon="12.743326996114858"><ele>49.0</ele><time>2026-04-12T10:45:52Z</time></trkpt><trkpt lat="46.00275607012853" lon="12.743134759596039"><ele>49.0</ele><time>2026-04-12T10:45:53Z</time></trkpt><trkpt lat="46.002718004244095" lon="12.742935878837867"><ele>49.5</ele><time>2026-04-12T10:45:54Z</time></trkpt><trkpt lat="46.002685560012026" lon="12.742734024691073"><ele>50.0</ele><time>2026-04-12T10:45:55Z</time></trkpt><trkpt lat="46.002651763628954" lon="12.742539579098162"><ele>50.5</ele><time>2026-04-12T10:45:56Z</time></trkpt><trkpt lat="46.00263188006457" lon="12.74233108263287"><ele>51.0</ele><time>2026-04-12T10:45:57Z</time></trkpt><trkpt lat="46.0025973092623" lon="12.742128507704676"><ele>51.25</ele><time>2026-04-12T10:45:58Z</time></trkpt><trkpt lat="46.00256365746827" lon="12.741932287976079"><ele>51.5</ele><time>2026-04-12T10:45:59Z</time></trkpt><trkpt lat="46.002532164905595" lon="12.741748658390472"><ele>51.75</ele><time>2026-04-12T10:46:00Z</time></trkpt><trkpt lat="46.002502299127705" lon="12.741574514231267"><ele>52.0</ele><time>2026-04-12T10:46:01Z</time></trkpt><trkpt lat="46.00247283516674" lon="12.741406615679452"><ele>51.6</ele><time>2026-04-12T10:46:02Z</time></trkpt><trkpt lat="46.00244137650096" lon="12.741233171371904"><ele>51.2</ele><time>2026-04-12T10:46:03Z</time></trkpt><trkpt lat="46.002400837046125" lon="12.741080393875823"><ele>50.8</ele><time>2026-04-12T10:46:04Z</time></trkpt><trkpt lat="46.00238493567382" lon="12.74093071309283"><ele>50.4</ele><time>2026-04-12T10:46:05Z</time></trkpt><trkpt lat="46.002371471974776" lon="12.740793349801791"><ele>50.0</ele><time>2026-04-12T10:46:06Z</time></trkpt><trkpt lat="46.00233905638091" lon="12.740674393815908"><ele>50.0</ele><time>2026-04-12T10:46:07Z</time></trkpt><trkpt lat="46.00231316549304" lon="12.740562167028534"><ele>50.0</ele><time>2026-04-12T10:46:08Z</time></trkpt><trkpt lat="46.00229018632057" lon="12.740471179046764"><ele>50.0</ele><time>2026-04-12T10:46:09Z</time></trkpt><trkpt lat="46.0022541203294" lon="12.740340381718436"><ele>50.0</ele><time>2026-04-12T10:46:11Z</time></trkpt><trkpt lat="46.002227859923245" lon="12.740247694900143"><ele>50.0</ele><time>2026-04-12T10:46:13Z</time></trkpt><trkpt lat="46.002306632808065" lon="12.740018826832452"><ele>50.2</ele><time>2026-04-12T10:46:15Z</time></trkpt><trkpt lat="46.00233720111012" lon="12.739905833033989"><ele>50.4</ele><time>2026-04-12T10:46:16Z</time></trkpt><trkpt lat="46.00236653593874" lon="12.73977703506299"><ele>50.599999999999994</ele><time>2026-04-12T10:46:17Z</time></trkpt><trkpt lat="46.002392306759624" lon="12.739630440976669"><ele>50.8</ele><time>2026-04-12T10:46:18Z</time></trkpt><trkpt lat="46.002437134559855" lon="12.739490773060066"><ele>51.0</ele><time>2026-04-12T10:46:19Z</time></trkpt><trkpt lat="46.0024684282779" lon="12.739327206369644"><ele>51.0</ele><time>2026-04-12T10:46:20Z</time></trkpt><trkpt lat="46.002500993062" lon="12.739147795694015"><ele>51.0</ele><time>2026-04-12T10:46:21Z</time></trkpt><trkpt lat="46.002532318131536" lon="12.738955384604953"><ele>51.0</ele><time>2026-04-12T10:46:22Z</time></trkpt><trkpt lat="46.00255861371353" lon="12.73876958689245"><ele>51.0</ele><time>2026-04-12T10:46:23Z</time></trkpt><trkpt lat="46.002583149555456" lon="12.738582237567673"><ele>51.0</ele><time>2026-04-12T10:46:24Z</time></trkpt><trkpt lat="46.002603619779535" lon="12.738406634782539"><ele>51.0</ele><time>2026-04-12T10:46:25Z</time></trkpt><trkpt lat="46.0026046626896" lon="12.738245861212407"><ele>51.0</ele><time>2026-04-12T10:46:26Z</time></trkpt><trkpt lat="46.00262289069642" lon="12.738100082901317"><ele>51.0</ele><time>2026-04-12T10:46:27Z</time></trkpt><trkpt lat="46.00263796534436" lon="12.737963218013418"><ele>51.0</ele><time>2026-04-12T10:46:28Z</time></trkpt><trkpt lat="46.00265041903254" lon="12.7378437154131"><ele>51.0</ele><time>2026-04-12T10:46:29Z</time></trkpt><trkpt lat="46.00265967653032" lon="12.737738249755859"><ele>51.0</ele><time>2026-04-12T10:46:30Z</time></trkpt><trkpt lat="46.00266395973058" lon="12.737639394193849"><ele>51.0</ele><time>2026-04-12T10:46:31Z</time></trkpt><trkpt lat="46.00267734951599" lon="12.737478492109094"><ele>51.0</ele><time>2026-04-12T10:46:33Z</time></trkpt><trkpt lat="46.002680561136586" lon="12.737373467793725"><ele>51.0</ele><time>2026-04-12T10:46:35Z</time></trkpt><trkpt lat="46.00269960204103" lon="12.737278870325934"><ele>51.0</ele><time>2026-04-12T10:46:39Z</time></trkpt><trkpt lat="46.00266474768376" lon="12.737130413402417"><ele>51.0</ele><time>2026-04-12T10:48:45Z</time></trkpt><trkpt lat="46.00267976155367" lon="12.736918281167569"><ele>51.0</ele><time>2026-04-12T10:48:47Z</time></trkpt><trkpt lat="46.00270626349184" lon="12.736785913193449"><ele>51.0</ele><time>2026-04-12T10:48:48Z</time></trkpt><trkpt lat="46.002707217547844" lon="12.736629209418398"><ele>51.0</ele><time>2026-04-12T10:48:49Z</time></trkpt><trkpt lat="46.0027057581018" lon="12.73645673264828"><ele>51.0</ele><time>2026-04-12T10:48:50Z</time></trkpt><trkpt lat="46.00270310384328" lon="12.736279938430497"><ele>51.0</ele><time>2026-04-12T10:48:51Z</time></trkpt><trkpt lat="46.002697103189035" lon="12.736092037310309"><ele>51.0</ele><time>2026-04-12T10:48:52Z</time></trkpt><trkpt lat="46.002686184949" lon="12.7358934539258"><ele>51.0</ele><time>2026-04-12T10:48:53Z</time></trkpt><trkpt lat="46.002673206823026" lon="12.735682515844424"><ele>51.0</ele><time>2026-04-12T10:48:54Z</time></trkpt><trkpt lat="46.00265988256708" lon="12.735498449430889"><ele>51.0</ele><time>2026-04-12T10:48:55Z</time></trkpt><trkpt lat="46.00263051117155" lon="12.73532644584018"><ele>51.0</ele><time>2026-04-12T10:48:56Z</time></trkpt><trkpt lat="46.00261602548825" lon="12.735172874002085"><ele>51.0</ele><time>2026-04-12T10:48:57Z</time></trkpt><trkpt lat="46.002600967857454" lon="12.735030793423366"><ele>50.8</ele><time>2026-04-12T10:48:58Z</time></trkpt><trkpt lat="46.00258515674163" lon="12.734899971984794"><ele>50.599999999999994</ele><time>2026-04-12T10:48:59Z</time></trkpt><trkpt lat="46.00256670771041" lon="12.734771339160112"><ele>50.4</ele><time>2026-04-12T10:49:00Z</time></trkpt><trkpt lat="46.002546810722" lon="12.734623389782602"><ele>50.2</ele><time>2026-04-12T10:49:01Z</time></trkpt><trkpt lat="46.00252333332562" lon="12.734448269243789"><ele>50.0</ele><time>2026-04-12T10:49:02Z</time></trkpt><trkpt lat="46.0024950765465" lon="12.734256000491762"><ele>49.75</ele><time>2026-04-12T10:49:03Z</time></trkpt><trkpt lat="46.0024695849001" lon="12.734054361266278"><ele>49.5</ele><time>2026-04-12T10:49:04Z</time></trkpt><trkpt lat="46.002454909156086" lon="12.733856920735114"><ele>49.25</ele><time>2026-04-12T10:49:05Z</time></trkpt><trkpt lat="46.002429137347605" lon="12.733674614448953"><ele>49.0</ele><time>2026-04-12T10:49:06Z</time></trkpt><trkpt lat="46.00240414575856" lon="12.733497827261177"><ele>49.0</ele><time>2026-04-12T10:49:07Z</time></trkpt><trkpt lat="46.00237829135206" lon="12.733314936857978"><ele>49.0</ele><time>2026-04-12T10:49:08Z</time></trkpt><trkpt lat="46.00235245690337" lon="12.733131974029918"><ele>49.0</ele><time>2026-04-12T10:49:09Z</time></trkpt><trkpt lat="46.00231020569344" lon="12.732937692534955"><ele>49.0</ele><time>2026-04-12T10:49:10Z</time></trkpt><trkpt lat="46.00228514170609" lon="12.73274144386931"><ele>48.75</ele><time>2026-04-12T10:49:11Z</time></trkpt><trkpt lat="46.00225726564058" lon="12.732545636307366"><ele>48.5</ele><time>2026-04-12T10:49:12Z</time></trkpt><trkpt lat="46.00222919040157" lon="12.732343652865309"><ele>48.25</ele><time>2026-04-12T10:49:13Z</time></trkpt><trkpt lat="46.002201550293485" lon="12.732147424420141"><ele>48.0</ele><time>2026-04-12T10:49:14Z</time></trkpt><trkpt lat="46.002169797636014" lon="12.731945168412222"><ele>48.0</ele><time>2026-04-12T10:49:15Z</time></trkpt><trkpt lat="46.002154555297594" lon="12.731720883607673"><ele>48.0</ele><time>2026-04-12T10:49:16Z</time></trkpt><trkpt lat="46.00210731636051" lon="12.731502277334597"><ele>48.0</ele><time>2026-04-12T10:49:17Z</time></trkpt><trkpt lat="46.00208196306441" lon="12.73129863121529"><ele>48.0</ele><time>2026-04-12T10:49:18Z</time></trkpt><trkpt lat="46.00205778704328" lon="12.73111202757492"><ele>48.0</ele><time>2026-04-12T10:49:19Z</time></trkpt><trkpt lat="46.00203218489351" lon="12.73095291696413"><ele>48.0</ele><time>2026-04-12T10:49:20Z</time></trkpt><trkpt lat="46.002010462890155" lon="12.730809073385071"><ele>48.0</ele><time>2026-04-12T10:49:21Z</time></trkpt><trkpt lat="46.00199491293532" lon="12.730684210580893"><ele>48.0</ele><time>2026-04-12T10:49:22Z</time></trkpt><trkpt lat="46.00198807610825" lon="12.730585503316052"><ele>48.333333333333336</ele><time>2026-04-12T10:49:23Z</time></trkpt><trkpt lat="46.00199308067337" lon="12.730471838836637"><ele>48.66666666666667</ele><time>2026-04-12T10:49:25Z</time></trkpt><trkpt lat="46.0019735258417" lon="12.730374361931036"><ele>49.0</ele><time>2026-04-12T10:49:27Z</time></trkpt><trkpt lat="46.00194816957223" lon="12.730288134396288"><ele>49.333333333333336</ele><time>2026-04-12T10:49:30Z</time></trkpt><trkpt lat="46.00192726282921" lon="12.730134995753136"><ele>49.66666666666667</ele><time>2026-04-12T10:49:32Z</time></trkpt><trkpt lat="46.00189616779884" lon="12.730024246513924"><ele>50.0</ele><time>2026-04-12T10:49:33Z</time></trkpt><trkpt lat="46.001883272735405" lon="12.729905785287636"><ele>50.4</ele><time>2026-04-12T10:49:34Z</time></trkpt><trkpt lat="46.001863105440556" lon="12.729768511723954"><ele>50.8</ele><time>2026-04-12T10:49:35Z</time></trkpt><trkpt lat="46.001840492691976" lon="12.729628384922414"><ele>51.2</ele><time>2026-04-12T10:49:36Z</time></trkpt><trkpt lat="46.00181929625743" lon="12.729494963476384"><ele>51.6</ele><time>2026-04-12T10:49:37Z</time></trkpt><trkpt lat="46.00181629566773" lon="12.729359329680946"><ele>52.0</ele><time>2026-04-12T10:49:38Z</time></trkpt><trkpt lat="46.00179637912555" lon="12.729214468279876"><ele>52.0</ele><time>2026-04-12T10:49:39Z</time></trkpt><trkpt lat="46.00177142552284" lon="12.729032970259262"><ele>52.0</ele><time>2026-04-12T10:49:40Z</time></trkpt><trkpt lat="46.00174313808812" lon="12.728827223961137"><ele>52.0</ele><time>2026-04-12T10:49:41Z</time></trkpt><trkpt lat="46.00171448753063" lon="12.728618836595833"><ele>52.0</ele><time>2026-04-12T10:49:42Z</time></trkpt><trkpt lat="46.001684835854206" lon="12.728403167492598"><ele>51.25</ele><time>2026-04-12T10:49:43Z</time></trkpt><trkpt lat="46.0016559501596" lon="12.728193069558595"><ele>50.5</ele><time>2026-04-12T10:49:44Z</time></trkpt><trkpt lat="46.00162782392122" lon="12.72798849596224"><ele>49.75</ele><time>2026-04-12T10:49:45Z</time></trkpt><trkpt lat="46.00160254914639" lon="12.727801374460679"><ele>49.0</ele><time>2026-04-12T10:49:46Z</time></trkpt><trkpt lat="46.001577959412245" lon="12.727618990995285"><ele>49.0</ele><time>2026-04-12T10:49:47Z</time></trkpt><trkpt lat="46.001551111292294" lon="12.727424826800524"><ele>49.0</ele><time>2026-04-12T10:49:48Z</time></trkpt><trkpt lat="46.001521331239665" lon="12.727230105353435"><ele>49.0</ele><time>2026-04-12T10:49:49Z</time></trkpt><trkpt lat="46.00147278122331" lon="12.727038755615201"><ele>49.0</ele><time>2026-04-12T10:49:50Z</time></trkpt><trkpt lat="46.00144066199813" lon="12.726854458770726"><ele>49.25</ele><time>2026-04-12T10:49:51Z</time></trkpt><trkpt lat="46.00141210674654" lon="12.726659890131483"><ele>49.5</ele><time>2026-04-12T10:49:52Z</time></trkpt><trkpt lat="46.001371588734436" lon="12.72648384338185"><ele>49.75</ele><time>2026-04-12T10:49:53Z</time></trkpt><trkpt lat="46.00132547154197" lon="12.726287703379747"><ele>50.0</ele><time>2026-04-12T10:49:54Z</time></trkpt><trkpt lat="46.0012787100287" lon="12.726098917842672"><ele>49.5</ele><time>2026-04-12T10:49:55Z</time></trkpt><trkpt lat="46.00123050697755" lon="12.725904312624147"><ele>49.0</ele><time>2026-04-12T10:49:56Z</time></trkpt><trkpt lat="46.00118637529341" lon="12.725725772181903"><ele>48.5</ele><time>2026-04-12T10:49:57Z</time></trkpt><trkpt lat="46.00114300535252" lon="12.725550146481737"><ele>48.0</ele><time>2026-04-12T10:49:58Z</time></trkpt><trkpt lat="46.00110315092292" lon="12.725388757103024"><ele>48.0</ele><time>2026-04-12T10:49:59Z</time></trkpt><trkpt lat="46.00105877300668" lon="12.725209049808804"><ele>48.0</ele><time>2026-04-12T10:50:00Z</time></trkpt><trkpt lat="46.00100937374387" lon="12.7250090085581"><ele>48.0</ele><time>2026-04-12T10:50:01Z</time></trkpt><trkpt lat="46.000960967021676" lon="12.724812988974016"><ele>48.0</ele><time>2026-04-12T10:50:02Z</time></trkpt><trkpt lat="46.00091416490772" lon="12.724625303284876"><ele>48.0</ele><time>2026-04-12T10:50:03Z</time></trkpt><trkpt lat="46.00086570876733" lon="12.72443047446913"><ele>48.0</ele><time>2026-04-12T10:50:04Z</time></trkpt><trkpt lat="46.000816175302255" lon="12.724232907805824"><ele>48.0</ele><time>2026-04-12T10:50:05Z</time></trkpt><trkpt lat="46.00076795518308" lon="12.724041886299712"><ele>48.0</ele><time>2026-04-12T10:50:06Z</time></trkpt><trkpt lat="46.000721029825485" lon="12.723855994137905"><ele>47.75</ele><time>2026-04-12T10:50:07Z</time></trkpt><trkpt lat="46.00065961124495" lon="12.72367627479361"><ele>47.5</ele><time>2026-04-12T10:50:08Z</time></trkpt><trkpt lat="46.00061014739598" lon="12.723473240816752"><ele>47.25</ele><time>2026-04-12T10:50:09Z</time></trkpt><trkpt lat="46.00055571884008" lon="12.723281200241951"><ele>47.0</ele><time>2026-04-12T10:50:10Z</time></trkpt><trkpt lat="46.00051693630481" lon="12.723075513064167"><ele>47.0</ele><time>2026-04-12T10:50:11Z</time></trkpt><trkpt lat="46.00046305421648" lon="12.722885505839223"><ele>47.0</ele><time>2026-04-12T10:50:12Z</time></trkpt><trkpt lat="46.000403893111596" lon="12.722693445709977"><ele>47.0</ele><time>2026-04-12T10:50:13Z</time></trkpt><trkpt lat="46.00034288500052" lon="12.722504381511243"><ele>47.0</ele><time>2026-04-12T10:50:14Z</time></trkpt><trkpt lat="46.00028361175613" lon="12.722323442067596"><ele>47.5</ele><time>2026-04-12T10:50:15Z</time></trkpt><trkpt lat="46.000207485087095" lon="12.722141705259185"><ele>48.0</ele><time>2026-04-12T10:50:16Z</time></trkpt><trkpt lat="46.00014562026455" lon="12.721954689306031"><ele>48.5</ele><time>2026-04-12T10:50:17Z</time></trkpt><trkpt lat="46.000101761897156" lon="12.721758382053435"><ele>49.0</ele><time>2026-04-12T10:50:18Z</time></trkpt><trkpt lat="46.00004007841387" lon="12.721560810187263"><ele>49.5</ele><time>2026-04-12T10:50:19Z</time></trkpt><trkpt lat="45.99997702557236" lon="12.721368805329654"><ele>50.0</ele><time>2026-04-12T10:50:20Z</time></trkpt><trkpt lat="45.99991735711275" lon="12.721183142548853"><ele>50.5</ele><time>2026-04-12T10:50:21Z</time></trkpt><trkpt lat="45.99985705670396" lon="12.720991526005438"><ele>51.0</ele><time>2026-04-12T10:50:22Z</time></trkpt><trkpt lat="45.99979727056986" lon="12.72080154416972"><ele>51.0</ele><time>2026-04-12T10:50:23Z</time></trkpt><trkpt lat="45.999738672030965" lon="12.720615335686594"><ele>51.0</ele><time>2026-04-12T10:50:24Z</time></trkpt><trkpt lat="45.99968349764815" lon="12.72043459529343"><ele>51.0</ele><time>2026-04-12T10:50:25Z</time></trkpt><trkpt lat="45.99963074593961" lon="12.720261600185443"><ele>51.0</ele><time>2026-04-12T10:50:26Z</time></trkpt><trkpt lat="45.99957310349471" lon="12.720072566112908"><ele>51.0</ele><time>2026-04-12T10:50:27Z</time></trkpt><trkpt lat="45.99950027477503" lon="12.719890661476128"><ele>51.0</ele><time>2026-04-12T10:50:28Z</time></trkpt><trkpt lat="45.999455686366325" lon="12.719687505712322"><ele>51.0</ele><time>2026-04-12T10:50:29Z</time></trkpt><trkpt lat="45.99939633502222" lon="12.719492867400556"><ele>51.0</ele><time>2026-04-12T10:50:30Z</time></trkpt><trkpt lat="45.99933663480771" lon="12.71929680665765"><ele>51.0</ele><time>2026-04-12T10:50:31Z</time></trkpt><trkpt lat="45.99927876141368" lon="12.719103813903502"><ele>51.0</ele><time>2026-04-12T10:50:32Z</time></trkpt><trkpt lat="45.999219779518434" lon="12.71890751330984"><ele>51.0</ele><time>2026-04-12T10:50:33Z</time></trkpt><trkpt lat="45.99916052483579" lon="12.718710744476395"><ele>51.0</ele><time>2026-04-12T10:50:34Z</time></trkpt><trkpt lat="45.99910041154664" lon="12.718511125264333"><ele>51.0</ele><time>2026-04-12T10:50:35Z</time></trkpt><trkpt lat="45.99903913419344" lon="12.718316509953347"><ele>51.0</ele><time>2026-04-12T10:50:36Z</time></trkpt><trkpt lat="45.998980897491926" lon="12.718137166122219"><ele>51.0</ele><time>2026-04-12T10:50:37Z</time></trkpt><trkpt lat="45.998920162419076" lon="12.717958806827388"><ele>51.0</ele><time>2026-04-12T10:50:38Z</time></trkpt><trkpt lat="45.998853085231175" lon="12.717808050569811"><ele>51.25</ele><time>2026-04-12T10:50:39Z</time></trkpt><trkpt lat="45.99881325442788" lon="12.717624697835287"><ele>51.5</ele><time>2026-04-12T10:50:40Z</time></trkpt><trkpt lat="45.99879135213218" lon="12.717420192065898"><ele>51.75</ele><time>2026-04-12T10:50:41Z</time></trkpt><trkpt lat="45.99878590536302" lon="12.71721150662514"><ele>52.0</ele><time>2026-04-12T10:50:42Z</time></trkpt><trkpt lat="45.998791835585855" lon="12.71698908684183"><ele>51.666666666666664</ele><time>2026-04-12T10:50:43Z</time></trkpt><trkpt lat="45.998785862113074" lon="12.716767641926879"><ele>51.33333333333333</ele><time>2026-04-12T10:50:44Z</time></trkpt><trkpt lat="45.99876590894446" lon="12.716546311458275"><ele>51.0</ele><time>2026-04-12T10:50:45Z</time></trkpt><trkpt lat="45.99872808741279" lon="12.716321443315806"><ele>51.0</ele><time>2026-04-12T10:50:46Z</time></trkpt><trkpt lat="45.99869624629083" lon="12.716113040122988"><ele>51.0</ele><time>2026-04-12T10:50:47Z</time></trkpt><trkpt lat="45.998663212716814" lon="12.715915801761232"><ele>51.0</ele><time>2026-04-12T10:50:48Z</time></trkpt><trkpt lat="45.99862212622025" lon="12.715722091300103"><ele>51.0</ele><time>2026-04-12T10:50:49Z</time></trkpt><trkpt lat="45.998549817514984" lon="12.715547860537319"><ele>51.33333333333333</ele><time>2026-04-12T10:50:50Z</time></trkpt><trkpt lat="45.99845511849788" lon="12.715365204383813"><ele>51.666666666666664</ele><time>2026-04-12T10:50:51Z</time></trkpt><trkpt lat="45.99835203793804" lon="12.715194580682518"><ele>52.0</ele><time>2026-04-12T10:50:52Z</time></trkpt><trkpt lat="45.99826366698004" lon="12.71499386761328"><ele>51.33333333333333</ele><time>2026-04-12T10:50:53Z</time></trkpt><trkpt lat="45.99816283987936" lon="12.714802697176244"><ele>50.66666666666667</ele><time>2026-04-12T10:50:54Z</time></trkpt><trkpt lat="45.99806086664449" lon="12.714609354714552"><ele>50.0</ele><time>2026-04-12T10:50:55Z</time></trkpt><trkpt lat="45.997962853295746" lon="12.714423005980342"><ele>49.333333333333336</ele><time>2026-04-12T10:50:56Z</time></trkpt><trkpt lat="45.99786990263103" lon="12.714245141770729"><ele>48.66666666666667</ele><time>2026-04-12T10:50:57Z</time></trkpt><trkpt lat="45.99777713321119" lon="12.714071611471967"><ele>48.0</ele><time>2026-04-12T10:50:58Z</time></trkpt><trkpt lat="45.99767850084021" lon="12.713887994037902"><ele>48.0</ele><time>2026-04-12T10:50:59Z</time></trkpt><trkpt lat="45.99757593640895" lon="12.71370510524436"><ele>48.0</ele><time>2026-04-12T10:51:00Z</time></trkpt><trkpt lat="45.99746608471573" lon="12.713523914114662"><ele>48.0</ele><time>2026-04-12T10:51:01Z</time></trkpt><trkpt lat="45.99734914508406" lon="12.71335519635708"><ele>48.66666666666667</ele><time>2026-04-12T10:51:02Z</time></trkpt><trkpt lat="45.99722759891701" lon="12.71320830852961"><ele>49.333333333333336</ele><time>2026-04-12T10:51:03Z</time></trkpt><trkpt lat="45.997106347777574" lon="12.713067965370412"><ele>50.0</ele><time>2026-04-12T10:51:04Z</time></trkpt><trkpt lat="45.99697044773793" lon="12.712931817787073"><ele>50.0</ele><time>2026-04-12T10:51:05Z</time></trkpt><trkpt lat="45.99684333516446" lon="12.712803218530109"><ele>50.0</ele><time>2026-04-12T10:51:06Z</time></trkpt><trkpt lat="45.9967210910243" lon="12.712684031669188"><ele>50.0</ele><time>2026-04-12T10:51:07Z</time></trkpt><trkpt lat="45.99659637773809" lon="12.712568080472828"><ele>50.66666666666667</ele><time>2026-04-12T10:51:08Z</time></trkpt><trkpt lat="45.99646659095335" lon="12.712455104761716"><ele>51.33333333333333</ele><time>2026-04-12T10:51:09Z</time></trkpt><trkpt lat="45.99633165906905" lon="12.712359062970773"><ele>52.0</ele><time>2026-04-12T10:51:10Z</time></trkpt><trkpt lat="45.996202789161146" lon="12.712243634356481"><ele>52.0</ele><time>2026-04-12T10:51:11Z</time></trkpt><trkpt lat="45.99607844453482" lon="12.712127982133513"><ele>52.0</ele><time>2026-04-12T10:51:12Z</time></trkpt><trkpt lat="45.99596631275212" lon="12.71199780727635"><ele>52.0</ele><time>2026-04-12T10:51:13Z</time></trkpt><trkpt lat="45.99583730787233" lon="12.71186982412045"><ele>52.0</ele><time>2026-04-12T10:51:14Z</time></trkpt><trkpt lat="45.995694340949846" lon="12.71174864730757"><ele>51.33333333333333</ele><time>2026-04-12T10:51:15Z</time></trkpt><trkpt lat="45.995568443806825" lon="12.711601128847867"><ele>50.66666666666667</ele><time>2026-04-12T10:51:16Z</time></trkpt><trkpt lat="45.99544513146833" lon="12.711472145169044"><ele>50.0</ele><time>2026-04-12T10:51:17Z</time></trkpt><trkpt lat="45.995335260702646" lon="12.711349730172127"><ele>50.0</ele><time>2026-04-12T10:51:18Z</time></trkpt><trkpt lat="45.99523821514089" lon="12.711233972309232"><ele>50.0</ele><time>2026-04-12T10:51:19Z</time></trkpt><trkpt lat="45.99516083706785" lon="12.711123492273204"><ele>50.0</ele><time>2026-04-12T10:51:20Z</time></trkpt><trkpt lat="45.99509343842771" lon="12.711016435743327"><ele>50.0</ele><time>2026-04-12T10:51:21Z</time></trkpt><trkpt lat="45.995044236503226" lon="12.710917273684721"><ele>50.0</ele><time>2026-04-12T10:51:22Z</time></trkpt><trkpt lat="45.99501023434069" lon="12.710819877595311"><ele>49.50000000000001</ele><time>2026-04-12T10:51:23Z</time></trkpt><trkpt lat="45.994979270806326" lon="12.710692976636938"><ele>49.0</ele><time>2026-04-12T10:51:24Z</time></trkpt><trkpt lat="45.99493620201682" lon="12.710548959917762"><ele>48.5</ele><time>2026-04-12T10:51:25Z</time></trkpt><trkpt lat="45.99490828616586" lon="12.710430942928518"><ele>48.0</ele><time>2026-04-12T10:51:26Z</time></trkpt><trkpt lat="45.99490072993576" lon="12.710318566989523"><ele>47.5</ele><time>2026-04-12T10:51:27Z</time></trkpt><trkpt lat="45.99488165887938" lon="12.710223568908617"><ele>47.0</ele><time>2026-04-12T10:51:28Z</time></trkpt><trkpt lat="45.994853703695135" lon="12.710086262982598"><ele>47.0</ele><time>2026-04-12T10:51:30Z</time></trkpt><trkpt lat="45.99481946571731" lon="12.709932268581943"><ele>47.0</ele><time>2026-04-12T10:51:32Z</time></trkpt><trkpt lat="45.99476705223908" lon="12.709772395601055"><ele>47.0</ele><time>2026-04-12T10:51:34Z</time></trkpt><trkpt lat="45.99476198318564" lon="12.709679756042576"><ele>47.0</ele><time>2026-04-12T10:51:35Z</time></trkpt><trkpt lat="45.99473600271621" lon="12.709572331251122"><ele>47.0</ele><time>2026-04-12T10:51:36Z</time></trkpt><trkpt lat="45.99470807941614" lon="12.70946044965203"><ele>47.33333333333333</ele><time>2026-04-12T10:51:37Z</time></trkpt><trkpt lat="45.99467943545764" lon="12.709348126088504"><ele>47.666666666666664</ele><time>2026-04-12T10:51:38Z</time></trkpt><trkpt lat="45.9946368206276" lon="12.70924712470009"><ele>48.0</ele><time>2026-04-12T10:51:39Z</time></trkpt><trkpt lat="45.99461522383468" lon="12.709153207531601"><ele>48.33333333333333</ele><time>2026-04-12T10:51:40Z</time></trkpt><trkpt lat="45.99459237141289" lon="12.709067259588684"><ele>48.666666666666664</ele><time>2026-04-12T10:51:41Z</time></trkpt><trkpt lat="45.99457016793028" lon="12.708971839206315"><ele>49.0</ele><time>2026-04-12T10:51:42Z</time></trkpt><trkpt lat="45.99453771482377" lon="12.70882224034711"><ele>49.0</ele><time>2026-04-12T10:51:44Z</time></trkpt><trkpt lat="45.994526278962304" lon="12.708701976802272"><ele>49.0</ele><time>2026-04-12T10:51:46Z</time></trkpt><trkpt lat="45.99455978014385" lon="12.7085602011707"><ele>49.0</ele><time>2026-04-12T10:51:48Z</time></trkpt><trkpt lat="45.99454787421076" lon="12.70839740009577"><ele>49.0</ele><time>2026-04-12T10:51:50Z</time></trkpt><trkpt lat="45.99449688678722" lon="12.708314142954475"><ele>49.0</ele><time>2026-04-12T10:51:51Z</time></trkpt><trkpt lat="45.99444230600884" lon="12.708222613428623"><ele>48.83333333333333</ele><time>2026-04-12T10:51:52Z</time></trkpt><trkpt lat="45.994412006902046" lon="12.708113654245013"><ele>48.666666666666664</ele><time>2026-04-12T10:51:53Z</time></trkpt><trkpt lat="45.99438931768815" lon="12.708006125770718"><ele>48.5</ele><time>2026-04-12T10:51:54Z</time></trkpt><trkpt lat="45.99436206660942" lon="12.707889119168494"><ele>48.33333333333333</ele><time>2026-04-12T10:51:55Z</time></trkpt><trkpt lat="45.99434187046327" lon="12.707757849118195"><ele>48.166666666666664</ele><time>2026-04-12T10:51:56Z</time></trkpt><trkpt lat="45.99429768706701" lon="12.707649075351405"><ele>48.0</ele><time>2026-04-12T10:51:57Z</time></trkpt><trkpt lat="45.994271229562514" lon="12.707543476389207"><ele>47.99999999999999</ele><time>2026-04-12T10:51:58Z</time></trkpt><trkpt lat="45.994244731138984" lon="12.707449954777573"><ele>48.0</ele><time>2026-04-12T10:51:59Z</time></trkpt><trkpt lat="45.994230616423934" lon="12.707338325959809"><ele>48.0</ele><time>2026-04-12T10:52:00Z</time></trkpt><trkpt lat="45.99420128761242" lon="12.70724019952135"><ele>48.0</ele><time>2026-04-12T10:52:01Z</time></trkpt><trkpt lat="45.99416790252212" lon="12.707134955274658"><ele>48.0</ele><time>2026-04-12T10:52:02Z</time></trkpt><trkpt lat="45.99413693548124" lon="12.707040480753177"><ele>47.99999999999999</ele><time>2026-04-12T10:52:03Z</time></trkpt><trkpt lat="45.99410594512003" lon="12.706945935050953"><ele>48.0</ele><time>2026-04-12T10:52:04Z</time></trkpt><trkpt lat="45.9940711110691" lon="12.706839383680618"><ele>47.666666666666664</ele><time>2026-04-12T10:52:05Z</time></trkpt><trkpt lat="45.994034329216575" lon="12.706726847772797"><ele>47.333333333333336</ele><time>2026-04-12T10:52:06Z</time></trkpt><trkpt lat="45.99399916650619" lon="12.706619265695556"><ele>47.0</ele><time>2026-04-12T10:52:07Z</time></trkpt><trkpt lat="45.993970323800134" lon="12.70653101997529"><ele>46.66666666666667</ele><time>2026-04-12T10:52:08Z</time></trkpt><trkpt lat="45.993938393564726" lon="12.706433327805787"><ele>46.333333333333336</ele><time>2026-04-12T10:52:09Z</time></trkpt><trkpt lat="45.99390397866966" lon="12.706330279444353"><ele>46.0</ele><time>2026-04-12T10:52:10Z</time></trkpt><trkpt lat="45.993875384359356" lon="12.706245845548704"><ele>46.0</ele><time>2026-04-12T10:52:11Z</time></trkpt><trkpt lat="45.99384550970396" lon="12.706157631044634"><ele>46.0</ele><time>2026-04-12T10:52:12Z</time></trkpt><trkpt lat="45.99381162996277" lon="12.706058244384824"><ele>46.0</ele><time>2026-04-12T10:52:13Z</time></trkpt><trkpt lat="45.99377263745734" lon="12.705955337647511"><ele>46.0</ele><time>2026-04-12T10:52:14Z</time></trkpt><trkpt lat="45.99373267601123" lon="12.705857220122608"><ele>46.0</ele><time>2026-04-12T10:52:15Z</time></trkpt><trkpt lat="45.99364681554508" lon="12.705749622116526"><ele>46.0</ele><time>2026-04-12T10:52:16Z</time></trkpt><trkpt lat="45.99353340143471" lon="12.705625523854113"><ele>46.0</ele><time>2026-04-12T10:52:17Z</time></trkpt><trkpt lat="45.99340518032885" lon="12.70548354190659"><ele>46.0</ele><time>2026-04-12T10:52:18Z</time></trkpt><trkpt lat="45.993265317471476" lon="12.705328668774913"><ele>46.0</ele><time>2026-04-12T10:52:19Z</time></trkpt><trkpt lat="45.99311231741957" lon="12.705160055038279"><ele>46.0</ele><time>2026-04-12T10:52:20Z</time></trkpt><trkpt lat="45.992957853006565" lon="12.704990483750155"><ele>46.0</ele><time>2026-04-12T10:52:21Z</time></trkpt><trkpt lat="45.99279270739692" lon="12.704820373310229"><ele>46.0</ele><time>2026-04-12T10:52:22Z</time></trkpt><trkpt lat="45.992637326665616" lon="12.70466021505102"><ele>46.0</ele><time>2026-04-12T10:52:23Z</time></trkpt><trkpt lat="45.99249740997525" lon="12.70451233259012"><ele>46.0</ele><time>2026-04-12T10:52:24Z</time></trkpt><trkpt lat="45.99237357774657" lon="12.704359369111328"><ele>46.0</ele><time>2026-04-12T10:52:25Z</time></trkpt><trkpt lat="45.99225685184566" lon="12.704199311616268"><ele>45.66666666666667</ele><time>2026-04-12T10:52:26Z</time></trkpt><trkpt lat="45.992136298393596" lon="12.704022388009623"><ele>45.333333333333336</ele><time>2026-04-12T10:52:27Z</time></trkpt><trkpt lat="45.992020005180756" lon="12.703835691804276"><ele>45.0</ele><time>2026-04-12T10:52:28Z</time></trkpt><trkpt lat="45.991910278683505" lon="12.703640624990165"><ele>44.666666666666664</ele><time>2026-04-12T10:52:29Z</time></trkpt><trkpt lat="45.99181228482805" lon="12.703455571960188"><ele>44.33333333333333</ele><time>2026-04-12T10:52:30Z</time></trkpt><trkpt lat="45.99172846380912" lon="12.70327081628145"><ele>44.0</ele><time>2026-04-12T10:52:31Z</time></trkpt><trkpt lat="45.99164877899715" lon="12.703061585243558"><ele>44.5</ele><time>2026-04-12T10:52:32Z</time></trkpt><trkpt lat="45.991582731667954" lon="12.702862067454035"><ele>45.0</ele><time>2026-04-12T10:52:33Z</time></trkpt><trkpt lat="45.991501223618286" lon="12.702687075917241"><ele>45.5</ele><time>2026-04-12T10:52:34Z</time></trkpt><trkpt lat="45.99144318643516" lon="12.702513414837407"><ele>46.0</ele><time>2026-04-12T10:52:35Z</time></trkpt><trkpt lat="45.99137774685305" lon="12.70235562762311"><ele>46.0</ele><time>2026-04-12T10:52:36Z</time></trkpt><trkpt lat="45.99131745756973" lon="12.702210258762523"><ele>46.0</ele><time>2026-04-12T10:52:37Z</time></trkpt><trkpt lat="45.99126249205482" lon="12.702077726452712"><ele>46.0</ele><time>2026-04-12T10:52:38Z</time></trkpt><trkpt lat="45.99119908925795" lon="12.701962588872053"><ele>46.0</ele><time>2026-04-12T10:52:39Z</time></trkpt><trkpt lat="45.99116551254067" lon="12.701848536082164"><ele>46.0</ele><time>2026-04-12T10:52:40Z</time></trkpt><trkpt lat="45.99112175272892" lon="12.701763359854699"><ele>46.0</ele><time>2026-04-12T10:52:41Z</time></trkpt><trkpt lat="45.99111862178724" lon="12.701662262612096"><ele>46.0</ele><time>2026-04-12T10:52:42Z</time></trkpt><trkpt lat="45.99100931346016" lon="12.701569458168224"><ele>46.0</ele><time>2026-04-12T10:52:43Z</time></trkpt><trkpt lat="45.99112646019809" lon="12.701423580114914"><ele>46.0</ele><time>2026-04-12T10:52:44Z</time></trkpt><trkpt lat="45.991286772361704" lon="12.701461680740836"><ele>46.0</ele><time>2026-04-12T10:52:45Z</time></trkpt><trkpt lat="45.99138328425114" lon="12.701401869055038"><ele>46.0</ele><time>2026-04-12T10:52:46Z</time></trkpt><trkpt lat="45.99149100823814" lon="12.701325327330622"><ele>46.0</ele><time>2026-04-12T10:52:47Z</time></trkpt><trkpt lat="45.99159960056504" lon="12.701237223899012"><ele>46.0</ele><time>2026-04-12T10:52:48Z</time></trkpt><trkpt lat="45.9917260655003" lon="12.701172698424555"><ele>46.5</ele><time>2026-04-12T10:52:49Z</time></trkpt><trkpt lat="45.99184236563939" lon="12.701090562829558"><ele>47.0</ele><time>2026-04-12T10:52:50Z</time></trkpt><trkpt lat="45.99195625080349" lon="12.701010132878142"><ele>47.5</ele><time>2026-04-12T10:52:51Z</time></trkpt><trkpt lat="45.992072275295975" lon="12.700906908699325"><ele>48.0</ele><time>2026-04-12T10:52:52Z</time></trkpt><trkpt lat="45.992194116901885" lon="12.700831296961356"><ele>48.0</ele><time>2026-04-12T10:52:53Z</time></trkpt><trkpt lat="45.99231967127319" lon="12.700758738341287"><ele>48.0</ele><time>2026-04-12T10:52:54Z</time></trkpt><trkpt lat="45.992452216010854" lon="12.700690808614304"><ele>48.0</ele><time>2026-04-12T10:52:55Z</time></trkpt><trkpt lat="45.99257916462378" lon="12.700621937172093"><ele>48.0</ele><time>2026-04-12T10:52:56Z</time></trkpt><trkpt lat="45.99270879704247" lon="12.700558330210582"><ele>48.0</ele><time>2026-04-12T10:52:57Z</time></trkpt><trkpt lat="45.99282163483928" lon="12.700500142292805"><ele>48.0</ele><time>2026-04-12T10:52:58Z</time></trkpt><trkpt lat="45.99294463607487" lon="12.700442706832723"><ele>48.0</ele><time>2026-04-12T10:52:59Z</time></trkpt><trkpt lat="45.993067213418584" lon="12.700376531258183"><ele>48.0</ele><time>2026-04-12T10:53:00Z</time></trkpt><trkpt lat="45.99318537320438" lon="12.700322619673647"><ele>48.0</ele><time>2026-04-12T10:53:01Z</time></trkpt><trkpt lat="45.99329865496852" lon="12.70025328149077"><ele>48.0</ele><time>2026-04-12T10:53:02Z</time></trkpt><trkpt lat="45.99341829213355" lon="12.70018968636791"><ele>48.0</ele><time>2026-04-12T10:53:03Z</time></trkpt><trkpt lat="45.99354689656587" lon="12.700124717052692"><ele>48.0</ele><time>2026-04-12T10:53:04Z</time></trkpt><trkpt lat="45.99368154150772" lon="12.700056872703733"><ele>48.75</ele><time>2026-04-12T10:53:05Z</time></trkpt><trkpt lat="45.99381689912726" lon="12.69997990310335"><ele>49.5</ele><time>2026-04-12T10:53:06Z</time></trkpt><trkpt lat="45.99394357905042" lon="12.699898184030426"><ele>50.25</ele><time>2026-04-12T10:53:07Z</time></trkpt><trkpt lat="45.99405901867043" lon="12.699822636688346"><ele>51.0</ele><time>2026-04-12T10:53:08Z</time></trkpt><trkpt lat="45.99417690196932" lon="12.699752251746492"><ele>51.25</ele><time>2026-04-12T10:53:09Z</time></trkpt><trkpt lat="45.99429929452209" lon="12.699681555645238"><ele>51.5</ele><time>2026-04-12T10:53:10Z</time></trkpt><trkpt lat="45.99442403577585" lon="12.699607847064328"><ele>51.75</ele><time>2026-04-12T10:53:11Z</time></trkpt><trkpt lat="45.994548703580165" lon="12.699527146958546"><ele>52.0</ele><time>2026-04-12T10:53:12Z</time></trkpt><trkpt lat="45.99467318486001" lon="12.699439085713063"><ele>51.75</ele><time>2026-04-12T10:53:13Z</time></trkpt><trkpt lat="45.99478695641013" lon="12.699353418127211"><ele>51.5</ele><time>2026-04-12T10:53:14Z</time></trkpt><trkpt lat="45.994906552384556" lon="12.699285631726433"><ele>51.25</ele><time>2026-04-12T10:53:15Z</time></trkpt><trkpt lat="45.995023471665164" lon="12.699189202334576"><ele>51.0</ele><time>2026-04-12T10:53:16Z</time></trkpt><trkpt lat="45.99513202863122" lon="12.699064214571605"><ele>51.5</ele><time>2026-04-12T10:53:17Z</time></trkpt><trkpt lat="45.99524708630067" lon="12.698947064436013"><ele>52.0</ele><time>2026-04-12T10:53:18Z</time></trkpt><trkpt lat="45.9953608087333" lon="12.698839095386711"><ele>52.5</ele><time>2026-04-12T10:53:19Z</time></trkpt><trkpt lat="45.995471356200845" lon="12.698747334858105"><ele>53.0</ele><time>2026-04-12T10:53:20Z</time></trkpt><trkpt lat="45.995588408893376" lon="12.698649339727293"><ele>53.0</ele><time>2026-04-12T10:53:21Z</time></trkpt><trkpt lat="45.99570393949967" lon="12.698551909375169"><ele>53.0</ele><time>2026-04-12T10:53:22Z</time></trkpt><trkpt lat="45.99580412623279" lon="12.698461821494426"><ele>53.0</ele><time>2026-04-12T10:53:23Z</time></trkpt><trkpt lat="45.995896137463646" lon="12.698410057350083"><ele>53.0</ele><time>2026-04-12T10:53:24Z</time></trkpt><trkpt lat="45.995970638185256" lon="12.69834801998486"><ele>53.0</ele><time>2026-04-12T10:53:25Z</time></trkpt><trkpt lat="45.996028825267814" lon="12.698299567010995"><ele>53.0</ele><time>2026-04-12T10:53:26Z</time></trkpt><trkpt lat="45.99610194123641" lon="12.69827259497181"><ele>53.0</ele><time>2026-04-12T10:53:28Z</time></trkpt><trkpt lat="45.9961813065981" lon="12.698432873893225"><ele>53.0</ele><time>2026-04-12T10:53:30Z</time></trkpt><trkpt lat="45.99621761833853" lon="12.69855605796114"><ele>53.0</ele><time>2026-04-12T10:53:31Z</time></trkpt><trkpt lat="45.996265863509365" lon="12.69869549018092"><ele>53.0</ele><time>2026-04-12T10:53:32Z</time></trkpt><trkpt lat="45.99633349307028" lon="12.69886806686454"><ele>53.333333333333336</ele><time>2026-04-12T10:53:33Z</time></trkpt><trkpt lat="45.99640335546676" lon="12.699062341793343"><ele>53.66666666666667</ele><time>2026-04-12T10:53:34Z</time></trkpt><trkpt lat="45.99647742727487" lon="12.699278361616013"><ele>54.0</ele><time>2026-04-12T10:53:35Z</time></trkpt><trkpt lat="45.99654407151014" lon="12.699468274323038"><ele>54.0</ele><time>2026-04-12T10:53:36Z</time></trkpt><trkpt lat="45.99660489567309" lon="12.699649704623393"><ele>54.0</ele><time>2026-04-12T10:53:37Z</time></trkpt><trkpt lat="45.99665961516064" lon="12.699842279571758"><ele>54.0</ele><time>2026-04-12T10:53:38Z</time></trkpt><trkpt lat="45.99671407830678" lon="12.700009827345772"><ele>54.0</ele><time>2026-04-12T10:53:39Z</time></trkpt><trkpt lat="45.99676813363908" lon="12.700158285488222"><ele>54.0</ele><time>2026-04-12T10:53:40Z</time></trkpt><trkpt lat="45.99681930489276" lon="12.700296511302495"><ele>54.0</ele><time>2026-04-12T10:53:41Z</time></trkpt><trkpt lat="45.996861368592455" lon="12.70042188269199"><ele>54.0</ele><time>2026-04-12T10:53:42Z</time></trkpt><trkpt lat="45.99689491262755" lon="12.700529185671295"><ele>54.0</ele><time>2026-04-12T10:53:43Z</time></trkpt><trkpt lat="45.996921332452224" lon="12.700616765054582"><ele>54.0</ele><time>2026-04-12T10:53:44Z</time></trkpt><trkpt lat="45.9969598030002" lon="12.70069491978496"><ele>54.0</ele><time>2026-04-12T10:53:49Z</time></trkpt><trkpt lat="45.99707618668833" lon="12.700678204600658"><ele>54.0</ele><time>2026-04-12T10:53:52Z</time></trkpt><trkpt lat="45.997147164865055" lon="12.700636567438362"><ele>54.00000000000001</ele><time>2026-04-12T10:53:53Z</time></trkpt><trkpt lat="45.99723286778678" lon="12.700569681740784"><ele>54.00000000000001</ele><time>2026-04-12T10:53:54Z</time></trkpt><trkpt lat="45.997328487589556" lon="12.700469147419133"><ele>54.0</ele><time>2026-04-12T10:53:55Z</time></trkpt><trkpt lat="45.99745094518942" lon="12.700379376459448"><ele>54.0</ele><time>2026-04-12T10:53:56Z</time></trkpt><trkpt lat="45.99759888485944" lon="12.700304726419963"><ele>53.800000000000004</ele><time>2026-04-12T10:53:57Z</time></trkpt><trkpt lat="45.99771577883065" lon="12.700229011685057"><ele>53.60000000000001</ele><time>2026-04-12T10:53:58Z</time></trkpt><trkpt lat="45.99781813925586" lon="12.70016310311282"><ele>53.4</ele><time>2026-04-12T10:53:59Z</time></trkpt><trkpt lat="45.99791457571503" lon="12.70008100542693"><ele>53.2</ele><time>2026-04-12T10:54:00Z</time></trkpt><trkpt lat="45.99800115972866" lon="12.700026960365658"><ele>53.0</ele><time>2026-04-12T10:54:01Z</time></trkpt><trkpt lat="45.99810190684101" lon="12.69998129398116"><ele>53.0</ele><time>2026-04-12T10:54:02Z</time></trkpt><trkpt lat="45.99819364687066" lon="12.699923265138786"><ele>53.0</ele><time>2026-04-12T10:54:03Z</time></trkpt><trkpt lat="45.9982797727517" lon="12.699868929355839"><ele>53.0</ele><time>2026-04-12T10:54:04Z</time></trkpt><trkpt lat="45.998386057308366" lon="12.699769753722814"><ele>53.0</ele><time>2026-04-12T10:54:05Z</time></trkpt><trkpt lat="45.99850920552474" lon="12.699659672084385"><ele>53.25</ele><time>2026-04-12T10:54:06Z</time></trkpt><trkpt lat="45.998629373001386" lon="12.699588276446713"><ele>53.5</ele><time>2026-04-12T10:54:07Z</time></trkpt><trkpt lat="45.998731578786916" lon="12.69951904353879"><ele>53.75</ele><time>2026-04-12T10:54:08Z</time></trkpt><trkpt lat="45.99881882575591" lon="12.699433341955825"><ele>54.0</ele><time>2026-04-12T10:54:09Z</time></trkpt><trkpt lat="45.99886908762475" lon="12.699249044918687"><ele>54.33333333333333</ele><time>2026-04-12T10:54:10Z</time></trkpt><trkpt lat="45.99896832301347" lon="12.699065728551403"><ele>54.666666666666664</ele><time>2026-04-12T10:54:11Z</time></trkpt><trkpt lat="45.99907096220992" lon="12.698876068797302"><ele>55.0</ele><time>2026-04-12T10:54:12Z</time></trkpt><trkpt lat="45.99917977138672" lon="12.698697580748204"><ele>55.33333333333333</ele><time>2026-04-12T10:54:13Z</time></trkpt><trkpt lat="45.999461692589335" lon="12.69875002324168"><ele>55.66666666666667</ele><time>2026-04-12T10:54:14Z</time></trkpt><trkpt lat="45.99959360383386" lon="12.698650632726146"><ele>56.0</ele><time>2026-04-12T10:54:15Z</time></trkpt><trkpt lat="45.99972858703953" lon="12.698562530922496"><ele>56.0</ele><time>2026-04-12T10:54:16Z</time></trkpt><trkpt lat="45.999851954698144" lon="12.698490507630556"><ele>56.0</ele><time>2026-04-12T10:54:17Z</time></trkpt><trkpt lat="45.99997384731635" lon="12.698412788198592"><ele>56.0</ele><time>2026-04-12T10:54:18Z</time></trkpt><trkpt lat="46.00008338236092" lon="12.69834006482317"><ele>56.0</ele><time>2026-04-12T10:54:19Z</time></trkpt><trkpt lat="46.00018464701561" lon="12.698275245890676"><ele>56.0</ele><time>2026-04-12T10:54:20Z</time></trkpt><trkpt lat="46.000279725691044" lon="12.698218257141852"><ele>55.99999999999999</ele><time>2026-04-12T10:54:21Z</time></trkpt><trkpt lat="46.00036272815717" lon="12.698159941741144"><ele>55.99999999999999</ele><time>2026-04-12T10:54:22Z</time></trkpt><trkpt lat="46.00043692173912" lon="12.69809065859871"><ele>56.0</ele><time>2026-04-12T10:54:23Z</time></trkpt><trkpt lat="46.00052048611037" lon="12.698018531614863"><ele>56.0</ele><time>2026-04-12T10:54:24Z</time></trkpt><trkpt lat="46.000601765548076" lon="12.6979652424842"><ele>56.0</ele><time>2026-04-12T10:54:25Z</time></trkpt><trkpt lat="46.00067999434098" lon="12.69791758891367"><ele>55.99999999999999</ele><time>2026-04-12T10:54:26Z</time></trkpt><trkpt lat="46.00075741331991" lon="12.697857284033"><ele>55.99999999999999</ele><time>2026-04-12T10:54:27Z</time></trkpt><trkpt lat="46.0008416804273" lon="12.697793631776664"><ele>56.0</ele><time>2026-04-12T10:54:28Z</time></trkpt><trkpt lat="46.00092992274299" lon="12.697711837661819"><ele>56.0</ele><time>2026-04-12T10:54:29Z</time></trkpt><trkpt lat="46.00101476165595" lon="12.697596898298471"><ele>56.4</ele><time>2026-04-12T10:54:30Z</time></trkpt><trkpt lat="46.0010842954893" lon="12.697488034289886"><ele>56.8</ele><time>2026-04-12T10:54:31Z</time></trkpt><trkpt lat="46.00115020318705" lon="12.69738593054556"><ele>57.199999999999996</ele><time>2026-04-12T10:54:32Z</time></trkpt><trkpt lat="46.001228001805956" lon="12.697281408481839"><ele>57.599999999999994</ele><time>2026-04-12T10:54:33Z</time></trkpt><trkpt lat="46.001322982380515" lon="12.69718604610783"><ele>58.0</ele><time>2026-04-12T10:54:34Z</time></trkpt><trkpt lat="46.001431806971404" lon="12.697096394643449"><ele>58.0</ele><time>2026-04-12T10:54:35Z</time></trkpt><trkpt lat="46.00153567448058" lon="12.697007639715013"><ele>58.0</ele><time>2026-04-12T10:54:36Z</time></trkpt><trkpt lat="46.00165654295148" lon="12.696945706839482"><ele>58.0</ele><time>2026-04-12T10:54:37Z</time></trkpt><trkpt lat="46.00178996582093" lon="12.696890687916664"><ele>58.0</ele><time>2026-04-12T10:54:38Z</time></trkpt><trkpt lat="46.001939385335646" lon="12.696833975891593"><ele>58.25</ele><time>2026-04-12T10:54:39Z</time></trkpt><trkpt lat="46.00207764309316" lon="12.696782600391842"><ele>58.5</ele><time>2026-04-12T10:54:40Z</time></trkpt><trkpt lat="46.00219574824473" lon="12.696738764278143"><ele>58.75</ele><time>2026-04-12T10:54:41Z</time></trkpt><trkpt lat="46.00230181094671" lon="12.696698239472285"><ele>59.0</ele><time>2026-04-12T10:54:42Z</time></trkpt><trkpt lat="46.00239447753483" lon="12.696661000491373"><ele>59.00000000000001</ele><time>2026-04-12T10:54:43Z</time></trkpt><trkpt lat="46.00246880636221" lon="12.696622031112696"><ele>59.0</ele><time>2026-04-12T10:54:44Z</time></trkpt><trkpt lat="46.00252983308493" lon="12.69658796778255"><ele>59.0</ele><time>2026-04-12T10:54:45Z</time></trkpt><trkpt lat="46.00259240934677" lon="12.696478130112629"><ele>59.0</ele><time>2026-04-12T10:54:47Z</time></trkpt><trkpt lat="46.00261360829996" lon="12.696372855352285"><ele>59.00000000000001</ele><time>2026-04-12T10:54:48Z</time></trkpt><trkpt lat="46.002639951139464" lon="12.696248038413495"><ele>59.0</ele><time>2026-04-12T10:54:49Z</time></trkpt><trkpt lat="46.00267348891922" lon="12.69612102449384"><ele>59.6</ele><time>2026-04-12T10:54:50Z</time></trkpt><trkpt lat="46.00270969509385" lon="12.69598461868281"><ele>60.2</ele><time>2026-04-12T10:54:51Z</time></trkpt><trkpt lat="46.00273676291554" lon="12.69586153387079"><ele>60.800000000000004</ele><time>2026-04-12T10:54:52Z</time></trkpt><trkpt lat="46.00275612482664" lon="12.69573745025683"><ele>61.400000000000006</ele><time>2026-04-12T10:54:53Z</time></trkpt><trkpt lat="46.00275444663072" lon="12.695609333100585"><ele>62.0</ele><time>2026-04-12T10:54:54Z</time></trkpt><trkpt lat="46.00272755842325" lon="12.695475553220648"><ele>62.0</ele><time>2026-04-12T10:54:55Z</time></trkpt><trkpt lat="46.002679926402244" lon="12.695331112041483"><ele>62.0</ele><time>2026-04-12T10:54:56Z</time></trkpt><trkpt lat="46.00262602572719" lon="12.695190863701685"><ele>62.0</ele><time>2026-04-12T10:54:57Z</time></trkpt><trkpt lat="46.002573100632596" lon="12.695028751684477"><ele>62.0</ele><time>2026-04-12T10:54:58Z</time></trkpt><trkpt lat="46.002516490424796" lon="12.69485839995249"><ele>61.8</ele><time>2026-04-12T10:54:59Z</time></trkpt><trkpt lat="46.00246025504926" lon="12.694697925205116"><ele>61.6</ele><time>2026-04-12T10:55:00Z</time></trkpt><trkpt lat="46.00241757644148" lon="12.6945533425751"><ele>61.39999999999999</ele><time>2026-04-12T10:55:01Z</time></trkpt><trkpt lat="46.002373435725744" lon="12.694416961529447"><ele>61.199999999999996</ele><time>2026-04-12T10:55:02Z</time></trkpt><trkpt lat="46.0023446712273" lon="12.69429619677849"><ele>61.0</ele><time>2026-04-12T10:55:03Z</time></trkpt><trkpt lat="46.002312916281426" lon="12.694201465745259"><ele>61.0</ele><time>2026-04-12T10:55:04Z</time></trkpt><trkpt lat="46.002284559859895" lon="12.694063801596295"><ele>60.99999999999999</ele><time>2026-04-12T10:55:06Z</time></trkpt><trkpt lat="46.00234376597311" lon="12.693965145965885"><ele>60.99999999999999</ele><time>2026-04-12T10:55:09Z</time></trkpt><trkpt lat="46.00246342527926" lon="12.693923248271773"><ele>61.0</ele><time>2026-04-12T10:55:11Z</time></trkpt><trkpt lat="46.00253197118997" lon="12.693897346274685"><ele>61.0</ele><time>2026-04-12T10:55:12Z</time></trkpt><trkpt lat="46.00259558010246" lon="12.693863962978767"><ele>61.166666666666664</ele><time>2026-04-12T10:55:13Z</time></trkpt><trkpt lat="46.00266554256071" lon="12.693830948915814"><ele>61.33333333333333</ele><time>2026-04-12T10:55:14Z</time></trkpt><trkpt lat="46.002739205731025" lon="12.693804519416341"><ele>61.5</ele><time>2026-04-12T10:55:15Z</time></trkpt><trkpt lat="46.0028071991574" lon="12.693771574082067"><ele>61.66666666666667</ele><time>2026-04-12T10:55:16Z</time></trkpt><trkpt lat="46.0028730802202" lon="12.6937306118946"><ele>61.833333333333336</ele><time>2026-04-12T10:55:17Z</time></trkpt><trkpt lat="46.00293480957698" lon="12.693687553451287"><ele>62.0</ele><time>2026-04-12T10:55:18Z</time></trkpt><trkpt lat="46.00304752624786" lon="12.69361664435067"><ele>62.400000000000006</ele><time>2026-04-12T10:55:20Z</time></trkpt><trkpt lat="46.00315387745569" lon="12.693542090250332"><ele>62.800000000000004</ele><time>2026-04-12T10:55:22Z</time></trkpt><trkpt lat="46.00326666149652" lon="12.693463629651278"><ele>63.2</ele><time>2026-04-12T10:55:24Z</time></trkpt><trkpt lat="46.00333822403166" lon="12.693407791234444"><ele>63.6</ele><time>2026-04-12T10:55:25Z</time></trkpt><trkpt lat="46.00341664314396" lon="12.69334994822756"><ele>64.0</ele><time>2026-04-12T10:55:26Z</time></trkpt><trkpt lat="46.003495151442486" lon="12.693288898435219"><ele>64.2</ele><time>2026-04-12T10:55:27Z</time></trkpt><trkpt lat="46.00357505509618" lon="12.693225600352378"><ele>64.4</ele><time>2026-04-12T10:55:28Z</time></trkpt><trkpt lat="46.00365927758247" lon="12.693156276198845"><ele>64.6</ele><time>2026-04-12T10:55:29Z</time></trkpt><trkpt lat="46.00375399606887" lon="12.693078507780198"><ele>64.8</ele><time>2026-04-12T10:55:30Z</time></trkpt><trkpt lat="46.00385506462336" lon="12.692995218646208"><ele>65.0</ele><time>2026-04-12T10:55:31Z</time></trkpt><trkpt lat="46.00395882296607" lon="12.692919911484745"><ele>65.0</ele><time>2026-04-12T10:55:32Z</time></trkpt><trkpt lat="46.00404058068409" lon="12.692834714940187"><ele>65.0</ele><time>2026-04-12T10:55:33Z</time></trkpt><trkpt lat="46.004121595742255" lon="12.692774799478828"><ele>65.0</ele><time>2026-04-12T10:55:34Z</time></trkpt><trkpt lat="46.00419186378929" lon="12.692719229918438"><ele>65.0</ele><time>2026-04-12T10:55:35Z</time></trkpt><trkpt lat="46.00425448044381" lon="12.69266272945808"><ele>65.0</ele><time>2026-04-12T10:55:36Z</time></trkpt><trkpt lat="46.004314403174476" lon="12.692608330906358"><ele>65.0</ele><time>2026-04-12T10:55:37Z</time></trkpt><trkpt lat="46.00441063327467" lon="12.692556644147228"><ele>65.0</ele><time>2026-04-12T10:55:39Z</time></trkpt><trkpt lat="46.00447172547604" lon="12.692517372181934"><ele>65.0</ele><time>2026-04-12T10:55:41Z</time></trkpt><trkpt lat="46.00455040720536" lon="12.692425960841895"><ele>65.0</ele><time>2026-04-12T10:55:57Z</time></trkpt><trkpt lat="46.00462050997223" lon="12.692397283219249"><ele>65.0</ele><time>2026-04-12T10:55:58Z</time></trkpt><trkpt lat="46.00470918091598" lon="12.69236325000802"><ele>65.0</ele><time>2026-04-12T10:55:59Z</time></trkpt><trkpt lat="46.004824994997904" lon="12.692342331181008"><ele>65.0</ele><time>2026-04-12T10:56:00Z</time></trkpt><trkpt lat="46.00495435491222" lon="12.692254419629709"><ele>65.33333333333334</ele><time>2026-04-12T10:56:01Z</time></trkpt><trkpt lat="46.00510207481831" lon="12.692146153855596"><ele>65.66666666666667</ele><time>2026-04-12T10:56:02Z</time></trkpt><trkpt lat="46.00525989413607" lon="12.692032256623847"><ele>66.0</ele><time>2026-04-12T10:56:03Z</time></trkpt><trkpt lat="46.00543043829008" lon="12.691913302181197"><ele>66.33333333333333</ele><time>2026-04-12T10:56:04Z</time></trkpt><trkpt lat="46.00561153840627" lon="12.691786802999598"><ele>66.66666666666666</ele><time>2026-04-12T10:56:05Z</time></trkpt><trkpt lat="46.00579248218975" lon="12.69165658101611"><ele>67.0</ele><time>2026-04-12T10:56:06Z</time></trkpt><trkpt lat="46.00593965450872" lon="12.691521632297707"><ele>67.25</ele><time>2026-04-12T10:56:07Z</time></trkpt><trkpt lat="46.006087915671074" lon="12.691441241765263"><ele>67.5</ele><time>2026-04-12T10:56:08Z</time></trkpt><trkpt lat="46.006210964136365" lon="12.69133519478599"><ele>67.75</ele><time>2026-04-12T10:56:09Z</time></trkpt><trkpt lat="46.00633256823816" lon="12.691255566895812"><ele>68.0</ele><time>2026-04-12T10:56:10Z</time></trkpt><trkpt lat="46.00644961901722" lon="12.69119514376828"><ele>68.0</ele><time>2026-04-12T10:56:11Z</time></trkpt><trkpt lat="46.006546605922125" lon="12.691122639256413"><ele>68.0</ele><time>2026-04-12T10:56:12Z</time></trkpt><trkpt lat="46.00663850799394" lon="12.691059490511702"><ele>68.0</ele><time>2026-04-12T10:56:13Z</time></trkpt><trkpt lat="46.00673895355683" lon="12.69099083161072"><ele>68.0</ele><time>2026-04-12T10:56:14Z</time></trkpt><trkpt lat="46.00685818456215" lon="12.6909176154445"><ele>68.25</ele><time>2026-04-12T10:56:15Z</time></trkpt><trkpt lat="46.006972638516544" lon="12.690847974755071"><ele>68.5</ele><time>2026-04-12T10:56:16Z</time></trkpt><trkpt lat="46.007082842649716" lon="12.690778016063918"><ele>68.75</ele><time>2026-04-12T10:56:17Z</time></trkpt><trkpt lat="46.007195353679286" lon="12.690743967485405"><ele>69.0</ele><time>2026-04-12T10:56:18Z</time></trkpt><trkpt lat="46.00729376031986" lon="12.69069661806335"><ele>69.0</ele><time>2026-04-12T10:56:19Z</time></trkpt><trkpt lat="46.00738935461483" lon="12.69062846714977"><ele>69.0</ele><time>2026-04-12T10:56:20Z</time></trkpt><trkpt lat="46.00747937346827" lon="12.690591913256242"><ele>69.0</ele><time>2026-04-12T10:56:21Z</time></trkpt><trkpt lat="46.00756187221791" lon="12.690583050890718"><ele>69.0</ele><time>2026-04-12T10:56:22Z</time></trkpt><trkpt lat="46.007625128669986" lon="12.690559407057908"><ele>69.0</ele><time>2026-04-12T10:56:23Z</time></trkpt><trkpt lat="46.00770747686164" lon="12.690535572195403"><ele>69.0</ele><time>2026-04-12T10:56:25Z</time></trkpt><trkpt lat="46.007787648368286" lon="12.690593952015265"><ele>69.16666666666667</ele><time>2026-04-12T10:56:28Z</time></trkpt><trkpt lat="46.007823371895675" lon="12.690739028985927"><ele>69.33333333333333</ele><time>2026-04-12T10:56:30Z</time></trkpt><trkpt lat="46.00790475621915" lon="12.690813087044884"><ele>69.5</ele><time>2026-04-12T10:56:32Z</time></trkpt><trkpt lat="46.007970057879746" lon="12.690836994609983"><ele>69.66666666666666</ele><time>2026-04-12T10:56:33Z</time></trkpt><trkpt lat="46.008041959032894" lon="12.690866699342646"><ele>69.83333333333333</ele><time>2026-04-12T10:56:34Z</time></trkpt><trkpt lat="46.00811192119496" lon="12.6908895528458"><ele>70.0</ele><time>2026-04-12T10:56:35Z</time></trkpt><trkpt lat="46.00819180709452" lon="12.690911239234518"><ele>70.0</ele><time>2026-04-12T10:56:36Z</time></trkpt><trkpt lat="46.00829025491215" lon="12.690932500531302"><ele>70.0</ele><time>2026-04-12T10:56:37Z</time></trkpt><trkpt lat="46.00839762579301" lon="12.690953399973456"><ele>70.0</ele><time>2026-04-12T10:56:38Z</time></trkpt><trkpt lat="46.00849779766611" lon="12.69096248325758"><ele>70.0</ele><time>2026-04-12T10:56:39Z</time></trkpt><trkpt lat="46.00860921352138" lon="12.690966363563177"><ele>70.0</ele><time>2026-04-12T10:56:40Z</time></trkpt><trkpt lat="46.00871562328025" lon="12.690965309933013"><ele>70.4</ele><time>2026-04-12T10:56:41Z</time></trkpt><trkpt lat="46.00882441126586" lon="12.690945349416648"><ele>70.8</ele><time>2026-04-12T10:56:42Z</time></trkpt><trkpt lat="46.008922016215365" lon="12.69094166316844"><ele>71.2</ele><time>2026-04-12T10:56:43Z</time></trkpt><trkpt lat="46.009022730297495" lon="12.690941426462699"><ele>71.6</ele><time>2026-04-12T10:56:44Z</time></trkpt><trkpt lat="46.00910874395166" lon="12.690944963202483"><ele>72.0</ele><time>2026-04-12T10:56:45Z</time></trkpt><trkpt lat="46.00919851309924" lon="12.690932005568262"><ele>72.0</ele><time>2026-04-12T10:56:46Z</time></trkpt><trkpt lat="46.00929063795675" lon="12.690899212683732"><ele>72.0</ele><time>2026-04-12T10:56:47Z</time></trkpt><trkpt lat="46.00939471013509" lon="12.690829204188931"><ele>72.0</ele><time>2026-04-12T10:56:48Z</time></trkpt><trkpt lat="46.009518583151916" lon="12.690760415794617"><ele>72.0</ele><time>2026-04-12T10:56:49Z</time></trkpt><trkpt lat="46.009641002277974" lon="12.69071641927568"><ele>72.0</ele><time>2026-04-12T10:56:50Z</time></trkpt><trkpt lat="46.009756200210475" lon="12.690670465719208"><ele>72.0</ele><time>2026-04-12T10:56:51Z</time></trkpt><trkpt lat="46.00986046436982" lon="12.690614770842224"><ele>72.0</ele><time>2026-04-12T10:56:52Z</time></trkpt><trkpt lat="46.00995267368838" lon="12.690587933228047"><ele>72.0</ele><time>2026-04-12T10:56:53Z</time></trkpt><trkpt lat="46.01003491732018" lon="12.690567335974563"><ele>72.0</ele><time>2026-04-12T10:56:54Z</time></trkpt><trkpt lat="46.01011402460221" lon="12.690522994152056"><ele>72.6</ele><time>2026-04-12T10:56:55Z</time></trkpt><trkpt lat="46.01020801400818" lon="12.690462948223715"><ele>73.2</ele><time>2026-04-12T10:56:56Z</time></trkpt><trkpt lat="46.01031480424943" lon="12.690406410921952"><ele>73.8</ele><time>2026-04-12T10:56:57Z</time></trkpt><trkpt lat="46.01040864101693" lon="12.690347868363634"><ele>74.4</ele><time>2026-04-12T10:56:58Z</time></trkpt><trkpt lat="46.01047260241113" lon="12.690299683073455"><ele>75.0</ele><time>2026-04-12T10:56:59Z</time></trkpt><trkpt lat="46.01051344373908" lon="12.69023042618564"><ele>75.0</ele><time>2026-04-12T10:57:00Z</time></trkpt><trkpt lat="46.010555018322435" lon="12.690127488829903"><ele>75.0</ele><time>2026-04-12T10:57:01Z</time></trkpt><trkpt lat="46.010590680041695" lon="12.689987413692139"><ele>75.0</ele><time>2026-04-12T10:57:02Z</time></trkpt><trkpt lat="46.010642070704066" lon="12.689828552856033"><ele>75.0</ele><time>2026-04-12T10:57:03Z</time></trkpt><trkpt lat="46.01070238434939" lon="12.689660132891811"><ele>75.0</ele><time>2026-04-12T10:57:04Z</time></trkpt><trkpt lat="46.010754813918425" lon="12.689499050341032"><ele>75.0</ele><time>2026-04-12T10:57:05Z</time></trkpt><trkpt lat="46.01079591029051" lon="12.689357514918793"><ele>75.0</ele><time>2026-04-12T10:57:06Z</time></trkpt><trkpt lat="46.01082737536579" lon="12.689211455613444"><ele>75.0</ele><time>2026-04-12T10:57:07Z</time></trkpt><trkpt lat="46.01084181469627" lon="12.689077132568231"><ele>75.0</ele><time>2026-04-12T10:57:08Z</time></trkpt><trkpt lat="46.01086528185269" lon="12.68894329130113"><ele>75.0</ele><time>2026-04-12T10:57:09Z</time></trkpt><trkpt lat="46.01088476388941" lon="12.688791866477274"><ele>75.5</ele><time>2026-04-12T10:57:10Z</time></trkpt><trkpt lat="46.010906566101376" lon="12.688655848679389"><ele>76.0</ele><time>2026-04-12T10:57:11Z</time></trkpt><trkpt lat="46.01093831034738" lon="12.688558420436113"><ele>76.5</ele><time>2026-04-12T10:57:12Z</time></trkpt><trkpt lat="46.01098047615711" lon="12.688477833307864"><ele>77.0</ele><time>2026-04-12T10:57:13Z</time></trkpt><trkpt lat="46.01103530667484" lon="12.688397796976469"><ele>77.5</ele><time>2026-04-12T10:57:14Z</time></trkpt><trkpt lat="46.011102426042676" lon="12.688290627307426"><ele>78.0</ele><time>2026-04-12T10:57:15Z</time></trkpt><trkpt lat="46.01119103293919" lon="12.688180044649298"><ele>78.0</ele><time>2026-04-12T10:57:16Z</time></trkpt><trkpt lat="46.01128662178915" lon="12.688047644938605"><ele>78.0</ele><time>2026-04-12T10:57:17Z</time></trkpt><trkpt lat="46.01138069826767" lon="12.68791368345223"><ele>78.0</ele><time>2026-04-12T10:57:18Z</time></trkpt><trkpt lat="46.011457869306675" lon="12.687797881730459"><ele>78.0</ele><time>2026-04-12T10:57:19Z</time></trkpt><trkpt lat="46.01154860877894" lon="12.687718569161829"><ele>77.8</ele><time>2026-04-12T10:57:20Z</time></trkpt><trkpt lat="46.01164412015308" lon="12.6876223098052"><ele>77.6</ele><time>2026-04-12T10:57:21Z</time></trkpt><trkpt lat="46.01173349015212" lon="12.687530515739496"><ele>77.4</ele><time>2026-04-12T10:57:22Z</time></trkpt><trkpt lat="46.01181413804007" lon="12.687441557890493"><ele>77.2</ele><time>2026-04-12T10:57:23Z</time></trkpt><trkpt lat="46.01187625400593" lon="12.687344689301645"><ele>77.0</ele><time>2026-04-12T10:57:24Z</time></trkpt><trkpt lat="46.01194068434326" lon="12.687268241472916"><ele>77.33333333333334</ele><time>2026-04-12T10:57:25Z</time></trkpt><trkpt lat="46.0119929690317" lon="12.687185561215683"><ele>77.66666666666667</ele><time>2026-04-12T10:57:26Z</time></trkpt><trkpt lat="46.01206702502249" lon="12.687100045600546"><ele>78.0</ele><time>2026-04-12T10:57:27Z</time></trkpt><trkpt lat="46.01211435342995" lon="12.68699918556783"><ele>78.33333333333333</ele><time>2026-04-12T10:57:28Z</time></trkpt><trkpt lat="46.0121460192853" lon="12.686898312729983"><ele>78.66666666666666</ele><time>2026-04-12T10:57:29Z</time></trkpt><trkpt lat="46.01221264625001" lon="12.686837879905571"><ele>79.0</ele><time>2026-04-12T10:57:30Z</time></trkpt><trkpt lat="46.01226560853165" lon="12.686751839055583"><ele>79.16666666666666</ele><time>2026-04-12T10:57:31Z</time></trkpt><trkpt lat="46.01233525499694" lon="12.686698470669393"><ele>79.33333333333333</ele><time>2026-04-12T10:57:32Z</time></trkpt><trkpt lat="46.01241399728094" lon="12.686600888117631"><ele>79.5</ele><time>2026-04-12T10:57:34Z</time></trkpt><trkpt lat="46.01245322405976" lon="12.686456628019863"><ele>79.66666666666667</ele><time>2026-04-12T10:57:36Z</time></trkpt><trkpt lat="46.01243169098322" lon="12.686345471757742"><ele>79.83333333333334</ele><time>2026-04-12T10:57:37Z</time></trkpt><trkpt lat="46.012397790242446" lon="12.68626130669802"><ele>80.0</ele><time>2026-04-12T10:57:38Z</time></trkpt><trkpt lat="46.012394959016646" lon="12.686138339564529"><ele>79.83333333333334</ele><time>2026-04-12T10:57:40Z</time></trkpt><trkpt lat="46.01246387400402" lon="12.686044514629023"><ele>79.66666666666667</ele><time>2026-04-12T10:57:42Z</time></trkpt><trkpt lat="46.012525049026465" lon="12.686001778083714"><ele>79.5</ele><time>2026-04-12T10:57:43Z</time></trkpt><trkpt lat="46.01258312395979" lon="12.685941635375373"><ele>79.33333333333333</ele><time>2026-04-12T10:57:44Z</time></trkpt><trkpt lat="46.01264361309608" lon="12.685867147448155"><ele>79.16666666666666</ele><time>2026-04-12T10:57:45Z</time></trkpt><trkpt lat="46.01271496165969" lon="12.685793311015244"><ele>79.0</ele><time>2026-04-12T10:57:46Z</time></trkpt><trkpt lat="46.01278666685621" lon="12.685730821654337"><ele>79.83333333333333</ele><time>2026-04-12T10:57:47Z</time></trkpt><trkpt lat="46.012845190966665" lon="12.685678798009643"><ele>80.66666666666666</ele><time>2026-04-12T10:57:48Z</time></trkpt><trkpt lat="46.01289964088601" lon="12.685625536328738"><ele>81.5</ele><time>2026-04-12T10:57:49Z</time></trkpt><trkpt lat="46.01295750762397" lon="12.685568159041944"><ele>82.33333333333333</ele><time>2026-04-12T10:57:50Z</time></trkpt><trkpt lat="46.01304051941236" lon="12.68549863963763"><ele>83.16666666666667</ele><time>2026-04-12T10:57:51Z</time></trkpt><trkpt lat="46.01312381455749" lon="12.685431134512275"><ele>84.0</ele><time>2026-04-12T10:57:52Z</time></trkpt><trkpt lat="46.01320294944135" lon="12.685356156006522"><ele>84.0</ele><time>2026-04-12T10:57:53Z</time></trkpt><trkpt lat="46.013277993775624" lon="12.685285219700194"><ele>84.0</ele><time>2026-04-12T10:57:54Z</time></trkpt><trkpt lat="46.013345169010535" lon="12.685225512564083"><ele>84.0</ele><time>2026-04-12T10:57:55Z</time></trkpt><trkpt lat="46.01341836288118" lon="12.685160741990009"><ele>84.0</ele><time>2026-04-12T10:57:56Z</time></trkpt><trkpt lat="46.013480559619424" lon="12.685107233323311"><ele>84.0</ele><time>2026-04-12T10:57:57Z</time></trkpt><trkpt lat="46.013534147067986" lon="12.685055768686313"><ele>84.0</ele><time>2026-04-12T10:57:58Z</time></trkpt><trkpt lat="46.01361269897763" lon="12.684971087245252"><ele>83.5</ele><time>2026-04-12T10:58:00Z</time></trkpt><trkpt lat="46.013677220350395" lon="12.684965946319746"><ele>83.0</ele><time>2026-04-12T10:58:02Z</time></trkpt><trkpt lat="46.01374366179539" lon="12.685095784575413"><ele>82.5</ele><time>2026-04-12T10:58:04Z</time></trkpt><trkpt lat="46.01382403429125" lon="12.685128128392128"><ele>82.0</ele><time>2026-04-12T10:58:07Z</time></trkpt><trkpt lat="46.01401405800882" lon="12.68501110723385"><ele>82.0</ele><time>2026-04-12T10:58:09Z</time></trkpt><trkpt lat="46.014094224543804" lon="12.684928918995022"><ele>82.0</ele><time>2026-04-12T10:58:10Z</time></trkpt><trkpt lat="46.01417412916971" lon="12.684847073759743"><ele>82.0</ele><time>2026-04-12T10:58:11Z</time></trkpt><trkpt lat="46.01423136536793" lon="12.68478533154497"><ele>82.0</ele><time>2026-04-12T10:58:12Z</time></trkpt><trkpt lat="46.014293514456064" lon="12.68470954298189"><ele>82.0</ele><time>2026-04-12T10:58:13Z</time></trkpt><trkpt lat="46.01435458889114" lon="12.684627665484504"><ele>82.0</ele><time>2026-04-12T10:58:14Z</time></trkpt><trkpt lat="46.01439524699409" lon="12.68454288911289"><ele>82.0</ele><time>2026-04-12T10:58:15Z</time></trkpt><trkpt lat="46.01444183044706" lon="12.684441581822465"><ele>82.0</ele><time>2026-04-12T10:58:16Z</time></trkpt><trkpt lat="46.014508621438445" lon="12.684410014819994"><ele>82.0</ele><time>2026-04-12T10:58:17Z</time></trkpt><trkpt lat="46.01460202171307" lon="12.684429123901221"><ele>82.0</ele><time>2026-04-12T10:58:18Z</time></trkpt><trkpt lat="46.01470829118264" lon="12.6843173543109"><ele>82.0</ele><time>2026-04-12T10:58:20Z</time></trkpt><trkpt lat="46.014762275062864" lon="12.684263371364654"><ele>82.0</ele><time>2026-04-12T10:58:21Z</time></trkpt><trkpt lat="46.01481981123993" lon="12.684216855587556"><ele>82.0</ele><time>2026-04-12T10:58:22Z</time></trkpt><trkpt lat="46.014877960266645" lon="12.68415569792727"><ele>82.0</ele><time>2026-04-12T10:58:23Z</time></trkpt><trkpt lat="46.014942649537986" lon="12.684089548592254"><ele>82.0</ele><time>2026-04-12T10:58:24Z</time></trkpt><trkpt lat="46.01502976324186" lon="12.683990319552919"><ele>82.0</ele><time>2026-04-12T10:58:26Z</time></trkpt><trkpt lat="46.015090995579776" lon="12.683940506442795"><ele>82.0</ele><time>2026-04-12T10:58:27Z</time></trkpt><trkpt lat="46.01515486267149" lon="12.683892183456324"><ele>82.0</ele><time>2026-04-12T10:58:28Z</time></trkpt><trkpt lat="46.01522087639467" lon="12.683831359081305"><ele>82.39999999999999</ele><time>2026-04-12T10:58:29Z</time></trkpt><trkpt lat="46.015289819787405" lon="12.683770222639033"><ele>82.8</ele><time>2026-04-12T10:58:30Z</time></trkpt><trkpt lat="46.01536760545199" lon="12.683686571799944"><ele>83.2</ele><time>2026-04-12T10:58:31Z</time></trkpt><trkpt lat="46.01545226463604" lon="12.683595431886475"><ele>83.6</ele><time>2026-04-12T10:58:32Z</time></trkpt><trkpt lat="46.01554772025378" lon="12.683494531889346"><ele>84.0</ele><time>2026-04-12T10:58:33Z</time></trkpt><trkpt lat="46.01563036370157" lon="12.683408378957838"><ele>84.2</ele><time>2026-04-12T10:58:34Z</time></trkpt><trkpt lat="46.01571531134601" lon="12.683327715434023"><ele>84.4</ele><time>2026-04-12T10:58:35Z</time></trkpt><trkpt lat="46.0158028935664" lon="12.683239285070638"><ele>84.6</ele><time>2026-04-12T10:58:36Z</time></trkpt><trkpt lat="46.0158946458124" lon="12.683152516217104"><ele>84.8</ele><time>2026-04-12T10:58:37Z</time></trkpt><trkpt lat="46.01598797691895" lon="12.683058573172609"><ele>85.0</ele><time>2026-04-12T10:58:38Z</time></trkpt><trkpt lat="46.0160710231612" lon="12.68298252186876"><ele>85.0</ele><time>2026-04-12T10:58:39Z</time></trkpt><trkpt lat="46.016151081226816" lon="12.682913141534321"><ele>85.0</ele><time>2026-04-12T10:58:40Z</time></trkpt><trkpt lat="46.016235994674645" lon="12.682829518044924"><ele>85.0</ele><time>2026-04-12T10:58:41Z</time></trkpt><trkpt lat="46.01633155133017" lon="12.682737426778084"><ele>85.0</ele><time>2026-04-12T10:58:42Z</time></trkpt><trkpt lat="46.016432063941714" lon="12.682647603060708"><ele>85.0</ele><time>2026-04-12T10:58:43Z</time></trkpt><trkpt lat="46.01651770412624" lon="12.682568512934951"><ele>85.0</ele><time>2026-04-12T10:58:44Z</time></trkpt><trkpt lat="46.016597068970036" lon="12.682495598245593"><ele>85.0</ele><time>2026-04-12T10:58:45Z</time></trkpt><trkpt lat="46.016680877224395" lon="12.682416735097659"><ele>85.0</ele><time>2026-04-12T10:58:46Z</time></trkpt><trkpt lat="46.01677340806456" lon="12.682325370028096"><ele>85.0</ele><time>2026-04-12T10:58:47Z</time></trkpt><trkpt lat="46.01686759566685" lon="12.682236947566325"><ele>85.0</ele><time>2026-04-12T10:58:48Z</time></trkpt><trkpt lat="46.01694611539194" lon="12.68215829718388"><ele>85.33333333333333</ele><time>2026-04-12T10:58:49Z</time></trkpt><trkpt lat="46.01701877988846" lon="12.682090778960921"><ele>85.66666666666666</ele><time>2026-04-12T10:58:50Z</time></trkpt><trkpt lat="46.01707476126142" lon="12.682020617062259"><ele>86.0</ele><time>2026-04-12T10:58:51Z</time></trkpt><trkpt lat="46.01712592708112" lon="12.681960930332687"><ele>86.33333333333333</ele><time>2026-04-12T10:58:52Z</time></trkpt><trkpt lat="46.01722295714979" lon="12.681865986528404"><ele>86.66666666666667</ele><time>2026-04-12T10:58:54Z</time></trkpt><trkpt lat="46.017301427888334" lon="12.68178895988854"><ele>87.0</ele><time>2026-04-12T10:58:56Z</time></trkpt><trkpt lat="46.01738399265845" lon="12.681726275137091"><ele>87.33333333333333</ele><time>2026-04-12T10:59:12Z</time></trkpt><trkpt lat="46.017460438851344" lon="12.681641422079625"><ele>87.66666666666667</ele><time>2026-04-12T10:59:14Z</time></trkpt><trkpt lat="46.01750892790225" lon="12.681581332607523"><ele>88.0</ele><time>2026-04-12T10:59:15Z</time></trkpt><trkpt lat="46.01757293081391" lon="12.681523770974742"><ele>88.33333333333334</ele><time>2026-04-12T10:59:16Z</time></trkpt><trkpt lat="46.0176480138661" lon="12.681459049053608"><ele>88.66666666666667</ele><time>2026-04-12T10:59:17Z</time></trkpt><trkpt lat="46.01772423239758" lon="12.681380842796568"><ele>89.0</ele><time>2026-04-12T10:59:18Z</time></trkpt><trkpt lat="46.0178130931483" lon="12.681293622817861"><ele>89.0</ele><time>2026-04-12T10:59:19Z</time></trkpt><trkpt lat="46.01788872158459" lon="12.681210306906415"><ele>89.0</ele><time>2026-04-12T10:59:20Z</time></trkpt><trkpt lat="46.01795770490216" lon="12.681141208337408"><ele>89.0</ele><time>2026-04-12T10:59:21Z</time></trkpt><trkpt lat="46.01802188974875" lon="12.681073243459528"><ele>89.0</ele><time>2026-04-12T10:59:22Z</time></trkpt><trkpt lat="46.018100268893555" lon="12.680991867462614"><ele>89.0</ele><time>2026-04-12T10:59:23Z</time></trkpt><trkpt lat="46.01819629545715" lon="12.680898983754371"><ele>89.0</ele><time>2026-04-12T10:59:24Z</time></trkpt><trkpt lat="46.01828973087372" lon="12.680823957985796"><ele>89.0</ele><time>2026-04-12T10:59:25Z</time></trkpt><trkpt lat="46.01836849853256" lon="12.680736205079096"><ele>89.0</ele><time>2026-04-12T10:59:26Z</time></trkpt><trkpt lat="46.01845532776515" lon="12.680645562740803"><ele>89.0</ele><time>2026-04-12T10:59:27Z</time></trkpt><trkpt lat="46.01854841652161" lon="12.680529376129604"><ele>89.0</ele><time>2026-04-12T10:59:28Z</time></trkpt><trkpt lat="46.018659162256306" lon="12.680444616976688"><ele>89.0</ele><time>2026-04-12T10:59:29Z</time></trkpt><trkpt lat="46.01875042725961" lon="12.680354645397063"><ele>89.0</ele><time>2026-04-12T10:59:30Z</time></trkpt><trkpt lat="46.01883413195426" lon="12.680272127008084"><ele>89.0</ele><time>2026-04-12T10:59:31Z</time></trkpt><trkpt lat="46.018923063462736" lon="12.680182101809384"><ele>89.0</ele><time>2026-04-12T10:59:32Z</time></trkpt><trkpt lat="46.01902447631175" lon="12.680078751123883"><ele>89.0</ele><time>2026-04-12T10:59:33Z</time></trkpt><trkpt lat="46.019119818847614" lon="12.679978945189848"><ele>89.6</ele><time>2026-04-12T10:59:34Z</time></trkpt><trkpt lat="46.01920185625916" lon="12.679889070484334"><ele>90.2</ele><time>2026-04-12T10:59:35Z</time></trkpt><trkpt lat="46.01927491876653" lon="12.679802461628368"><ele>90.8</ele><time>2026-04-12T10:59:36Z</time></trkpt><trkpt lat="46.01934839801475" lon="12.679715359268165"><ele>91.39999999999999</ele><time>2026-04-12T10:59:37Z</time></trkpt><trkpt lat="46.01943976880062" lon="12.679634739892276"><ele>92.0</ele><time>2026-04-12T10:59:38Z</time></trkpt><trkpt lat="46.01953404375834" lon="12.679569960473309"><ele>92.0</ele><time>2026-04-12T10:59:39Z</time></trkpt><trkpt lat="46.0196470306606" lon="12.679517850073493"><ele>92.0</ele><time>2026-04-12T10:59:40Z</time></trkpt><trkpt lat="46.0197708037161" lon="12.679454870315032"><ele>92.0</ele><time>2026-04-12T10:59:41Z</time></trkpt><trkpt lat="46.01988953039402" lon="12.679441480883643"><ele>92.0</ele><time>2026-04-12T10:59:42Z</time></trkpt><trkpt lat="46.0200012694979" lon="12.679431859474406"><ele>92.25</ele><time>2026-04-12T10:59:43Z</time></trkpt><trkpt lat="46.02013865805366" lon="12.679441242725822"><ele>92.5</ele><time>2026-04-12T10:59:44Z</time></trkpt><trkpt lat="46.02029365768212" lon="12.679456794698586"><ele>92.75</ele><time>2026-04-12T10:59:45Z</time></trkpt><trkpt lat="46.02043204056828" lon="12.679478068854852"><ele>93.0</ele><time>2026-04-12T10:59:46Z</time></trkpt><trkpt lat="46.02056026769262" lon="12.67949635661449"><ele>93.0</ele><time>2026-04-12T10:59:47Z</time></trkpt><trkpt lat="46.02068423072278" lon="12.67949425679417"><ele>93.0</ele><time>2026-04-12T10:59:48Z</time></trkpt><trkpt lat="46.0208101720054" lon="12.67946847476566"><ele>93.0</ele><time>2026-04-12T10:59:49Z</time></trkpt><trkpt lat="46.02094065559095" lon="12.679446383300224"><ele>93.0</ele><time>2026-04-12T10:59:50Z</time></trkpt><trkpt lat="46.021073362043154" lon="12.679423421590604"><ele>94.0</ele><time>2026-04-12T10:59:51Z</time></trkpt><trkpt lat="46.02121284662028" lon="12.679397870125229"><ele>95.0</ele><time>2026-04-12T10:59:52Z</time></trkpt><trkpt lat="46.02136525227345" lon="12.679366804137032"><ele>96.0</ele><time>2026-04-12T10:59:53Z</time></trkpt><trkpt lat="46.021510342130775" lon="12.679333453091918"><ele>97.0</ele><time>2026-04-12T10:59:54Z</time></trkpt><trkpt lat="46.02163930170686" lon="12.679303927704893"><ele>97.39999999999999</ele><time>2026-04-12T10:59:55Z</time></trkpt><trkpt lat="46.02176298364739" lon="12.67927468173467"><ele>97.8</ele><time>2026-04-12T10:59:56Z</time></trkpt><trkpt lat="46.02188011145312" lon="12.67924404356298"><ele>98.2</ele><time>2026-04-12T10:59:57Z</time></trkpt><trkpt lat="46.02198659694015" lon="12.679218628073237"><ele>98.6</ele><time>2026-04-12T10:59:58Z</time></trkpt><trkpt lat="46.02207785403943" lon="12.67919730000703"><ele>99.0</ele><time>2026-04-12T10:59:59Z</time></trkpt><trkpt lat="46.02215062312625" lon="12.6791810879958"><ele>99.0</ele><time>2026-04-12T11:00:00Z</time></trkpt><trkpt lat="46.022260774994955" lon="12.679186479613254"><ele>99.0</ele><time>2026-04-12T11:00:02Z</time></trkpt><trkpt lat="46.022334947418244" lon="12.67928095097702"><ele>99.0</ele><time>2026-04-12T11:00:04Z</time></trkpt><trkpt lat="46.02233354701512" lon="12.679384442029646"><ele>99.0</ele><time>2026-04-12T11:00:19Z</time></trkpt><trkpt lat="46.022430188948796" lon="12.679510809179263"><ele>99.0</ele><time>2026-04-12T11:00:21Z</time></trkpt><trkpt lat="46.02245640815148" lon="12.679748539008859"><ele>99.0</ele><time>2026-04-12T11:00:23Z</time></trkpt><trkpt lat="46.022499077336256" lon="12.679851940067504"><ele>99.0</ele><time>2026-04-12T11:00:24Z</time></trkpt><trkpt lat="46.02252629913736" lon="12.679968976039945"><ele>99.0</ele><time>2026-04-12T11:00:25Z</time></trkpt><trkpt lat="46.022563411653415" lon="12.680086377619684"><ele>99.0</ele><time>2026-04-12T11:00:26Z</time></trkpt><trkpt lat="46.022595342563015" lon="12.680182177616514"><ele>99.0</ele><time>2026-04-12T11:00:27Z</time></trkpt><trkpt lat="46.02263899024522" lon="12.680279130053021"><ele>99.0</ele><time>2026-04-12T11:00:29Z</time></trkpt><trkpt lat="46.02268711510665" lon="12.680396008642116"><ele>98.6</ele><time>2026-04-12T11:00:31Z</time></trkpt><trkpt lat="46.02274290861137" lon="12.680568840789672"><ele>98.2</ele><time>2026-04-12T11:00:33Z</time></trkpt><trkpt lat="46.022780034227225" lon="12.680695050844637"><ele>97.8</ele><time>2026-04-12T11:00:34Z</time></trkpt><trkpt lat="46.02281859593139" lon="12.680774931953927"><ele>97.39999999999999</ele><time>2026-04-12T11:00:35Z</time></trkpt><trkpt lat="46.02285580054346" lon="12.680907045150445"><ele>97.0</ele><time>2026-04-12T11:00:37Z</time></trkpt><trkpt lat="46.02289911335062" lon="12.68099454544584"><ele>97.00000000000001</ele><time>2026-04-12T11:00:38Z</time></trkpt><trkpt lat="46.02293422581887" lon="12.68109668615329"><ele>97.0</ele><time>2026-04-12T11:00:39Z</time></trkpt><trkpt lat="46.02296567528635" lon="12.681189121228934"><ele>97.0</ele><time>2026-04-12T11:00:40Z</time></trkpt><trkpt lat="46.023000398405024" lon="12.68127787457663"><ele>97.0</ele><time>2026-04-12T11:00:41Z</time></trkpt><trkpt lat="46.023043763879066" lon="12.681436937925175"><ele>97.00000000000001</ele><time>2026-04-12T11:00:42Z</time></trkpt><trkpt lat="46.02308367539242" lon="12.681560851276297"><ele>97.0</ele><time>2026-04-12T11:00:43Z</time></trkpt><trkpt lat="46.02312139229772" lon="12.681672484775769"><ele>97.0</ele><time>2026-04-12T11:00:44Z</time></trkpt><trkpt lat="46.023150297163006" lon="12.681758388366324"><ele>97.0</ele><time>2026-04-12T11:00:45Z</time></trkpt><trkpt lat="46.023210769934586" lon="12.681875482182557"><ele>97.0</ele><time>2026-04-12T11:00:47Z</time></trkpt><trkpt lat="46.02323955416538" lon="12.681966245480934"><ele>97.0</ele><time>2026-04-12T11:00:48Z</time></trkpt><trkpt lat="46.02329681971479" lon="12.682127037165747"><ele>97.0</ele><time>2026-04-12T11:00:50Z</time></trkpt><trkpt lat="46.02335463136437" lon="12.682265867752719"><ele>97.00000000000001</ele><time>2026-04-12T11:00:52Z</time></trkpt><trkpt lat="46.02339923152423" lon="12.682388738790829"><ele>97.0</ele><time>2026-04-12T11:00:54Z</time></trkpt><trkpt lat="46.023437490690014" lon="12.682473881140732"><ele>97.0</ele><time>2026-04-12T11:00:57Z</time></trkpt><trkpt lat="46.023523299536684" lon="12.68242419787621"><ele>97.0</ele><time>2026-04-12T11:01:00Z</time></trkpt><trkpt lat="46.023578212009106" lon="12.682367671574752"><ele>97.00000000000001</ele><time>2026-04-12T11:01:01Z</time></trkpt><trkpt lat="46.02365856035984" lon="12.682309075268114"><ele>97.0</ele><time>2026-04-12T11:01:02Z</time></trkpt><trkpt lat="46.023736116954446" lon="12.682250765107195"><ele>97.0</ele><time>2026-04-12T11:01:03Z</time></trkpt><trkpt lat="46.02382353621704" lon="12.682157062429606"><ele>97.0</ele><time>2026-04-12T11:01:04Z</time></trkpt><trkpt lat="46.02394067862658" lon="12.682059802381916"><ele>97.0</ele><time>2026-04-12T11:01:05Z</time></trkpt><trkpt lat="46.02406737207395" lon="12.681937072362755"><ele>97.0</ele><time>2026-04-12T11:01:06Z</time></trkpt><trkpt lat="46.02418812761467" lon="12.681812712913104"><ele>97.25</ele><time>2026-04-12T11:01:07Z</time></trkpt><trkpt lat="46.024284970516796" lon="12.681705720799867"><ele>97.5</ele><time>2026-04-12T11:01:08Z</time></trkpt><trkpt lat="46.0243913535773" lon="12.681608129561276"><ele>97.75</ele><time>2026-04-12T11:01:09Z</time></trkpt><trkpt lat="46.024504024671415" lon="12.68150010127253"><ele>98.0</ele><time>2026-04-12T11:01:10Z</time></trkpt><trkpt lat="46.02460778980461" lon="12.681393588471414"><ele>98.0</ele><time>2026-04-12T11:01:11Z</time></trkpt><trkpt lat="46.02470354393203" lon="12.681291497032278"><ele>98.0</ele><time>2026-04-12T11:01:12Z</time></trkpt><trkpt lat="46.024813800078576" lon="12.681173241385341"><ele>98.0</ele><time>2026-04-12T11:01:13Z</time></trkpt><trkpt lat="46.02494107890091" lon="12.681042275158493"><ele>98.0</ele><time>2026-04-12T11:01:14Z</time></trkpt><trkpt lat="46.02506667723901" lon="12.680889476619232"><ele>98.25</ele><time>2026-04-12T11:01:15Z</time></trkpt><trkpt lat="46.02519067450707" lon="12.680754002564239"><ele>98.5</ele><time>2026-04-12T11:01:16Z</time></trkpt><trkpt lat="46.02530473690468" lon="12.680616392106938"><ele>98.75</ele><time>2026-04-12T11:01:17Z</time></trkpt><trkpt lat="46.02541095778188" lon="12.680503052154819"><ele>99.0</ele><time>2026-04-12T11:01:18Z</time></trkpt><trkpt lat="46.02549577595636" lon="12.68039085267292"><ele>99.0</ele><time>2026-04-12T11:01:19Z</time></trkpt><trkpt lat="46.02557931562597" lon="12.680276175822852"><ele>99.0</ele><time>2026-04-12T11:01:20Z</time></trkpt><trkpt lat="46.02566263271582" lon="12.680148784927399"><ele>99.0</ele><time>2026-04-12T11:01:21Z</time></trkpt><trkpt lat="46.02573738748899" lon="12.680040155659542"><ele>99.0</ele><time>2026-04-12T11:01:22Z</time></trkpt><trkpt lat="46.025803935804646" lon="12.679941998105457"><ele>99.0</ele><time>2026-04-12T11:01:23Z</time></trkpt><trkpt lat="46.025857724410194" lon="12.679863872972588"><ele>99.33333333333333</ele><time>2026-04-12T11:01:24Z</time></trkpt><trkpt lat="46.02590086938634" lon="12.679778337138824"><ele>99.66666666666666</ele><time>2026-04-12T11:01:25Z</time></trkpt><trkpt lat="46.02595009763098" lon="12.67967066392868"><ele>100.0</ele><time>2026-04-12T11:01:27Z</time></trkpt><trkpt lat="46.02600076620089" lon="12.679584675622262"><ele>100.33333333333333</ele><time>2026-04-12T11:01:32Z</time></trkpt><trkpt lat="46.02605712412269" lon="12.679540993138419"><ele>100.66666666666666</ele><time>2026-04-12T11:01:33Z</time></trkpt><trkpt lat="46.02612396725466" lon="12.67951052619799"><ele>101.0</ele><time>2026-04-12T11:01:34Z</time></trkpt><trkpt lat="46.02620593458522" lon="12.679459454012903"><ele>101.0</ele><time>2026-04-12T11:01:35Z</time></trkpt><trkpt lat="46.02629045508113" lon="12.679399778192158"><ele>101.0</ele><time>2026-04-12T11:01:36Z</time></trkpt><trkpt lat="46.02639569813328" lon="12.679356578380169"><ele>101.0</ele><time>2026-04-12T11:01:37Z</time></trkpt><trkpt lat="46.026467188384856" lon="12.679305071181421"><ele>101.0</ele><time>2026-04-12T11:01:38Z</time></trkpt><trkpt lat="46.02653473669386" lon="12.679253214504726"><ele>101.0</ele><time>2026-04-12T11:01:39Z</time></trkpt><trkpt lat="46.02661651798788" lon="12.679188516263075"><ele>101.49999999999999</ele><time>2026-04-12T11:01:40Z</time></trkpt><trkpt lat="46.026692166040185" lon="12.679127385856903"><ele>102.0</ele><time>2026-04-12T11:01:41Z</time></trkpt><trkpt lat="46.02676685112065" lon="12.679067033604836"><ele>102.5</ele><time>2026-04-12T11:01:42Z</time></trkpt><trkpt lat="46.02684663939837" lon="12.679005200230986"><ele>103.0</ele><time>2026-04-12T11:01:43Z</time></trkpt><trkpt lat="46.02692387666481" lon="12.678947311109004"><ele>103.49999999999999</ele><time>2026-04-12T11:01:44Z</time></trkpt><trkpt lat="46.0269935279588" lon="12.678895107650886"><ele>104.0</ele><time>2026-04-12T11:01:45Z</time></trkpt><trkpt lat="46.02704967713389" lon="12.678853023984516"><ele>104.0</ele><time>2026-04-12T11:01:46Z</time></trkpt><trkpt lat="46.02714002367674" lon="12.678772929251139"><ele>104.0</ele><time>2026-04-12T11:01:48Z</time></trkpt><trkpt lat="46.02720304392795" lon="12.678746268687515"><ele>104.0</ele><time>2026-04-12T11:01:51Z</time></trkpt></trkseg></trk></gpx>